<?xml version="1.0" encoding="UTF-8" standalone="no" ?>
<gpx xmlns="http://www.topografix.com/GPX/1/1" xmlns:xsi="http://www.w3.org/2001/XMLSchema-instance" xsi:schemaLocation="http://www.topografix.com/GPX/1/1 http://www.topografix.com/GPX/1/1/gpx.xsd" version="1.1" creator="VisuGPX - https://www.visugpx.com">
  <metadata>
    <name>sommet Mont Aigoual - Cabrillac</name>
    <desc><![CDATA[2017-05 - sommet du Mont Aigoual - col de l'Estrade - le Caumel - Cabrillac

[b]album[/b] : [url]https://goo.gl/photos/7QM9FQtSAokuKqXL8[/url]

[img]https://2.bp.blogspot.com/-vWSKqBMkJWo/WScnmmR0MHI/AAAAAAAATog/LGmqpL_tXaUMe8sfG7xi1gxDyvUWUku_gCLcB/s1600/2017-05_mont-aigoual_cabrillac_i.JPG[/img]

[b]Idées de randonnées dans la même région[/b]
Parcours : [url]https://www.visugpx.com/membres/24856/montagne/aigoual/[/url]
Photos : [url]https://jcvertygo.blogspot.com/p/mont-aigoual.html[/url]]]></desc>
  </metadata>
  <trk>
    <name><![CDATA[sommet Mont Aigoual - Cabrillac_1]]></name>
    <trkseg>
      <trkpt lat="44.12155" lon="3.57999">
        <ele>1557.8</ele>
        <time>2017-05-24T12:31:31Z</time>
      </trkpt>
      <trkpt lat="44.12158" lon="3.58008">
        <ele>1557.8</ele>
        <time>2017-05-24T12:31:36Z</time>
      </trkpt>
      <trkpt lat="44.12159" lon="3.58013">
        <ele>1557.8510732678</ele>
        <time>2017-05-24T12:31:41Z</time>
      </trkpt>
      <trkpt lat="44.12158" lon="3.58019">
        <ele>1557.8510732678</ele>
        <time>2017-05-24T12:31:50Z</time>
      </trkpt>
      <trkpt lat="44.12158" lon="3.58025">
        <ele>1557.8510732678</ele>
        <time>2017-05-24T12:31:51Z</time>
      </trkpt>
      <trkpt lat="44.12156" lon="3.5803">
        <ele>1565.7009136619</ele>
        <time>2017-05-24T12:32:07Z</time>
      </trkpt>
      <trkpt lat="44.12156" lon="3.58038">
        <ele>1565.7009136619</ele>
        <time>2017-05-24T12:32:32Z</time>
      </trkpt>
      <trkpt lat="44.12157" lon="3.58053">
        <ele>1573.4699275038</ele>
        <time>2017-05-24T12:32:32Z</time>
      </trkpt>
      <trkpt lat="44.12161" lon="3.58082">
        <ele>1581.159620311</ele>
        <time>2017-05-24T12:32:51Z</time>
      </trkpt>
      <trkpt lat="44.12161" lon="3.58097">
        <ele>1588.7537563597</ele>
        <time>2017-05-24T12:33:21Z</time>
      </trkpt>
      <trkpt lat="44.12166" lon="3.58113">
        <ele>1595.7951404194</ele>
        <time>2017-05-24T12:33:36Z</time>
      </trkpt>
      <trkpt lat="44.12168" lon="3.58162">
        <ele>1602.3182045967</ele>
        <time>2017-05-24T12:34:17Z</time>
      </trkpt>
      <trkpt lat="44.12165" lon="3.5817">
        <ele>1602.3182045967</ele>
        <time>2017-05-24T12:34:25Z</time>
      </trkpt>
      <trkpt lat="44.12153" lon="3.58205">
        <ele>1607.7063556819</ele>
        <time>2017-05-24T12:34:54Z</time>
      </trkpt>
      <trkpt lat="44.1215" lon="3.58216">
        <ele>1607.7063556819</ele>
        <time>2017-05-24T12:34:58Z</time>
      </trkpt>
      <trkpt lat="44.12151" lon="3.5828">
        <ele>1610.7505083178</ele>
        <time>2017-05-24T12:35:36Z</time>
      </trkpt>
      <trkpt lat="44.12151" lon="3.58288">
        <ele>1610.7505083178</ele>
        <time>2017-05-24T12:35:36Z</time>
      </trkpt>
      <trkpt lat="44.12151" lon="3.58302">
        <ele>1612.2567582368</ele>
        <time>2017-05-24T12:35:47Z</time>
      </trkpt>
      <trkpt lat="44.1215" lon="3.58304">
        <ele>1612.2567582368</ele>
        <time>2017-05-24T12:35:51Z</time>
      </trkpt>
      <trkpt lat="44.12151" lon="3.58323">
        <ele>1612.6907554259</ele>
        <time>2017-05-24T12:36:01Z</time>
      </trkpt>
      <trkpt lat="44.12151" lon="3.58332">
        <ele>1612.6907554259</ele>
        <time>2017-05-24T12:36:06Z</time>
      </trkpt>
      <trkpt lat="44.12153" lon="3.58347">
        <ele>1612.0036397133</ele>
        <time>2017-05-24T12:36:16Z</time>
      </trkpt>
      <trkpt lat="44.12155" lon="3.58354">
        <ele>1612.0036397133</ele>
        <time>2017-05-24T12:36:21Z</time>
      </trkpt>
      <trkpt lat="44.12154" lon="3.58366">
        <ele>1610.2724188551</ele>
        <time>2017-05-24T12:36:31Z</time>
      </trkpt>
      <trkpt lat="44.12154" lon="3.58369">
        <ele>1610.2724188551</ele>
        <time>2017-05-24T12:36:36Z</time>
      </trkpt>
      <trkpt lat="44.12155" lon="3.5839">
        <ele>1607.7667792436</ele>
        <time>2017-05-24T12:36:51Z</time>
      </trkpt>
      <trkpt lat="44.12156" lon="3.58397">
        <ele>1607.7667792436</ele>
        <time>2017-05-24T12:36:56Z</time>
      </trkpt>
      <trkpt lat="44.12162" lon="3.58411">
        <ele>1604.7443465681</ele>
        <time>2017-05-24T12:37:13Z</time>
      </trkpt>
      <trkpt lat="44.12165" lon="3.58421">
        <ele>1604.7443465681</ele>
        <time>2017-05-24T12:37:13Z</time>
      </trkpt>
      <trkpt lat="44.12172" lon="3.58445">
        <ele>1601.0223671385</ele>
        <time>2017-05-24T12:37:31Z</time>
      </trkpt>
      <trkpt lat="44.12173" lon="3.58452">
        <ele>1601.0223671385</ele>
        <time>2017-05-24T12:37:37Z</time>
      </trkpt>
      <trkpt lat="44.1217" lon="3.5846">
        <ele>1597.1008860947</ele>
        <time>2017-05-24T12:37:43Z</time>
      </trkpt>
      <trkpt lat="44.12159" lon="3.58486">
        <ele>1592.988958205</ele>
        <time>2017-05-24T12:38:09Z</time>
      </trkpt>
      <trkpt lat="44.12155" lon="3.58499">
        <ele>1588.9825095208</ele>
        <time>2017-05-24T12:38:09Z</time>
      </trkpt>
      <trkpt lat="44.12115" lon="3.58579">
        <ele>1583.7248895572</ele>
        <time>2017-05-24T12:39:14Z</time>
      </trkpt>
      <trkpt lat="44.12084" lon="3.58621">
        <ele>1578.1146789532</ele>
        <time>2017-05-24T12:39:56Z</time>
      </trkpt>
      <trkpt lat="44.12075" lon="3.58624">
        <ele>1572.7889573169</ele>
        <time>2017-05-24T12:39:56Z</time>
      </trkpt>
      <trkpt lat="44.12067" lon="3.58625">
        <ele>1572.7889573169</ele>
        <time>2017-05-24T12:40:09Z</time>
      </trkpt>
      <trkpt lat="44.12036" lon="3.58634">
        <ele>1567.2437341491</ele>
        <time>2017-05-24T12:40:34Z</time>
      </trkpt>
      <trkpt lat="44.12032" lon="3.58636">
        <ele>1567.2437341491</ele>
        <time>2017-05-24T12:40:37Z</time>
      </trkpt>
      <trkpt lat="44.12014" lon="3.58643">
        <ele>1561.7552733622</ele>
        <time>2017-05-24T12:40:50Z</time>
      </trkpt>
      <trkpt lat="44.12012" lon="3.58643">
        <ele>1561.7552733622</ele>
        <time>2017-05-24T12:40:51Z</time>
      </trkpt>
      <trkpt lat="44.11997" lon="3.58663">
        <ele>1556.4140324973</ele>
        <time>2017-05-24T12:41:11Z</time>
      </trkpt>
      <trkpt lat="44.11982" lon="3.58684">
        <ele>1551.1082192556</ele>
        <time>2017-05-24T12:41:30Z</time>
      </trkpt>
      <trkpt lat="44.11978" lon="3.58695">
        <ele>1551.1082192556</ele>
        <time>2017-05-24T12:41:41Z</time>
      </trkpt>
      <trkpt lat="44.11978" lon="3.58695">
        <ele>1551.1082192556</ele>
        <time>2017-05-24T12:41:46Z</time>
      </trkpt>
      <trkpt lat="44.11966" lon="3.5871">
        <ele>1545.7358316937</ele>
        <time>2017-05-24T12:41:58Z</time>
      </trkpt>
      <trkpt lat="44.11946" lon="3.58721">
        <ele>1540.2179379163</ele>
        <time>2017-05-24T12:42:30Z</time>
      </trkpt>
      <trkpt lat="44.11943" lon="3.58739">
        <ele>1534.8886890126</ele>
        <time>2017-05-24T12:42:46Z</time>
      </trkpt>
      <trkpt lat="44.11939" lon="3.58748">
        <ele>1534.8886890126</ele>
        <time>2017-05-24T12:42:46Z</time>
      </trkpt>
      <trkpt lat="44.11935" lon="3.58754">
        <ele>1529.6464319372</ele>
        <time>2017-05-24T12:43:00Z</time>
      </trkpt>
      <trkpt lat="44.119" lon="3.58772">
        <ele>1524.5110558767</ele>
        <time>2017-05-24T12:43:52Z</time>
      </trkpt>
      <trkpt lat="44.1189" lon="3.5878">
        <ele>1519.7663286799</ele>
        <time>2017-05-24T12:43:52Z</time>
      </trkpt>
      <trkpt lat="44.1188" lon="3.58789">
        <ele>1515.38611659</ele>
        <time>2017-05-24T12:44:05Z</time>
      </trkpt>
      <trkpt lat="44.1188" lon="3.5879">
        <ele>1515.38611659</ele>
        <time>2017-05-24T12:44:06Z</time>
      </trkpt>
      <trkpt lat="44.11843" lon="3.58817">
        <ele>1511.4328281229</ele>
        <time>2017-05-24T12:45:08Z</time>
      </trkpt>
      <trkpt lat="44.11826" lon="3.58834">
        <ele>1507.8561644782</ele>
        <time>2017-05-24T12:45:21Z</time>
      </trkpt>
      <trkpt lat="44.11826" lon="3.58836">
        <ele>1507.8561644782</ele>
        <time>2017-05-24T12:45:24Z</time>
      </trkpt>
      <trkpt lat="44.11824" lon="3.5884">
        <ele>1507.8561644782</ele>
        <time>2017-05-24T12:45:37Z</time>
      </trkpt>
      <trkpt lat="44.11823" lon="3.5884">
        <ele>1507.8561644782</ele>
        <time>2017-05-24T12:45:41Z</time>
      </trkpt>
      <trkpt lat="44.11819" lon="3.58847">
        <ele>1504.6811605008</ele>
        <time>2017-05-24T12:46:47Z</time>
      </trkpt>
      <trkpt lat="44.11816" lon="3.58849">
        <ele>1504.6811605008</ele>
        <time>2017-05-24T12:46:47Z</time>
      </trkpt>
      <trkpt lat="44.11789" lon="3.58873">
        <ele>1501.8905789628</ele>
        <time>2017-05-24T12:47:33Z</time>
      </trkpt>
      <trkpt lat="44.11775" lon="3.58886">
        <ele>1499.6246399072</ele>
        <time>2017-05-24T12:48:07Z</time>
      </trkpt>
      <trkpt lat="44.11769" lon="3.58892">
        <ele>1499.6246399072</ele>
        <time>2017-05-24T12:48:07Z</time>
      </trkpt>
      <trkpt lat="44.11765" lon="3.589">
        <ele>1497.5590996279</ele>
        <time>2017-05-24T12:48:21Z</time>
      </trkpt>
      <trkpt lat="44.11765" lon="3.58906">
        <ele>1497.5590996279</ele>
        <time>2017-05-24T12:48:24Z</time>
      </trkpt>
      <trkpt lat="44.11766" lon="3.58977">
        <ele>1495.4715771118</ele>
        <time>2017-05-24T12:49:10Z</time>
      </trkpt>
      <trkpt lat="44.11768" lon="3.58983">
        <ele>1495.4715771118</ele>
        <time>2017-05-24T12:49:14Z</time>
      </trkpt>
      <trkpt lat="44.11789" lon="3.59039">
        <ele>1493.7004549706</ele>
        <time>2017-05-24T12:50:02Z</time>
      </trkpt>
      <trkpt lat="44.11789" lon="3.59048">
        <ele>1493.7004549706</ele>
        <time>2017-05-24T12:50:05Z</time>
      </trkpt>
      <trkpt lat="44.11792" lon="3.5906">
        <ele>1492.1284437936</ele>
        <time>2017-05-24T12:50:23Z</time>
      </trkpt>
      <trkpt lat="44.11793" lon="3.59071">
        <ele>1492.1284437936</ele>
        <time>2017-05-24T12:50:23Z</time>
      </trkpt>
      <trkpt lat="44.11795" lon="3.59076">
        <ele>1490.7747779853</ele>
        <time>2017-05-24T12:50:33Z</time>
      </trkpt>
      <trkpt lat="44.11804" lon="3.59106">
        <ele>1489.8625740018</ele>
        <time>2017-05-24T12:51:14Z</time>
      </trkpt>
      <trkpt lat="44.11844" lon="3.59101">
        <ele>1489.5108570634</ele>
        <time>2017-05-24T12:51:59Z</time>
      </trkpt>
      <trkpt lat="44.11859" lon="3.59102">
        <ele>1489.4109843827</ele>
        <time>2017-05-24T12:52:11Z</time>
      </trkpt>
      <trkpt lat="44.11877" lon="3.591">
        <ele>1489.7046633744</ele>
        <time>2017-05-24T12:52:39Z</time>
      </trkpt>
      <trkpt lat="44.11883" lon="3.59102">
        <ele>1489.7046633744</ele>
        <time>2017-05-24T12:52:39Z</time>
      </trkpt>
      <trkpt lat="44.11898" lon="3.59099">
        <ele>1490.5373607865</ele>
        <time>2017-05-24T12:52:55Z</time>
      </trkpt>
      <trkpt lat="44.11913" lon="3.59079">
        <ele>1491.4552072041</ele>
        <time>2017-05-24T12:53:07Z</time>
      </trkpt>
      <trkpt lat="44.11917" lon="3.59075">
        <ele>1491.4552072041</ele>
        <time>2017-05-24T12:53:11Z</time>
      </trkpt>
      <trkpt lat="44.11923" lon="3.59072">
        <ele>1492.7130212399</ele>
        <time>2017-05-24T12:53:22Z</time>
      </trkpt>
      <trkpt lat="44.11926" lon="3.59072">
        <ele>1492.7130212399</ele>
        <time>2017-05-24T12:53:29Z</time>
      </trkpt>
      <trkpt lat="44.11932" lon="3.59077">
        <ele>1494.1086837916</ele>
        <time>2017-05-24T12:53:41Z</time>
      </trkpt>
      <trkpt lat="44.11932" lon="3.59077">
        <ele>1494.1086837916</ele>
        <time>2017-05-24T12:53:46Z</time>
      </trkpt>
      <trkpt lat="44.11934" lon="3.59081">
        <ele>1494.1086837916</ele>
        <time>2017-05-24T12:53:51Z</time>
      </trkpt>
      <trkpt lat="44.11936" lon="3.59084">
        <ele>1494.1086837916</ele>
        <time>2017-05-24T12:54:01Z</time>
      </trkpt>
      <trkpt lat="44.11943" lon="3.59092">
        <ele>1495.4847117192</ele>
        <time>2017-05-24T12:54:16Z</time>
      </trkpt>
      <trkpt lat="44.11944" lon="3.59093">
        <ele>1495.4847117192</ele>
        <time>2017-05-24T12:54:21Z</time>
      </trkpt>
      <trkpt lat="44.11946" lon="3.59094">
        <ele>1495.4847117192</ele>
        <time>2017-05-24T12:54:26Z</time>
      </trkpt>
      <trkpt lat="44.1195" lon="3.591">
        <ele>1496.4545967552</ele>
        <time>2017-05-24T12:54:39Z</time>
      </trkpt>
      <trkpt lat="44.11958" lon="3.59107">
        <ele>1496.4545967552</ele>
        <time>2017-05-24T12:55:01Z</time>
      </trkpt>
      <trkpt lat="44.11967" lon="3.59115">
        <ele>1497.2526545614</ele>
        <time>2017-05-24T12:55:18Z</time>
      </trkpt>
      <trkpt lat="44.11971" lon="3.59117">
        <ele>1497.2526545614</ele>
        <time>2017-05-24T12:55:18Z</time>
      </trkpt>
      <trkpt lat="44.1198" lon="3.59126">
        <ele>1497.7646167087</ele>
        <time>2017-05-24T12:55:34Z</time>
      </trkpt>
      <trkpt lat="44.11999" lon="3.59161">
        <ele>1497.7215355272</ele>
        <time>2017-05-24T12:56:00Z</time>
      </trkpt>
      <trkpt lat="44.12" lon="3.59161">
        <ele>1497.7215355272</ele>
        <time>2017-05-24T12:56:07Z</time>
      </trkpt>
      <trkpt lat="44.12005" lon="3.59171">
        <ele>1497.5853192187</ele>
        <time>2017-05-24T12:56:07Z</time>
      </trkpt>
      <trkpt lat="44.12041" lon="3.5918">
        <ele>1496.3707638574</ele>
        <time>2017-05-24T12:56:51Z</time>
      </trkpt>
      <trkpt lat="44.1207" lon="3.59191">
        <ele>1494.3459220261</ele>
        <time>2017-05-24T12:57:25Z</time>
      </trkpt>
      <trkpt lat="44.12088" lon="3.59194">
        <ele>1491.6548215563</ele>
        <time>2017-05-24T12:57:42Z</time>
      </trkpt>
      <trkpt lat="44.12093" lon="3.59194">
        <ele>1491.6548215563</ele>
        <time>2017-05-24T12:57:46Z</time>
      </trkpt>
      <trkpt lat="44.12098" lon="3.59195">
        <ele>1488.9229918972</ele>
        <time>2017-05-24T12:57:51Z</time>
      </trkpt>
      <trkpt lat="44.121" lon="3.59194">
        <ele>1488.9229918972</ele>
        <time>2017-05-24T12:58:01Z</time>
      </trkpt>
      <trkpt lat="44.12108" lon="3.59195">
        <ele>1486.232995354</ele>
        <time>2017-05-24T12:58:21Z</time>
      </trkpt>
      <trkpt lat="44.12117" lon="3.59198">
        <ele>1486.232995354</ele>
        <time>2017-05-24T12:58:36Z</time>
      </trkpt>
      <trkpt lat="44.12119" lon="3.59199">
        <ele>1483.4082231647</ele>
        <time>2017-05-24T12:58:41Z</time>
      </trkpt>
      <trkpt lat="44.12126" lon="3.59198">
        <ele>1483.4082231647</ele>
        <time>2017-05-24T12:58:51Z</time>
      </trkpt>
      <trkpt lat="44.12128" lon="3.59198">
        <ele>1483.4082231647</ele>
        <time>2017-05-24T12:58:56Z</time>
      </trkpt>
      <trkpt lat="44.12137" lon="3.59195">
        <ele>1480.4497640679</ele>
        <time>2017-05-24T12:59:16Z</time>
      </trkpt>
      <trkpt lat="44.12144" lon="3.59197">
        <ele>1480.4497640679</ele>
        <time>2017-05-24T12:59:21Z</time>
      </trkpt>
      <trkpt lat="44.12158" lon="3.59195">
        <ele>1477.358840953</ele>
        <time>2017-05-24T12:59:36Z</time>
      </trkpt>
      <trkpt lat="44.12162" lon="3.59194">
        <ele>1477.358840953</ele>
        <time>2017-05-24T12:59:41Z</time>
      </trkpt>
      <trkpt lat="44.12169" lon="3.59195">
        <ele>1473.989675001</ele>
        <time>2017-05-24T12:59:51Z</time>
      </trkpt>
      <trkpt lat="44.12173" lon="3.59195">
        <ele>1473.989675001</ele>
        <time>2017-05-24T12:59:56Z</time>
      </trkpt>
      <trkpt lat="44.12177" lon="3.59196">
        <ele>1473.989675001</ele>
        <time>2017-05-24T13:00:01Z</time>
      </trkpt>
      <trkpt lat="44.12182" lon="3.59195">
        <ele>1470.5027403628</ele>
        <time>2017-05-24T13:00:06Z</time>
      </trkpt>
      <trkpt lat="44.12186" lon="3.59198">
        <ele>1470.5027403628</ele>
        <time>2017-05-24T13:00:11Z</time>
      </trkpt>
      <trkpt lat="44.12188" lon="3.59197">
        <ele>1470.5027403628</ele>
        <time>2017-05-24T13:00:16Z</time>
      </trkpt>
      <trkpt lat="44.12197" lon="3.592">
        <ele>1466.8257188331</ele>
        <time>2017-05-24T13:00:26Z</time>
      </trkpt>
      <trkpt lat="44.12214" lon="3.59195">
        <ele>1463.0387479026</ele>
        <time>2017-05-24T13:00:41Z</time>
      </trkpt>
      <trkpt lat="44.12223" lon="3.59198">
        <ele>1463.0387479026</ele>
        <time>2017-05-24T13:00:50Z</time>
      </trkpt>
      <trkpt lat="44.12236" lon="3.592">
        <ele>1458.8508394037</ele>
        <time>2017-05-24T13:01:09Z</time>
      </trkpt>
      <trkpt lat="44.12262" lon="3.59201">
        <ele>1454.4468557096</ele>
        <time>2017-05-24T13:01:22Z</time>
      </trkpt>
      <trkpt lat="44.12276" lon="3.59203">
        <ele>1450.2735169772</ele>
        <time>2017-05-24T13:01:32Z</time>
      </trkpt>
      <trkpt lat="44.12286" lon="3.59202">
        <ele>1446.5671599938</ele>
        <time>2017-05-24T13:01:37Z</time>
      </trkpt>
      <trkpt lat="44.12288" lon="3.59202">
        <ele>1446.5671599938</ele>
        <time>2017-05-24T13:01:39Z</time>
      </trkpt>
      <trkpt lat="44.12305" lon="3.592">
        <ele>1443.5008887415</ele>
        <time>2017-05-24T13:01:51Z</time>
      </trkpt>
      <trkpt lat="44.12322" lon="3.59201">
        <ele>1441.1168956856</ele>
        <time>2017-05-24T13:02:06Z</time>
      </trkpt>
      <trkpt lat="44.1233" lon="3.59201">
        <ele>1441.1168956856</ele>
        <time>2017-05-24T13:02:12Z</time>
      </trkpt>
      <trkpt lat="44.1234" lon="3.59204">
        <ele>1439.0472613091</ele>
        <time>2017-05-24T13:02:21Z</time>
      </trkpt>
      <trkpt lat="44.12359" lon="3.59204">
        <ele>1437.4144312123</ele>
        <time>2017-05-24T13:02:38Z</time>
      </trkpt>
      <trkpt lat="44.12364" lon="3.59204">
        <ele>1437.4144312123</ele>
        <time>2017-05-24T13:02:41Z</time>
      </trkpt>
      <trkpt lat="44.1237" lon="3.59207">
        <ele>1435.8679073741</ele>
        <time>2017-05-24T13:02:46Z</time>
      </trkpt>
      <trkpt lat="44.12391" lon="3.59212">
        <ele>1433.8957999037</ele>
        <time>2017-05-24T13:03:04Z</time>
      </trkpt>
      <trkpt lat="44.12394" lon="3.59212">
        <ele>1433.8957999037</ele>
        <time>2017-05-24T13:03:04Z</time>
      </trkpt>
      <trkpt lat="44.12395" lon="3.59213">
        <ele>1433.8957999037</ele>
        <time>2017-05-24T13:03:06Z</time>
      </trkpt>
      <trkpt lat="44.12415" lon="3.59219">
        <ele>1432.0796385498</ele>
        <time>2017-05-24T13:03:36Z</time>
      </trkpt>
      <trkpt lat="44.12441" lon="3.5922">
        <ele>1430.4804433991</ele>
        <time>2017-05-24T13:04:05Z</time>
      </trkpt>
      <trkpt lat="44.12464" lon="3.59224">
        <ele>1428.8799192058</ele>
        <time>2017-05-24T13:04:22Z</time>
      </trkpt>
      <trkpt lat="44.12468" lon="3.59225">
        <ele>1428.8799192058</ele>
        <time>2017-05-24T13:04:28Z</time>
      </trkpt>
      <trkpt lat="44.12536" lon="3.59234">
        <ele>1428.143215955</ele>
        <time>2017-05-24T13:05:26Z</time>
      </trkpt>
      <trkpt lat="44.12549" lon="3.59235">
        <ele>1427.6124204023</ele>
        <time>2017-05-24T13:05:33Z</time>
      </trkpt>
      <trkpt lat="44.12557" lon="3.59234">
        <ele>1427.6124204023</ele>
        <time>2017-05-24T13:05:38Z</time>
      </trkpt>
      <trkpt lat="44.12559" lon="3.59234">
        <ele>1427.1103029126</ele>
        <time>2017-05-24T13:05:41Z</time>
      </trkpt>
      <trkpt lat="44.12572" lon="3.59228">
        <ele>1426.4148831435</ele>
        <time>2017-05-24T13:05:50Z</time>
      </trkpt>
      <trkpt lat="44.12574" lon="3.59228">
        <ele>1426.4148831435</ele>
        <time>2017-05-24T13:05:51Z</time>
      </trkpt>
      <trkpt lat="44.12598" lon="3.59212">
        <ele>1425.1191301339</ele>
        <time>2017-05-24T13:06:11Z</time>
      </trkpt>
      <trkpt lat="44.12611" lon="3.59203">
        <ele>1423.8134998015</ele>
        <time>2017-05-24T13:06:26Z</time>
      </trkpt>
      <trkpt lat="44.12614" lon="3.59201">
        <ele>1423.8134998015</ele>
        <time>2017-05-24T13:06:35Z</time>
      </trkpt>
      <trkpt lat="44.1263" lon="3.59193">
        <ele>1422.1511159245</ele>
        <time>2017-05-24T13:06:53Z</time>
      </trkpt>
      <trkpt lat="44.12645" lon="3.59184">
        <ele>1420.4459397255</ele>
        <time>2017-05-24T13:07:08Z</time>
      </trkpt>
      <trkpt lat="44.12654" lon="3.59182">
        <ele>1418.8880605686</ele>
        <time>2017-05-24T13:07:08Z</time>
      </trkpt>
      <trkpt lat="44.12663" lon="3.5918">
        <ele>1417.3071171704</ele>
        <time>2017-05-24T13:07:26Z</time>
      </trkpt>
      <trkpt lat="44.12669" lon="3.59179">
        <ele>1417.3071171704</ele>
        <time>2017-05-24T13:07:27Z</time>
      </trkpt>
      <trkpt lat="44.12677" lon="3.59175">
        <ele>1415.7183450167</ele>
        <time>2017-05-24T13:07:41Z</time>
      </trkpt>
      <trkpt lat="44.12682" lon="3.59171">
        <ele>1415.7183450167</ele>
        <time>2017-05-24T13:07:41Z</time>
      </trkpt>
      <trkpt lat="44.12695" lon="3.59161">
        <ele>1414.1647214671</ele>
        <time>2017-05-24T13:07:57Z</time>
      </trkpt>
      <trkpt lat="44.12711" lon="3.59151">
        <ele>1412.7292379713</ele>
        <time>2017-05-24T13:08:10Z</time>
      </trkpt>
      <trkpt lat="44.12721" lon="3.59145">
        <ele>1411.5028879607</ele>
        <time>2017-05-24T13:08:17Z</time>
      </trkpt>
      <trkpt lat="44.12732" lon="3.59138">
        <ele>1410.3097720367</ele>
        <time>2017-05-24T13:08:30Z</time>
      </trkpt>
      <trkpt lat="44.12749" lon="3.59132">
        <ele>1409.4916613308</ele>
        <time>2017-05-24T13:08:50Z</time>
      </trkpt>
      <trkpt lat="44.12757" lon="3.59131">
        <ele>1409.4916613308</ele>
        <time>2017-05-24T13:08:50Z</time>
      </trkpt>
      <trkpt lat="44.12768" lon="3.59127">
        <ele>1409.2343605281</ele>
        <time>2017-05-24T13:09:06Z</time>
      </trkpt>
      <trkpt lat="44.12772" lon="3.59127">
        <ele>1409.2343605281</ele>
        <time>2017-05-24T13:09:06Z</time>
      </trkpt>
      <trkpt lat="44.12799" lon="3.59126">
        <ele>1409.7373023194</ele>
        <time>2017-05-24T13:09:26Z</time>
      </trkpt>
      <trkpt lat="44.12807" lon="3.59124">
        <ele>1409.7373023194</ele>
        <time>2017-05-24T13:09:31Z</time>
      </trkpt>
      <trkpt lat="44.12816" lon="3.59119">
        <ele>1410.3753737172</ele>
        <time>2017-05-24T13:09:41Z</time>
      </trkpt>
      <trkpt lat="44.12822" lon="3.59118">
        <ele>1410.3753737172</ele>
        <time>2017-05-24T13:09:46Z</time>
      </trkpt>
      <trkpt lat="44.12834" lon="3.59116">
        <ele>1411.2903107619</ele>
        <time>2017-05-24T13:09:56Z</time>
      </trkpt>
      <trkpt lat="44.12839" lon="3.59116">
        <ele>1411.2903107619</ele>
        <time>2017-05-24T13:10:01Z</time>
      </trkpt>
      <trkpt lat="44.1285" lon="3.59114">
        <ele>1412.1078784557</ele>
        <time>2017-05-24T13:10:11Z</time>
      </trkpt>
      <trkpt lat="44.12858" lon="3.59113">
        <ele>1412.1078784557</ele>
        <time>2017-05-24T13:10:16Z</time>
      </trkpt>
      <trkpt lat="44.12874" lon="3.59113">
        <ele>1413.1163844574</ele>
        <time>2017-05-24T13:10:26Z</time>
      </trkpt>
      <trkpt lat="44.12881" lon="3.59113">
        <ele>1413.1163844574</ele>
        <time>2017-05-24T13:10:31Z</time>
      </trkpt>
      <trkpt lat="44.12892" lon="3.59113">
        <ele>1414.1065250971</ele>
        <time>2017-05-24T13:10:41Z</time>
      </trkpt>
      <trkpt lat="44.12897" lon="3.59113">
        <ele>1414.1065250971</ele>
        <time>2017-05-24T13:10:46Z</time>
      </trkpt>
      <trkpt lat="44.12906" lon="3.59118">
        <ele>1414.6249823927</ele>
        <time>2017-05-24T13:10:56Z</time>
      </trkpt>
      <trkpt lat="44.12911" lon="3.5912">
        <ele>1414.6249823927</ele>
        <time>2017-05-24T13:11:01Z</time>
      </trkpt>
      <trkpt lat="44.12922" lon="3.59128">
        <ele>1415.1618612208</ele>
        <time>2017-05-24T13:11:11Z</time>
      </trkpt>
      <trkpt lat="44.12929" lon="3.5913">
        <ele>1415.1618612208</ele>
        <time>2017-05-24T13:11:16Z</time>
      </trkpt>
      <trkpt lat="44.12943" lon="3.59141">
        <ele>1415.4934674774</ele>
        <time>2017-05-24T13:11:31Z</time>
      </trkpt>
      <trkpt lat="44.12946" lon="3.59145">
        <ele>1415.4934674774</ele>
        <time>2017-05-24T13:11:36Z</time>
      </trkpt>
      <trkpt lat="44.1296" lon="3.59153">
        <ele>1415.6584592901</ele>
        <time>2017-05-24T13:11:46Z</time>
      </trkpt>
      <trkpt lat="44.12965" lon="3.59157">
        <ele>1415.6584592901</ele>
        <time>2017-05-24T13:11:51Z</time>
      </trkpt>
      <trkpt lat="44.12973" lon="3.59165">
        <ele>1415.6644288428</ele>
        <time>2017-05-24T13:12:01Z</time>
      </trkpt>
      <trkpt lat="44.12979" lon="3.59168">
        <ele>1415.6644288428</ele>
        <time>2017-05-24T13:12:06Z</time>
      </trkpt>
      <trkpt lat="44.12989" lon="3.59174">
        <ele>1415.6343606684</ele>
        <time>2017-05-24T13:12:16Z</time>
      </trkpt>
      <trkpt lat="44.12993" lon="3.59178">
        <ele>1415.6343606684</ele>
        <time>2017-05-24T13:12:21Z</time>
      </trkpt>
      <trkpt lat="44.13001" lon="3.59186">
        <ele>1415.624762479</ele>
        <time>2017-05-24T13:12:31Z</time>
      </trkpt>
      <trkpt lat="44.13004" lon="3.5919">
        <ele>1415.624762479</ele>
        <time>2017-05-24T13:12:36Z</time>
      </trkpt>
      <trkpt lat="44.13015" lon="3.59196">
        <ele>1415.6448248393</ele>
        <time>2017-05-24T13:12:46Z</time>
      </trkpt>
      <trkpt lat="44.1302" lon="3.59199">
        <ele>1415.6448248393</ele>
        <time>2017-05-24T13:12:51Z</time>
      </trkpt>
      <trkpt lat="44.13033" lon="3.59207">
        <ele>1415.4003826918</ele>
        <time>2017-05-24T13:13:01Z</time>
      </trkpt>
      <trkpt lat="44.13037" lon="3.59208">
        <ele>1415.4003826918</ele>
        <time>2017-05-24T13:13:06Z</time>
      </trkpt>
      <trkpt lat="44.13042" lon="3.59212">
        <ele>1415.0378926331</ele>
        <time>2017-05-24T13:13:16Z</time>
      </trkpt>
      <trkpt lat="44.13047" lon="3.59218">
        <ele>1415.0378926331</ele>
        <time>2017-05-24T13:13:21Z</time>
      </trkpt>
      <trkpt lat="44.13058" lon="3.5922">
        <ele>1414.5061042521</ele>
        <time>2017-05-24T13:13:26Z</time>
      </trkpt>
      <trkpt lat="44.13064" lon="3.59224">
        <ele>1414.5061042521</ele>
        <time>2017-05-24T13:13:31Z</time>
      </trkpt>
      <trkpt lat="44.13069" lon="3.59226">
        <ele>1413.7725722795</ele>
        <time>2017-05-24T13:13:36Z</time>
      </trkpt>
      <trkpt lat="44.13072" lon="3.59228">
        <ele>1413.7725722795</ele>
        <time>2017-05-24T13:13:41Z</time>
      </trkpt>
      <trkpt lat="44.13078" lon="3.59228">
        <ele>1412.8367693953</ele>
        <time>2017-05-24T13:13:46Z</time>
      </trkpt>
      <trkpt lat="44.13078" lon="3.59228">
        <ele>1412.8367693953</ele>
        <time>2017-05-24T13:13:51Z</time>
      </trkpt>
      <trkpt lat="44.13084" lon="3.59229">
        <ele>1412.8367693953</ele>
        <time>2017-05-24T13:13:56Z</time>
      </trkpt>
      <trkpt lat="44.1309" lon="3.59228">
        <ele>1411.439453574</ele>
        <time>2017-05-24T13:14:01Z</time>
      </trkpt>
      <trkpt lat="44.13097" lon="3.5923">
        <ele>1411.439453574</ele>
        <time>2017-05-24T13:14:06Z</time>
      </trkpt>
      <trkpt lat="44.13101" lon="3.59232">
        <ele>1409.8175081234</ele>
        <time>2017-05-24T13:14:11Z</time>
      </trkpt>
      <trkpt lat="44.13107" lon="3.5923">
        <ele>1409.8175081234</ele>
        <time>2017-05-24T13:14:16Z</time>
      </trkpt>
      <trkpt lat="44.13113" lon="3.5923">
        <ele>1408.119057743</ele>
        <time>2017-05-24T13:14:21Z</time>
      </trkpt>
      <trkpt lat="44.13117" lon="3.59227">
        <ele>1408.119057743</ele>
        <time>2017-05-24T13:14:26Z</time>
      </trkpt>
      <trkpt lat="44.13121" lon="3.59226">
        <ele>1408.119057743</ele>
        <time>2017-05-24T13:14:31Z</time>
      </trkpt>
      <trkpt lat="44.13125" lon="3.59223">
        <ele>1406.0924995197</ele>
        <time>2017-05-24T13:14:36Z</time>
      </trkpt>
      <trkpt lat="44.1313" lon="3.59221">
        <ele>1406.0924995197</ele>
        <time>2017-05-24T13:14:41Z</time>
      </trkpt>
      <trkpt lat="44.13134" lon="3.59221">
        <ele>1404.0822255688</ele>
        <time>2017-05-24T13:14:46Z</time>
      </trkpt>
      <trkpt lat="44.13139" lon="3.5922">
        <ele>1404.0822255688</ele>
        <time>2017-05-24T13:14:51Z</time>
      </trkpt>
      <trkpt lat="44.1314" lon="3.59216">
        <ele>1404.0822255688</ele>
        <time>2017-05-24T13:14:56Z</time>
      </trkpt>
      <trkpt lat="44.13144" lon="3.5921">
        <ele>1401.9893741327</ele>
        <time>2017-05-24T13:15:01Z</time>
      </trkpt>
      <trkpt lat="44.13151" lon="3.59205">
        <ele>1401.9893741327</ele>
        <time>2017-05-24T13:15:11Z</time>
      </trkpt>
      <trkpt lat="44.13158" lon="3.59202">
        <ele>1399.8091065366</ele>
        <time>2017-05-24T13:15:16Z</time>
      </trkpt>
      <trkpt lat="44.13162" lon="3.59201">
        <ele>1399.8091065366</ele>
        <time>2017-05-24T13:15:21Z</time>
      </trkpt>
      <trkpt lat="44.13166" lon="3.592">
        <ele>1399.8091065366</ele>
        <time>2017-05-24T13:15:26Z</time>
      </trkpt>
      <trkpt lat="44.13171" lon="3.59199">
        <ele>1397.5660452312</ele>
        <time>2017-05-24T13:15:31Z</time>
      </trkpt>
      <trkpt lat="44.13175" lon="3.592">
        <ele>1397.5660452312</ele>
        <time>2017-05-24T13:15:36Z</time>
      </trkpt>
      <trkpt lat="44.13179" lon="3.59202">
        <ele>1397.5660452312</ele>
        <time>2017-05-24T13:15:41Z</time>
      </trkpt>
      <trkpt lat="44.13185" lon="3.59201">
        <ele>1394.9085013365</ele>
        <time>2017-05-24T13:15:46Z</time>
      </trkpt>
      <trkpt lat="44.13189" lon="3.59199">
        <ele>1394.9085013365</ele>
        <time>2017-05-24T13:15:51Z</time>
      </trkpt>
      <trkpt lat="44.13191" lon="3.59199">
        <ele>1394.9085013365</ele>
        <time>2017-05-24T13:15:56Z</time>
      </trkpt>
      <trkpt lat="44.13195" lon="3.59199">
        <ele>1392.0162007569</ele>
        <time>2017-05-24T13:16:01Z</time>
      </trkpt>
      <trkpt lat="44.13199" lon="3.59198">
        <ele>1392.0162007569</ele>
        <time>2017-05-24T13:16:06Z</time>
      </trkpt>
      <trkpt lat="44.13202" lon="3.59198">
        <ele>1392.0162007569</ele>
        <time>2017-05-24T13:16:11Z</time>
      </trkpt>
      <trkpt lat="44.13207" lon="3.59199">
        <ele>1388.6960263524</ele>
        <time>2017-05-24T13:16:17Z</time>
      </trkpt>
      <trkpt lat="44.13212" lon="3.59199">
        <ele>1388.6960263524</ele>
        <time>2017-05-24T13:16:26Z</time>
      </trkpt>
      <trkpt lat="44.13216" lon="3.59199">
        <ele>1388.6960263524</ele>
        <time>2017-05-24T13:16:31Z</time>
      </trkpt>
      <trkpt lat="44.13219" lon="3.59199">
        <ele>1385.0584493872</ele>
        <time>2017-05-24T13:16:36Z</time>
      </trkpt>
      <trkpt lat="44.1322" lon="3.59199">
        <ele>1385.0584493872</ele>
        <time>2017-05-24T13:16:41Z</time>
      </trkpt>
      <trkpt lat="44.13222" lon="3.59201">
        <ele>1385.0584493872</ele>
        <time>2017-05-24T13:16:46Z</time>
      </trkpt>
      <trkpt lat="44.13226" lon="3.592">
        <ele>1385.0584493872</ele>
        <time>2017-05-24T13:16:51Z</time>
      </trkpt>
      <trkpt lat="44.13229" lon="3.59198">
        <ele>1381.4372495598</ele>
        <time>2017-05-24T13:16:56Z</time>
      </trkpt>
      <trkpt lat="44.13235" lon="3.59197">
        <ele>1381.4372495598</ele>
        <time>2017-05-24T13:17:01Z</time>
      </trkpt>
      <trkpt lat="44.13239" lon="3.59197">
        <ele>1377.8677622505</ele>
        <time>2017-05-24T13:17:06Z</time>
      </trkpt>
      <trkpt lat="44.13242" lon="3.59198">
        <ele>1377.8677622505</ele>
        <time>2017-05-24T13:17:11Z</time>
      </trkpt>
      <trkpt lat="44.13245" lon="3.59198">
        <ele>1377.8677622505</ele>
        <time>2017-05-24T13:17:16Z</time>
      </trkpt>
      <trkpt lat="44.1325" lon="3.59199">
        <ele>1374.1519215994</ele>
        <time>2017-05-24T13:17:21Z</time>
      </trkpt>
      <trkpt lat="44.13255" lon="3.59211">
        <ele>1370.4956284122</ele>
        <time>2017-05-24T13:17:36Z</time>
      </trkpt>
      <trkpt lat="44.13257" lon="3.59215">
        <ele>1370.4956284122</ele>
        <time>2017-05-24T13:17:41Z</time>
      </trkpt>
      <trkpt lat="44.1326" lon="3.59218">
        <ele>1370.4956284122</ele>
        <time>2017-05-24T13:17:46Z</time>
      </trkpt>
      <trkpt lat="44.13262" lon="3.59223">
        <ele>1366.9020314903</ele>
        <time>2017-05-24T13:17:51Z</time>
      </trkpt>
      <trkpt lat="44.13263" lon="3.59227">
        <ele>1366.9020314903</ele>
        <time>2017-05-24T13:17:56Z</time>
      </trkpt>
      <trkpt lat="44.13265" lon="3.5923">
        <ele>1366.9020314903</ele>
        <time>2017-05-24T13:18:01Z</time>
      </trkpt>
      <trkpt lat="44.13268" lon="3.59235">
        <ele>1363.2872774097</ele>
        <time>2017-05-24T13:18:06Z</time>
      </trkpt>
      <trkpt lat="44.13273" lon="3.5924">
        <ele>1363.2872774097</ele>
        <time>2017-05-24T13:18:11Z</time>
      </trkpt>
      <trkpt lat="44.13275" lon="3.59244">
        <ele>1359.6744708246</ele>
        <time>2017-05-24T13:18:16Z</time>
      </trkpt>
      <trkpt lat="44.13279" lon="3.59245">
        <ele>1359.6744708246</ele>
        <time>2017-05-24T13:18:21Z</time>
      </trkpt>
      <trkpt lat="44.13282" lon="3.59247">
        <ele>1359.6744708246</ele>
        <time>2017-05-24T13:18:26Z</time>
      </trkpt>
      <trkpt lat="44.13287" lon="3.59247">
        <ele>1356.0128059072</ele>
        <time>2017-05-24T13:18:31Z</time>
      </trkpt>
      <trkpt lat="44.13295" lon="3.59252">
        <ele>1356.0128059072</ele>
        <time>2017-05-24T13:18:37Z</time>
      </trkpt>
      <trkpt lat="44.13331" lon="3.5927">
        <ele>1351.7940199574</ele>
        <time>2017-05-24T13:19:20Z</time>
      </trkpt>
      <trkpt lat="44.1334" lon="3.59271">
        <ele>1347.9897158451</ele>
        <time>2017-05-24T13:19:20Z</time>
      </trkpt>
      <trkpt lat="44.13354" lon="3.59275">
        <ele>1344.6196879694</ele>
        <time>2017-05-24T13:19:38Z</time>
      </trkpt>
      <trkpt lat="44.13359" lon="3.59278">
        <ele>1344.6196879694</ele>
        <time>2017-05-24T13:19:43Z</time>
      </trkpt>
      <trkpt lat="44.13363" lon="3.59279">
        <ele>1341.6576376878</ele>
        <time>2017-05-24T13:19:46Z</time>
      </trkpt>
      <trkpt lat="44.13372" lon="3.59283">
        <ele>1339.0490412925</ele>
        <time>2017-05-24T13:19:51Z</time>
      </trkpt>
      <trkpt lat="44.13378" lon="3.59286">
        <ele>1339.0490412925</ele>
        <time>2017-05-24T13:19:56Z</time>
      </trkpt>
      <trkpt lat="44.13383" lon="3.59288">
        <ele>1336.8574923594</ele>
        <time>2017-05-24T13:20:01Z</time>
      </trkpt>
      <trkpt lat="44.13389" lon="3.59294">
        <ele>1336.8574923594</ele>
        <time>2017-05-24T13:20:07Z</time>
      </trkpt>
      <trkpt lat="44.13393" lon="3.59296">
        <ele>1335.0540912027</ele>
        <time>2017-05-24T13:20:11Z</time>
      </trkpt>
      <trkpt lat="44.13397" lon="3.59299">
        <ele>1335.0540912027</ele>
        <time>2017-05-24T13:20:16Z</time>
      </trkpt>
      <trkpt lat="44.13403" lon="3.59302">
        <ele>1333.61079789</ele>
        <time>2017-05-24T13:20:21Z</time>
      </trkpt>
      <trkpt lat="44.13408" lon="3.59304">
        <ele>1333.61079789</ele>
        <time>2017-05-24T13:20:26Z</time>
      </trkpt>
      <trkpt lat="44.13414" lon="3.59307">
        <ele>1332.4860480064</ele>
        <time>2017-05-24T13:20:31Z</time>
      </trkpt>
      <trkpt lat="44.13419" lon="3.5931">
        <ele>1332.4860480064</ele>
        <time>2017-05-24T13:20:36Z</time>
      </trkpt>
      <trkpt lat="44.13424" lon="3.59315">
        <ele>1331.5394080888</ele>
        <time>2017-05-24T13:20:41Z</time>
      </trkpt>
      <trkpt lat="44.1343" lon="3.59316">
        <ele>1331.5394080888</ele>
        <time>2017-05-24T13:20:46Z</time>
      </trkpt>
      <trkpt lat="44.13434" lon="3.59317">
        <ele>1330.7554209527</ele>
        <time>2017-05-24T13:20:51Z</time>
      </trkpt>
      <trkpt lat="44.1344" lon="3.59321">
        <ele>1330.7554209527</ele>
        <time>2017-05-24T13:20:56Z</time>
      </trkpt>
      <trkpt lat="44.13448" lon="3.59331">
        <ele>1330.1336048405</ele>
        <time>2017-05-24T13:21:06Z</time>
      </trkpt>
      <trkpt lat="44.13448" lon="3.59334">
        <ele>1330.1336048405</ele>
        <time>2017-05-24T13:21:11Z</time>
      </trkpt>
      <trkpt lat="44.13448" lon="3.59337">
        <ele>1330.1336048405</ele>
        <time>2017-05-24T13:21:21Z</time>
      </trkpt>
      <trkpt lat="44.13463" lon="3.59343">
        <ele>1329.8026641924</ele>
        <time>2017-05-24T13:22:11Z</time>
      </trkpt>
      <trkpt lat="44.13468" lon="3.59348">
        <ele>1329.8026641924</ele>
        <time>2017-05-24T13:22:16Z</time>
      </trkpt>
      <trkpt lat="44.13478" lon="3.59369">
        <ele>1329.6791933115</ele>
        <time>2017-05-24T13:22:30Z</time>
      </trkpt>
      <trkpt lat="44.13482" lon="3.59371">
        <ele>1329.6791933115</ele>
        <time>2017-05-24T13:22:31Z</time>
      </trkpt>
      <trkpt lat="44.13489" lon="3.59379">
        <ele>1329.7429177997</ele>
        <time>2017-05-24T13:22:41Z</time>
      </trkpt>
      <trkpt lat="44.13509" lon="3.5939">
        <ele>1329.8303731965</ele>
        <time>2017-05-24T13:23:09Z</time>
      </trkpt>
      <trkpt lat="44.13518" lon="3.59395">
        <ele>1329.948541561</ele>
        <time>2017-05-24T13:23:10Z</time>
      </trkpt>
      <trkpt lat="44.13522" lon="3.59396">
        <ele>1329.948541561</ele>
        <time>2017-05-24T13:23:16Z</time>
      </trkpt>
      <trkpt lat="44.1353" lon="3.59403">
        <ele>1330.2046831361</ele>
        <time>2017-05-24T13:23:26Z</time>
      </trkpt>
      <trkpt lat="44.13537" lon="3.59406">
        <ele>1330.2046831361</ele>
        <time>2017-05-24T13:23:31Z</time>
      </trkpt>
      <trkpt lat="44.13553" lon="3.59406">
        <ele>1330.5681049688</ele>
        <time>2017-05-24T13:23:46Z</time>
      </trkpt>
      <trkpt lat="44.13576" lon="3.59412">
        <ele>1330.822753734</ele>
        <time>2017-05-24T13:24:20Z</time>
      </trkpt>
      <trkpt lat="44.1359" lon="3.59413">
        <ele>1331.2443757513</ele>
        <time>2017-05-24T13:24:23Z</time>
      </trkpt>
      <trkpt lat="44.13611" lon="3.59411">
        <ele>1331.9583546613</ele>
        <time>2017-05-24T13:24:42Z</time>
      </trkpt>
      <trkpt lat="44.1363" lon="3.59408">
        <ele>1332.8927767633</ele>
        <time>2017-05-24T13:24:57Z</time>
      </trkpt>
      <trkpt lat="44.13635" lon="3.59409">
        <ele>1332.8927767633</ele>
        <time>2017-05-24T13:25:05Z</time>
      </trkpt>
      <trkpt lat="44.13685" lon="3.5939">
        <ele>1332.7411198133</ele>
        <time>2017-05-24T13:26:04Z</time>
      </trkpt>
      <trkpt lat="44.13692" lon="3.59378">
        <ele>1332.6738488771</ele>
        <time>2017-05-24T13:26:16Z</time>
      </trkpt>
      <trkpt lat="44.13701" lon="3.59372">
        <ele>1332.6800682087</ele>
        <time>2017-05-24T13:26:19Z</time>
      </trkpt>
      <trkpt lat="44.13716" lon="3.59358">
        <ele>1332.7495984041</ele>
        <time>2017-05-24T13:26:35Z</time>
      </trkpt>
      <trkpt lat="44.13716" lon="3.59357">
        <ele>1332.7495984041</ele>
        <time>2017-05-24T13:26:36Z</time>
      </trkpt>
      <trkpt lat="44.1372" lon="3.5935">
        <ele>1332.7495984041</ele>
        <time>2017-05-24T13:26:41Z</time>
      </trkpt>
      <trkpt lat="44.13731" lon="3.59334">
        <ele>1332.7000228887</ele>
        <time>2017-05-24T13:26:51Z</time>
      </trkpt>
      <trkpt lat="44.13735" lon="3.59329">
        <ele>1332.7000228887</ele>
        <time>2017-05-24T13:26:56Z</time>
      </trkpt>
      <trkpt lat="44.13744" lon="3.59323">
        <ele>1332.6942481645</ele>
        <time>2017-05-24T13:27:06Z</time>
      </trkpt>
      <trkpt lat="44.13748" lon="3.59321">
        <ele>1332.6942481645</ele>
        <time>2017-05-24T13:27:11Z</time>
      </trkpt>
      <trkpt lat="44.13758" lon="3.59314">
        <ele>1332.7102912493</ele>
        <time>2017-05-24T13:27:26Z</time>
      </trkpt>
      <trkpt lat="44.13764" lon="3.5931">
        <ele>1332.7102912493</ele>
        <time>2017-05-24T13:27:31Z</time>
      </trkpt>
      <trkpt lat="44.13772" lon="3.59307">
        <ele>1332.6702159953</ele>
        <time>2017-05-24T13:27:41Z</time>
      </trkpt>
      <trkpt lat="44.13771" lon="3.59305">
        <ele>1332.6702159953</ele>
        <time>2017-05-24T13:27:46Z</time>
      </trkpt>
      <trkpt lat="44.1377" lon="3.59305">
        <ele>1332.6702159953</ele>
        <time>2017-05-24T13:27:56Z</time>
      </trkpt>
      <trkpt lat="44.13763" lon="3.59326">
        <ele>1332.1130069909</ele>
        <time>2017-05-24T13:28:28Z</time>
      </trkpt>
      <trkpt lat="44.13756" lon="3.59335">
        <ele>1332.1130069909</ele>
        <time>2017-05-24T13:28:28Z</time>
      </trkpt>
      <trkpt lat="44.13754" lon="3.59345">
        <ele>1331.376895333</ele>
        <time>2017-05-24T13:28:36Z</time>
      </trkpt>
      <trkpt lat="44.13749" lon="3.59351">
        <ele>1331.376895333</ele>
        <time>2017-05-24T13:28:41Z</time>
      </trkpt>
      <trkpt lat="44.13745" lon="3.59369">
        <ele>1330.3868026051</ele>
        <time>2017-05-24T13:28:51Z</time>
      </trkpt>
      <trkpt lat="44.13742" lon="3.59377">
        <ele>1330.3868026051</ele>
        <time>2017-05-24T13:28:56Z</time>
      </trkpt>
      <trkpt lat="44.13737" lon="3.59398">
        <ele>1328.7425525971</ele>
        <time>2017-05-24T13:29:06Z</time>
      </trkpt>
      <trkpt lat="44.13734" lon="3.59406">
        <ele>1328.7425525971</ele>
        <time>2017-05-24T13:29:11Z</time>
      </trkpt>
      <trkpt lat="44.1373" lon="3.59412">
        <ele>1326.6373567377</ele>
        <time>2017-05-24T13:29:16Z</time>
      </trkpt>
      <trkpt lat="44.13726" lon="3.59417">
        <ele>1326.6373567377</ele>
        <time>2017-05-24T13:29:21Z</time>
      </trkpt>
      <trkpt lat="44.13722" lon="3.59422">
        <ele>1324.1507577829</ele>
        <time>2017-05-24T13:29:26Z</time>
      </trkpt>
      <trkpt lat="44.13718" lon="3.59426">
        <ele>1324.1507577829</ele>
        <time>2017-05-24T13:29:31Z</time>
      </trkpt>
      <trkpt lat="44.13715" lon="3.59432">
        <ele>1321.4152642988</ele>
        <time>2017-05-24T13:29:36Z</time>
      </trkpt>
      <trkpt lat="44.13711" lon="3.59437">
        <ele>1321.4152642988</ele>
        <time>2017-05-24T13:29:41Z</time>
      </trkpt>
      <trkpt lat="44.13705" lon="3.59453">
        <ele>1318.0500362722</ele>
        <time>2017-05-24T13:30:02Z</time>
      </trkpt>
      <trkpt lat="44.13708" lon="3.59461">
        <ele>1318.0500362722</ele>
        <time>2017-05-24T13:30:36Z</time>
      </trkpt>
      <trkpt lat="44.13712" lon="3.59466">
        <ele>1314.6984008412</ele>
        <time>2017-05-24T13:30:51Z</time>
      </trkpt>
      <trkpt lat="44.13713" lon="3.59469">
        <ele>1314.6984008412</ele>
        <time>2017-05-24T13:31:23Z</time>
      </trkpt>
      <trkpt lat="44.13717" lon="3.59485">
        <ele>1311.6393805415</ele>
        <time>2017-05-24T13:31:29Z</time>
      </trkpt>
      <trkpt lat="44.13728" lon="3.59485">
        <ele>1308.727185963</ele>
        <time>2017-05-24T13:31:43Z</time>
      </trkpt>
      <trkpt lat="44.13739" lon="3.59479">
        <ele>1306.1145472804</ele>
        <time>2017-05-24T13:31:51Z</time>
      </trkpt>
      <trkpt lat="44.1375" lon="3.5947">
        <ele>1303.7980085779</ele>
        <time>2017-05-24T13:32:06Z</time>
      </trkpt>
      <trkpt lat="44.13768" lon="3.59453">
        <ele>1301.8023332163</ele>
        <time>2017-05-24T13:32:22Z</time>
      </trkpt>
      <trkpt lat="44.13769" lon="3.59452">
        <ele>1301.8023332163</ele>
        <time>2017-05-24T13:32:23Z</time>
      </trkpt>
      <trkpt lat="44.13774" lon="3.59448">
        <ele>1301.8023332163</ele>
        <time>2017-05-24T13:32:39Z</time>
      </trkpt>
      <trkpt lat="44.138" lon="3.59418">
        <ele>1299.9910087752</ele>
        <time>2017-05-24T13:33:00Z</time>
      </trkpt>
      <trkpt lat="44.13802" lon="3.59414">
        <ele>1299.9910087752</ele>
        <time>2017-05-24T13:33:00Z</time>
      </trkpt>
      <trkpt lat="44.13808" lon="3.59411">
        <ele>1298.3666945829</ele>
        <time>2017-05-24T13:33:04Z</time>
      </trkpt>
      <trkpt lat="44.13813" lon="3.59408">
        <ele>1298.3666945829</ele>
        <time>2017-05-24T13:33:13Z</time>
      </trkpt>
      <trkpt lat="44.13796" lon="3.59425">
        <ele>1296.5133648022</ele>
        <time>2017-05-24T13:33:34Z</time>
      </trkpt>
      <trkpt lat="44.13777" lon="3.59463">
        <ele>1294.1326182041</ele>
        <time>2017-05-24T13:34:01Z</time>
      </trkpt>
      <trkpt lat="44.13774" lon="3.59473">
        <ele>1294.1326182041</ele>
        <time>2017-05-24T13:34:07Z</time>
      </trkpt>
      <trkpt lat="44.13759" lon="3.59484">
        <ele>1291.5114382266</ele>
        <time>2017-05-24T13:34:25Z</time>
      </trkpt>
      <trkpt lat="44.1375" lon="3.59494">
        <ele>1288.7434135594</ele>
        <time>2017-05-24T13:34:27Z</time>
      </trkpt>
      <trkpt lat="44.13741" lon="3.59506">
        <ele>1285.9156091249</ele>
        <time>2017-05-24T13:34:36Z</time>
      </trkpt>
      <trkpt lat="44.13704" lon="3.59557">
        <ele>1282.301769122</ele>
        <time>2017-05-24T13:35:23Z</time>
      </trkpt>
      <trkpt lat="44.1368" lon="3.59588">
        <ele>1278.8163378454</ele>
        <time>2017-05-24T13:35:41Z</time>
      </trkpt>
      <trkpt lat="44.1367" lon="3.59601">
        <ele>1275.4126455768</ele>
        <time>2017-05-24T13:35:53Z</time>
      </trkpt>
      <trkpt lat="44.13664" lon="3.59616">
        <ele>1272.1047664467</ele>
        <time>2017-05-24T13:36:17Z</time>
      </trkpt>
      <trkpt lat="44.13657" lon="3.59623">
        <ele>1272.1047664467</ele>
        <time>2017-05-24T13:36:17Z</time>
      </trkpt>
      <trkpt lat="44.13632" lon="3.59656">
        <ele>1268.5594950917</ele>
        <time>2017-05-24T13:36:58Z</time>
      </trkpt>
      <trkpt lat="44.13624" lon="3.59658">
        <ele>1268.5594950917</ele>
        <time>2017-05-24T13:36:58Z</time>
      </trkpt>
      <trkpt lat="44.13615" lon="3.59664">
        <ele>1265.2468518207</ele>
        <time>2017-05-24T13:37:11Z</time>
      </trkpt>
      <trkpt lat="44.13608" lon="3.59672">
        <ele>1265.2468518207</ele>
        <time>2017-05-24T13:37:15Z</time>
      </trkpt>
      <trkpt lat="44.13606" lon="3.59674">
        <ele>1262.2556849688</ele>
        <time>2017-05-24T13:37:16Z</time>
      </trkpt>
      <trkpt lat="44.1359" lon="3.59683">
        <ele>1259.5808179166</ele>
        <time>2017-05-24T13:37:31Z</time>
      </trkpt>
      <trkpt lat="44.13522" lon="3.59688">
        <ele>1256.8561564588</ele>
        <time>2017-05-24T13:38:13Z</time>
      </trkpt>
      <trkpt lat="44.13513" lon="3.59684">
        <ele>1254.2901291332</ele>
        <time>2017-05-24T13:38:24Z</time>
      </trkpt>
      <trkpt lat="44.13508" lon="3.59674">
        <ele>1254.2901291332</ele>
        <time>2017-05-24T13:38:26Z</time>
      </trkpt>
      <trkpt lat="44.13485" lon="3.5966">
        <ele>1251.3258976867</ele>
        <time>2017-05-24T13:38:46Z</time>
      </trkpt>
      <trkpt lat="44.13482" lon="3.59658">
        <ele>1251.3258976867</ele>
        <time>2017-05-24T13:38:55Z</time>
      </trkpt>
      <trkpt lat="44.13473" lon="3.59646">
        <ele>1248.4284713204</ele>
        <time>2017-05-24T13:39:10Z</time>
      </trkpt>
      <trkpt lat="44.13462" lon="3.5964">
        <ele>1245.7833936401</ele>
        <time>2017-05-24T13:39:10Z</time>
      </trkpt>
      <trkpt lat="44.13461" lon="3.59639">
        <ele>1245.7833936401</ele>
        <time>2017-05-24T13:39:11Z</time>
      </trkpt>
      <trkpt lat="44.13387" lon="3.59632">
        <ele>1242.5241403692</ele>
        <time>2017-05-24T13:40:08Z</time>
      </trkpt>
      <trkpt lat="44.13386" lon="3.59632">
        <ele>1242.5241403692</ele>
        <time>2017-05-24T13:40:08Z</time>
      </trkpt>
      <trkpt lat="44.13356" lon="3.59614">
        <ele>1239.1608475365</ele>
        <time>2017-05-24T13:40:37Z</time>
      </trkpt>
      <trkpt lat="44.13343" lon="3.59605">
        <ele>1235.9934058758</ele>
        <time>2017-05-24T13:40:57Z</time>
      </trkpt>
      <trkpt lat="44.13316" lon="3.59584">
        <ele>1232.6793185471</ele>
        <time>2017-05-24T13:41:16Z</time>
      </trkpt>
      <trkpt lat="44.13312" lon="3.59582">
        <ele>1232.6793185471</ele>
        <time>2017-05-24T13:41:17Z</time>
      </trkpt>
      <trkpt lat="44.13297" lon="3.59587">
        <ele>1229.6509072248</ele>
        <time>2017-05-24T13:41:41Z</time>
      </trkpt>
      <trkpt lat="44.13268" lon="3.59615">
        <ele>1227.1925153703</ele>
        <time>2017-05-24T13:42:02Z</time>
      </trkpt>
      <trkpt lat="44.13256" lon="3.59669">
        <ele>1225.1047174944</ele>
        <time>2017-05-24T13:42:36Z</time>
      </trkpt>
      <trkpt lat="44.13249" lon="3.5968">
        <ele>1223.3745114571</ele>
        <time>2017-05-24T13:42:41Z</time>
      </trkpt>
      <trkpt lat="44.13244" lon="3.59703">
        <ele>1221.4843463323</ele>
        <time>2017-05-24T13:42:51Z</time>
      </trkpt>
      <trkpt lat="44.13239" lon="3.59709">
        <ele>1221.4843463323</ele>
        <time>2017-05-24T13:42:56Z</time>
      </trkpt>
      <trkpt lat="44.1324" lon="3.59721">
        <ele>1219.2000259354</ele>
        <time>2017-05-24T13:43:06Z</time>
      </trkpt>
      <trkpt lat="44.13237" lon="3.59727">
        <ele>1219.2000259354</ele>
        <time>2017-05-24T13:43:11Z</time>
      </trkpt>
      <trkpt lat="44.13226" lon="3.59754">
        <ele>1216.7667267284</ele>
        <time>2017-05-24T13:43:26Z</time>
      </trkpt>
      <trkpt lat="44.1322" lon="3.59763">
        <ele>1214.4984147615</ele>
        <time>2017-05-24T13:43:31Z</time>
      </trkpt>
      <trkpt lat="44.1321" lon="3.59775">
        <ele>1212.0945957118</ele>
        <time>2017-05-24T13:43:41Z</time>
      </trkpt>
      <trkpt lat="44.13205" lon="3.59782">
        <ele>1212.0945957118</ele>
        <time>2017-05-24T13:43:46Z</time>
      </trkpt>
      <trkpt lat="44.13199" lon="3.59791">
        <ele>1209.2051008165</ele>
        <time>2017-05-24T13:43:56Z</time>
      </trkpt>
      <trkpt lat="44.13196" lon="3.59797">
        <ele>1209.2051008165</ele>
        <time>2017-05-24T13:44:01Z</time>
      </trkpt>
      <trkpt lat="44.13195" lon="3.59812">
        <ele>1206.0399885397</ele>
        <time>2017-05-24T13:44:11Z</time>
      </trkpt>
      <trkpt lat="44.1319" lon="3.59815">
        <ele>1206.0399885397</ele>
        <time>2017-05-24T13:44:16Z</time>
      </trkpt>
      <trkpt lat="44.13183" lon="3.5982">
        <ele>1203.0828145781</ele>
        <time>2017-05-24T13:44:26Z</time>
      </trkpt>
      <trkpt lat="44.13174" lon="3.59823">
        <ele>1203.0828145781</ele>
        <time>2017-05-24T13:44:31Z</time>
      </trkpt>
      <trkpt lat="44.13084" lon="3.59844">
        <ele>1201.9770888388</ele>
        <time>2017-05-24T13:45:44Z</time>
      </trkpt>
      <trkpt lat="44.1306" lon="3.59825">
        <ele>1201.4445826017</ele>
        <time>2017-05-24T13:46:02Z</time>
      </trkpt>
      <trkpt lat="44.13058" lon="3.59825">
        <ele>1201.4445826017</ele>
        <time>2017-05-24T13:46:06Z</time>
      </trkpt>
      <trkpt lat="44.13036" lon="3.59816">
        <ele>1201.5098460681</ele>
        <time>2017-05-24T13:46:26Z</time>
      </trkpt>
      <trkpt lat="44.13042" lon="3.59847">
        <ele>1201.8336439543</ele>
        <time>2017-05-24T13:46:46Z</time>
      </trkpt>
      <trkpt lat="44.13046" lon="3.59861">
        <ele>1202.1297523005</ele>
        <time>2017-05-24T13:46:54Z</time>
      </trkpt>
      <trkpt lat="44.13059" lon="3.59891">
        <ele>1202.1618891406</ele>
        <time>2017-05-24T13:47:15Z</time>
      </trkpt>
      <trkpt lat="44.13061" lon="3.59902">
        <ele>1202.1618891406</ele>
        <time>2017-05-24T13:47:15Z</time>
      </trkpt>
      <trkpt lat="44.13042" lon="3.59946">
        <ele>1200.919293868</ele>
        <time>2017-05-24T13:48:08Z</time>
      </trkpt>
      <trkpt lat="44.13025" lon="3.5996">
        <ele>1199.2560600162</ele>
        <time>2017-05-24T13:48:27Z</time>
      </trkpt>
      <trkpt lat="44.13021" lon="3.59968">
        <ele>1199.2560600162</ele>
        <time>2017-05-24T13:48:35Z</time>
      </trkpt>
      <trkpt lat="44.13023" lon="3.59972">
        <ele>1197.6765571555</ele>
        <time>2017-05-24T13:48:51Z</time>
      </trkpt>
      <trkpt lat="44.13029" lon="3.59981">
        <ele>1197.6765571555</ele>
        <time>2017-05-24T13:49:08Z</time>
      </trkpt>
      <trkpt lat="44.13021" lon="3.59985">
        <ele>1196.2876564571</ele>
        <time>2017-05-24T13:49:08Z</time>
      </trkpt>
      <trkpt lat="44.13016" lon="3.59994">
        <ele>1195.01497838</ele>
        <time>2017-05-24T13:49:19Z</time>
      </trkpt>
      <trkpt lat="44.12999" lon="3.60024">
        <ele>1193.5155403722</ele>
        <time>2017-05-24T13:50:00Z</time>
      </trkpt>
      <trkpt lat="44.13002" lon="3.60031">
        <ele>1193.5155403722</ele>
        <time>2017-05-24T13:50:00Z</time>
      </trkpt>
      <trkpt lat="44.13008" lon="3.60034">
        <ele>1192.2360535831</ele>
        <time>2017-05-24T13:50:12Z</time>
      </trkpt>
      <trkpt lat="44.13034" lon="3.60018">
        <ele>1191.3304732357</ele>
        <time>2017-05-24T13:50:42Z</time>
      </trkpt>
      <trkpt lat="44.1304" lon="3.60016">
        <ele>1191.3304732357</ele>
        <time>2017-05-24T13:50:46Z</time>
      </trkpt>
      <trkpt lat="44.13051" lon="3.60006">
        <ele>1190.8251877151</ele>
        <time>2017-05-24T13:50:56Z</time>
      </trkpt>
      <trkpt lat="44.13057" lon="3.60004">
        <ele>1190.8251877151</ele>
        <time>2017-05-24T13:51:01Z</time>
      </trkpt>
      <trkpt lat="44.13067" lon="3.6">
        <ele>1190.6571433575</ele>
        <time>2017-05-24T13:51:11Z</time>
      </trkpt>
      <trkpt lat="44.1307" lon="3.59998">
        <ele>1190.6571433575</ele>
        <time>2017-05-24T13:51:16Z</time>
      </trkpt>
      <trkpt lat="44.13093" lon="3.59995">
        <ele>1190.6661881148</ele>
        <time>2017-05-24T13:51:31Z</time>
      </trkpt>
      <trkpt lat="44.13107" lon="3.59988">
        <ele>1190.8044183978</ele>
        <time>2017-05-24T13:51:36Z</time>
      </trkpt>
      <trkpt lat="44.13119" lon="3.59969">
        <ele>1191.0704333958</ele>
        <time>2017-05-24T13:51:46Z</time>
      </trkpt>
      <trkpt lat="44.13124" lon="3.59965">
        <ele>1191.0704333958</ele>
        <time>2017-05-24T13:51:51Z</time>
      </trkpt>
      <trkpt lat="44.13135" lon="3.5996">
        <ele>1191.4627000543</ele>
        <time>2017-05-24T13:52:08Z</time>
      </trkpt>
      <trkpt lat="44.13157" lon="3.59952">
        <ele>1191.9363441052</ele>
        <time>2017-05-24T13:52:21Z</time>
      </trkpt>
      <trkpt lat="44.13162" lon="3.59951">
        <ele>1191.9363441052</ele>
        <time>2017-05-24T13:52:23Z</time>
      </trkpt>
      <trkpt lat="44.13185" lon="3.59948">
        <ele>1192.8820374208</ele>
        <time>2017-05-24T13:52:41Z</time>
      </trkpt>
      <trkpt lat="44.13214" lon="3.59948">
        <ele>1194.2138403964</ele>
        <time>2017-05-24T13:53:07Z</time>
      </trkpt>
      <trkpt lat="44.13223" lon="3.5995">
        <ele>1195.5774000012</ele>
        <time>2017-05-24T13:53:07Z</time>
      </trkpt>
      <trkpt lat="44.13235" lon="3.59946">
        <ele>1196.6588956156</ele>
        <time>2017-05-24T13:53:32Z</time>
      </trkpt>
      <trkpt lat="44.13258" lon="3.59947">
        <ele>1197.6729313435</ele>
        <time>2017-05-24T13:53:32Z</time>
      </trkpt>
      <trkpt lat="44.13271" lon="3.59944">
        <ele>1198.2855250304</ele>
        <time>2017-05-24T13:53:43Z</time>
      </trkpt>
      <trkpt lat="44.13274" lon="3.59942">
        <ele>1198.2855250304</ele>
        <time>2017-05-24T13:53:46Z</time>
      </trkpt>
      <trkpt lat="44.13284" lon="3.59935">
        <ele>1198.7505953578</ele>
        <time>2017-05-24T13:53:51Z</time>
      </trkpt>
      <trkpt lat="44.1329" lon="3.5993">
        <ele>1198.7505953578</ele>
        <time>2017-05-24T13:53:56Z</time>
      </trkpt>
      <trkpt lat="44.13298" lon="3.59928">
        <ele>1198.6987651182</ele>
        <time>2017-05-24T13:54:01Z</time>
      </trkpt>
      <trkpt lat="44.13306" lon="3.59926">
        <ele>1198.6987651182</ele>
        <time>2017-05-24T13:54:06Z</time>
      </trkpt>
      <trkpt lat="44.13316" lon="3.5992">
        <ele>1197.8182722423</ele>
        <time>2017-05-24T13:54:21Z</time>
      </trkpt>
      <trkpt lat="44.13321" lon="3.59918">
        <ele>1197.8182722423</ele>
        <time>2017-05-24T13:54:26Z</time>
      </trkpt>
      <trkpt lat="44.13331" lon="3.59914">
        <ele>1197.2350749138</ele>
        <time>2017-05-24T13:54:36Z</time>
      </trkpt>
      <trkpt lat="44.13336" lon="3.59908">
        <ele>1197.2350749138</ele>
        <time>2017-05-24T13:54:41Z</time>
      </trkpt>
      <trkpt lat="44.13345" lon="3.59905">
        <ele>1196.4786146848</ele>
        <time>2017-05-24T13:54:46Z</time>
      </trkpt>
      <trkpt lat="44.13352" lon="3.59901">
        <ele>1196.4786146848</ele>
        <time>2017-05-24T13:54:51Z</time>
      </trkpt>
      <trkpt lat="44.13367" lon="3.59897">
        <ele>1195.6900181504</ele>
        <time>2017-05-24T13:55:10Z</time>
      </trkpt>
      <trkpt lat="44.13371" lon="3.59895">
        <ele>1195.6900181504</ele>
        <time>2017-05-24T13:55:11Z</time>
      </trkpt>
      <trkpt lat="44.13391" lon="3.59908">
        <ele>1194.8273785472</ele>
        <time>2017-05-24T13:55:30Z</time>
      </trkpt>
      <trkpt lat="44.13391" lon="3.59909">
        <ele>1194.8273785472</ele>
        <time>2017-05-24T13:55:31Z</time>
      </trkpt>
      <trkpt lat="44.13407" lon="3.59928">
        <ele>1193.967530928</ele>
        <time>2017-05-24T13:55:44Z</time>
      </trkpt>
      <trkpt lat="44.13409" lon="3.59931">
        <ele>1193.967530928</ele>
        <time>2017-05-24T13:55:46Z</time>
      </trkpt>
      <trkpt lat="44.13418" lon="3.59943">
        <ele>1193.1241701236</ele>
        <time>2017-05-24T13:55:57Z</time>
      </trkpt>
      <trkpt lat="44.13421" lon="3.59948">
        <ele>1193.1241701236</ele>
        <time>2017-05-24T13:55:57Z</time>
      </trkpt>
      <trkpt lat="44.13435" lon="3.59965">
        <ele>1192.3677294213</ele>
        <time>2017-05-24T13:56:11Z</time>
      </trkpt>
      <trkpt lat="44.13453" lon="3.59991">
        <ele>1191.7777722447</ele>
        <time>2017-05-24T13:56:31Z</time>
      </trkpt>
      <trkpt lat="44.13457" lon="3.59998">
        <ele>1191.7777722447</ele>
        <time>2017-05-24T13:56:36Z</time>
      </trkpt>
      <trkpt lat="44.1347" lon="3.60023">
        <ele>1191.3988566098</ele>
        <time>2017-05-24T13:56:51Z</time>
      </trkpt>
      <trkpt lat="44.13472" lon="3.60029">
        <ele>1191.3988566098</ele>
        <time>2017-05-24T13:56:56Z</time>
      </trkpt>
      <trkpt lat="44.13494" lon="3.60051">
        <ele>1191.1997413304</ele>
        <time>2017-05-24T13:57:20Z</time>
      </trkpt>
      <trkpt lat="44.1351" lon="3.60052">
        <ele>1190.5314129355</ele>
        <time>2017-05-24T13:57:49Z</time>
      </trkpt>
      <trkpt lat="44.13508" lon="3.60047">
        <ele>1190.5314129355</ele>
        <time>2017-05-24T13:57:56Z</time>
      </trkpt>
      <trkpt lat="44.13491" lon="3.60017">
        <ele>1189.5145148579</ele>
        <time>2017-05-24T13:58:28Z</time>
      </trkpt>
      <trkpt lat="44.13481" lon="3.59996">
        <ele>1188.2763181975</ele>
        <time>2017-05-24T13:58:46Z</time>
      </trkpt>
      <trkpt lat="44.13477" lon="3.59993">
        <ele>1188.2763181975</ele>
        <time>2017-05-24T13:58:51Z</time>
      </trkpt>
      <trkpt lat="44.1348" lon="3.59989">
        <ele>1188.2763181975</ele>
        <time>2017-05-24T13:59:16Z</time>
      </trkpt>
      <trkpt lat="44.13486" lon="3.59992">
        <ele>1186.8778129935</ele>
        <time>2017-05-24T13:59:21Z</time>
      </trkpt>
      <trkpt lat="44.13496" lon="3.59998">
        <ele>1185.3183949944</ele>
        <time>2017-05-24T13:59:38Z</time>
      </trkpt>
      <trkpt lat="44.13504" lon="3.6">
        <ele>1185.3183949944</ele>
        <time>2017-05-24T13:59:56Z</time>
      </trkpt>
      <trkpt lat="44.1351" lon="3.59999">
        <ele>1183.1080454403</ele>
        <time>2017-05-24T14:00:17Z</time>
      </trkpt>
      <trkpt lat="44.13522" lon="3.59987">
        <ele>1180.7313439504</ele>
        <time>2017-05-24T14:00:26Z</time>
      </trkpt>
      <trkpt lat="44.1353" lon="3.59976">
        <ele>1178.0469212317</ele>
        <time>2017-05-24T14:00:50Z</time>
      </trkpt>
      <trkpt lat="44.13534" lon="3.59976">
        <ele>1178.0469212317</ele>
        <time>2017-05-24T14:00:50Z</time>
      </trkpt>
      <trkpt lat="44.13541" lon="3.59967">
        <ele>1175.4578875011</ele>
        <time>2017-05-24T14:01:00Z</time>
      </trkpt>
      <trkpt lat="44.13552" lon="3.5996">
        <ele>1173.2365984259</ele>
        <time>2017-05-24T14:01:17Z</time>
      </trkpt>
      <trkpt lat="44.13553" lon="3.5996">
        <ele>1173.2365984259</ele>
        <time>2017-05-24T14:01:21Z</time>
      </trkpt>
      <trkpt lat="44.13558" lon="3.59957">
        <ele>1173.2365984259</ele>
        <time>2017-05-24T14:02:05Z</time>
      </trkpt>
      <trkpt lat="44.1356" lon="3.5996">
        <ele>1171.5767147587</ele>
        <time>2017-05-24T14:02:06Z</time>
      </trkpt>
      <trkpt lat="44.13561" lon="3.59961">
        <ele>1171.5767147587</ele>
        <time>2017-05-24T14:02:21Z</time>
      </trkpt>
      <trkpt lat="44.13568" lon="3.59961">
        <ele>1171.5767147587</ele>
        <time>2017-05-24T14:02:36Z</time>
      </trkpt>
      <trkpt lat="44.13567" lon="3.59962">
        <ele>1170.5840176058</ele>
        <time>2017-05-24T14:02:41Z</time>
      </trkpt>
      <trkpt lat="44.13567" lon="3.59962">
        <ele>1170.5840176058</ele>
        <time>2017-05-24T14:02:50Z</time>
      </trkpt>
      <trkpt lat="44.13566" lon="3.5996">
        <ele>1170.5840176058</ele>
        <time>2017-05-24T14:03:06Z</time>
      </trkpt>
      <trkpt lat="44.13568" lon="3.59957">
        <ele>1170.5840176058</ele>
        <time>2017-05-24T14:03:30Z</time>
      </trkpt>
      <trkpt lat="44.13569" lon="3.59955">
        <ele>1170.5840176058</ele>
        <time>2017-05-24T14:03:31Z</time>
      </trkpt>
      <trkpt lat="44.13574" lon="3.59936">
        <ele>1170.7004841953</ele>
        <time>2017-05-24T14:03:51Z</time>
      </trkpt>
      <trkpt lat="44.13576" lon="3.59939">
        <ele>1170.7004841953</ele>
        <time>2017-05-24T14:04:11Z</time>
      </trkpt>
      <trkpt lat="44.13577" lon="3.59955">
        <ele>1170.9201947046</ele>
        <time>2017-05-24T14:04:11Z</time>
      </trkpt>
      <trkpt lat="44.13587" lon="3.59961">
        <ele>1171.1898877913</ele>
        <time>2017-05-24T14:04:22Z</time>
      </trkpt>
      <trkpt lat="44.13611" lon="3.59956">
        <ele>1171.7338694006</ele>
        <time>2017-05-24T14:04:42Z</time>
      </trkpt>
      <trkpt lat="44.13615" lon="3.59954">
        <ele>1171.7338694006</ele>
        <time>2017-05-24T14:04:46Z</time>
      </trkpt>
      <trkpt lat="44.1363" lon="3.59936">
        <ele>1172.2115694726</ele>
        <time>2017-05-24T14:05:04Z</time>
      </trkpt>
      <trkpt lat="44.13631" lon="3.59936">
        <ele>1172.2115694726</ele>
        <time>2017-05-24T14:05:06Z</time>
      </trkpt>
      <trkpt lat="44.13654" lon="3.59918">
        <ele>1173.4172820213</ele>
        <time>2017-05-24T14:05:41Z</time>
      </trkpt>
      <trkpt lat="44.13667" lon="3.59913">
        <ele>1175.2346710803</ele>
        <time>2017-05-24T14:05:59Z</time>
      </trkpt>
      <trkpt lat="44.13697" lon="3.59891">
        <ele>1176.9922276755</ele>
        <time>2017-05-24T14:06:31Z</time>
      </trkpt>
      <trkpt lat="44.13703" lon="3.59877">
        <ele>1178.7453076371</ele>
        <time>2017-05-24T14:06:36Z</time>
      </trkpt>
      <trkpt lat="44.13708" lon="3.59867">
        <ele>1178.7453076371</ele>
        <time>2017-05-24T14:06:41Z</time>
      </trkpt>
      <trkpt lat="44.13712" lon="3.5986">
        <ele>1180.4011635192</ele>
        <time>2017-05-24T14:06:46Z</time>
      </trkpt>
      <trkpt lat="44.13715" lon="3.59854">
        <ele>1180.4011635192</ele>
        <time>2017-05-24T14:06:51Z</time>
      </trkpt>
      <trkpt lat="44.13719" lon="3.59849">
        <ele>1181.9606771532</ele>
        <time>2017-05-24T14:06:56Z</time>
      </trkpt>
      <trkpt lat="44.13732" lon="3.59831">
        <ele>1183.4538477742</ele>
        <time>2017-05-24T14:07:11Z</time>
      </trkpt>
      <trkpt lat="44.13735" lon="3.59831">
        <ele>1183.4538477742</ele>
        <time>2017-05-24T14:07:16Z</time>
      </trkpt>
      <trkpt lat="44.13739" lon="3.59833">
        <ele>1183.4538477742</ele>
        <time>2017-05-24T14:07:26Z</time>
      </trkpt>
      <trkpt lat="44.13745" lon="3.59828">
        <ele>1185.1393361519</ele>
        <time>2017-05-24T14:07:31Z</time>
      </trkpt>
      <trkpt lat="44.13755" lon="3.5982">
        <ele>1186.9393296032</ele>
        <time>2017-05-24T14:07:39Z</time>
      </trkpt>
      <trkpt lat="44.13755" lon="3.59819">
        <ele>1186.9393296032</ele>
        <time>2017-05-24T14:07:41Z</time>
      </trkpt>
      <trkpt lat="44.13759" lon="3.59814">
        <ele>1186.9393296032</ele>
        <time>2017-05-24T14:07:46Z</time>
      </trkpt>
      <trkpt lat="44.13764" lon="3.59806">
        <ele>1188.882409615</ele>
        <time>2017-05-24T14:07:57Z</time>
      </trkpt>
      <trkpt lat="44.13769" lon="3.598">
        <ele>1188.882409615</ele>
        <time>2017-05-24T14:08:03Z</time>
      </trkpt>
      <trkpt lat="44.13772" lon="3.59794">
        <ele>1190.8939099129</ele>
        <time>2017-05-24T14:08:06Z</time>
      </trkpt>
      <trkpt lat="44.1378" lon="3.59785">
        <ele>1192.933419827</ele>
        <time>2017-05-24T14:08:18Z</time>
      </trkpt>
      <trkpt lat="44.13783" lon="3.59783">
        <ele>1192.933419827</ele>
        <time>2017-05-24T14:08:21Z</time>
      </trkpt>
      <trkpt lat="44.13806" lon="3.59768">
        <ele>1195.5400134958</ele>
        <time>2017-05-24T14:09:00Z</time>
      </trkpt>
      <trkpt lat="44.1384" lon="3.59719">
        <ele>1198.2894228578</ele>
        <time>2017-05-24T14:09:41Z</time>
      </trkpt>
      <trkpt lat="44.13842" lon="3.59712">
        <ele>1198.2894228578</ele>
        <time>2017-05-24T14:09:46Z</time>
      </trkpt>
      <trkpt lat="44.13848" lon="3.59702">
        <ele>1200.9468382484</ele>
        <time>2017-05-24T14:09:56Z</time>
      </trkpt>
      <trkpt lat="44.1385" lon="3.59695">
        <ele>1200.9468382484</ele>
        <time>2017-05-24T14:10:01Z</time>
      </trkpt>
      <trkpt lat="44.13853" lon="3.59684">
        <ele>1203.482481782</ele>
        <time>2017-05-24T14:10:11Z</time>
      </trkpt>
      <trkpt lat="44.13855" lon="3.5968">
        <ele>1203.482481782</ele>
        <time>2017-05-24T14:10:16Z</time>
      </trkpt>
      <trkpt lat="44.13864" lon="3.59659">
        <ele>1205.9125273634</ele>
        <time>2017-05-24T14:10:40Z</time>
      </trkpt>
      <trkpt lat="44.13876" lon="3.59621">
        <ele>1208.2524537206</ele>
        <time>2017-05-24T14:11:07Z</time>
      </trkpt>
      <trkpt lat="44.13876" lon="3.59613">
        <ele>1208.2524537206</ele>
        <time>2017-05-24T14:11:21Z</time>
      </trkpt>
      <trkpt lat="44.13878" lon="3.59595">
        <ele>1210.7476356712</ele>
        <time>2017-05-24T14:11:40Z</time>
      </trkpt>
      <trkpt lat="44.13889" lon="3.59554">
        <ele>1213.2793274898</ele>
        <time>2017-05-24T14:12:01Z</time>
      </trkpt>
      <trkpt lat="44.13889" lon="3.59553">
        <ele>1213.2793274898</ele>
        <time>2017-05-24T14:12:08Z</time>
      </trkpt>
      <trkpt lat="44.13897" lon="3.59537">
        <ele>1215.7376142755</ele>
        <time>2017-05-24T14:12:16Z</time>
      </trkpt>
      <trkpt lat="44.13909" lon="3.59463">
        <ele>1218.3092967574</ele>
        <time>2017-05-24T14:13:15Z</time>
      </trkpt>
      <trkpt lat="44.13909" lon="3.59457">
        <ele>1218.3092967574</ele>
        <time>2017-05-24T14:13:39Z</time>
      </trkpt>
      <trkpt lat="44.13943" lon="3.59451">
        <ele>1221.2249957006</ele>
        <time>2017-05-24T14:14:33Z</time>
      </trkpt>
      <trkpt lat="44.13954" lon="3.59446">
        <ele>1223.9338545285</ele>
        <time>2017-05-24T14:14:33Z</time>
      </trkpt>
      <trkpt lat="44.13988" lon="3.59451">
        <ele>1226.8774167468</ele>
        <time>2017-05-24T14:15:12Z</time>
      </trkpt>
      <trkpt lat="44.13992" lon="3.59451">
        <ele>1226.8774167468</ele>
        <time>2017-05-24T14:15:12Z</time>
      </trkpt>
      <trkpt lat="44.13998" lon="3.59452">
        <ele>1229.6717430242</ele>
        <time>2017-05-24T14:15:16Z</time>
      </trkpt>
      <trkpt lat="44.14007" lon="3.59453">
        <ele>1232.4084851671</ele>
        <time>2017-05-24T14:15:26Z</time>
      </trkpt>
      <trkpt lat="44.14029" lon="3.59448">
        <ele>1235.1585370684</ele>
        <time>2017-05-24T14:15:48Z</time>
      </trkpt>
      <trkpt lat="44.14036" lon="3.59447">
        <ele>1235.1585370684</ele>
        <time>2017-05-24T14:15:48Z</time>
      </trkpt>
      <trkpt lat="44.1406" lon="3.59433">
        <ele>1238.5209838367</ele>
        <time>2017-05-24T14:16:27Z</time>
      </trkpt>
      <trkpt lat="44.14076" lon="3.59417">
        <ele>1241.8532870252</ele>
        <time>2017-05-24T14:16:43Z</time>
      </trkpt>
      <trkpt lat="44.14078" lon="3.59408">
        <ele>1241.8532870252</ele>
        <time>2017-05-24T14:16:43Z</time>
      </trkpt>
      <trkpt lat="44.14097" lon="3.59399">
        <ele>1245.5980207819</ele>
        <time>2017-05-24T14:17:17Z</time>
      </trkpt>
      <trkpt lat="44.14101" lon="3.59393">
        <ele>1245.5980207819</ele>
        <time>2017-05-24T14:17:30Z</time>
      </trkpt>
      <trkpt lat="44.14153" lon="3.59387">
        <ele>1249.717576742</ele>
        <time>2017-05-24T14:18:30Z</time>
      </trkpt>
      <trkpt lat="44.14163" lon="3.5939">
        <ele>1253.4845582359</ele>
        <time>2017-05-24T14:18:30Z</time>
      </trkpt>
      <trkpt lat="44.14182" lon="3.59388">
        <ele>1257.0188407507</ele>
        <time>2017-05-24T14:18:52Z</time>
      </trkpt>
      <trkpt lat="44.14187" lon="3.59386">
        <ele>1257.0188407507</ele>
        <time>2017-05-24T14:18:57Z</time>
      </trkpt>
      <trkpt lat="44.14196" lon="3.59387">
        <ele>1260.4323866352</ele>
        <time>2017-05-24T14:19:07Z</time>
      </trkpt>
      <trkpt lat="44.14197" lon="3.59387">
        <ele>1260.4323866352</ele>
        <time>2017-05-24T14:19:11Z</time>
      </trkpt>
      <trkpt lat="44.14206" lon="3.59385">
        <ele>1263.4692345024</ele>
        <time>2017-05-24T14:19:21Z</time>
      </trkpt>
      <trkpt lat="44.14207" lon="3.59384">
        <ele>1263.4692345024</ele>
        <time>2017-05-24T14:19:26Z</time>
      </trkpt>
      <trkpt lat="44.14212" lon="3.59381">
        <ele>1263.4692345024</ele>
        <time>2017-05-24T14:19:41Z</time>
      </trkpt>
      <trkpt lat="44.14219" lon="3.59378">
        <ele>1265.9655749787</ele>
        <time>2017-05-24T14:19:47Z</time>
      </trkpt>
      <trkpt lat="44.14222" lon="3.59377">
        <ele>1265.9655749787</ele>
        <time>2017-05-24T14:19:51Z</time>
      </trkpt>
      <trkpt lat="44.14226" lon="3.59374">
        <ele>1265.9655749787</ele>
        <time>2017-05-24T14:19:56Z</time>
      </trkpt>
      <trkpt lat="44.14239" lon="3.59372">
        <ele>1268.0307787875</ele>
        <time>2017-05-24T14:20:09Z</time>
      </trkpt>
      <trkpt lat="44.14241" lon="3.59372">
        <ele>1268.0307787875</ele>
        <time>2017-05-24T14:20:11Z</time>
      </trkpt>
      <trkpt lat="44.14264" lon="3.59384">
        <ele>1270.0414239654</ele>
        <time>2017-05-24T14:20:43Z</time>
      </trkpt>
      <trkpt lat="44.14269" lon="3.59385">
        <ele>1270.0414239654</ele>
        <time>2017-05-24T14:20:46Z</time>
      </trkpt>
      <trkpt lat="44.1431" lon="3.59381">
        <ele>1272.7791221738</ele>
        <time>2017-05-24T14:21:47Z</time>
      </trkpt>
      <trkpt lat="44.14331" lon="3.59372">
        <ele>1275.5971718529</ele>
        <time>2017-05-24T14:22:01Z</time>
      </trkpt>
      <trkpt lat="44.14359" lon="3.59356">
        <ele>1278.2854415354</ele>
        <time>2017-05-24T14:22:26Z</time>
      </trkpt>
      <trkpt lat="44.1437" lon="3.59351">
        <ele>1280.7506578375</ele>
        <time>2017-05-24T14:22:42Z</time>
      </trkpt>
      <trkpt lat="44.14377" lon="3.59347">
        <ele>1280.7506578375</ele>
        <time>2017-05-24T14:22:46Z</time>
      </trkpt>
      <trkpt lat="44.14383" lon="3.59342">
        <ele>1282.9792518937</ele>
        <time>2017-05-24T14:23:00Z</time>
      </trkpt>
      <trkpt lat="44.14435" lon="3.5932">
        <ele>1285.7809119876</ele>
        <time>2017-05-24T14:23:46Z</time>
      </trkpt>
      <trkpt lat="44.1444" lon="3.59321">
        <ele>1285.7809119876</ele>
        <time>2017-05-24T14:23:51Z</time>
      </trkpt>
      <trkpt lat="44.1447" lon="3.5933">
        <ele>1288.650626832</ele>
        <time>2017-05-24T14:24:17Z</time>
      </trkpt>
      <trkpt lat="44.14519" lon="3.59315">
        <ele>1291.394249634</ele>
        <time>2017-05-24T14:25:05Z</time>
      </trkpt>
      <trkpt lat="44.14525" lon="3.59311">
        <ele>1291.394249634</ele>
        <time>2017-05-24T14:25:06Z</time>
      </trkpt>
      <trkpt lat="44.14537" lon="3.59304">
        <ele>1293.8179768232</ele>
        <time>2017-05-24T14:25:25Z</time>
      </trkpt>
      <trkpt lat="44.1457" lon="3.59278">
        <ele>1295.6423915066</ele>
        <time>2017-05-24T14:25:41Z</time>
      </trkpt>
      <trkpt lat="44.14576" lon="3.59272">
        <ele>1295.6423915066</ele>
        <time>2017-05-24T14:25:47Z</time>
      </trkpt>
      <trkpt lat="44.14583" lon="3.59267">
        <ele>1296.9274481753</ele>
        <time>2017-05-24T14:26:01Z</time>
      </trkpt>
      <trkpt lat="44.14589" lon="3.59262">
        <ele>1296.9274481753</ele>
        <time>2017-05-24T14:26:06Z</time>
      </trkpt>
      <trkpt lat="44.14594" lon="3.59253">
        <ele>1297.9608944091</ele>
        <time>2017-05-24T14:26:16Z</time>
      </trkpt>
      <trkpt lat="44.14597" lon="3.5925">
        <ele>1297.9608944091</ele>
        <time>2017-05-24T14:26:21Z</time>
      </trkpt>
      <trkpt lat="44.14603" lon="3.5924">
        <ele>1298.7219136799</ele>
        <time>2017-05-24T14:26:31Z</time>
      </trkpt>
      <trkpt lat="44.14603" lon="3.59233">
        <ele>1298.7219136799</ele>
        <time>2017-05-24T14:26:36Z</time>
      </trkpt>
      <trkpt lat="44.14612" lon="3.59217">
        <ele>1299.3649881721</ele>
        <time>2017-05-24T14:26:46Z</time>
      </trkpt>
      <trkpt lat="44.14615" lon="3.59211">
        <ele>1299.3649881721</ele>
        <time>2017-05-24T14:26:51Z</time>
      </trkpt>
      <trkpt lat="44.14623" lon="3.59196">
        <ele>1299.8607019927</ele>
        <time>2017-05-24T14:27:01Z</time>
      </trkpt>
      <trkpt lat="44.14625" lon="3.59191">
        <ele>1299.8607019927</ele>
        <time>2017-05-24T14:27:06Z</time>
      </trkpt>
      <trkpt lat="44.14629" lon="3.59176">
        <ele>1300.1966576786</ele>
        <time>2017-05-24T14:27:16Z</time>
      </trkpt>
      <trkpt lat="44.14634" lon="3.5917">
        <ele>1300.1966576786</ele>
        <time>2017-05-24T14:27:21Z</time>
      </trkpt>
      <trkpt lat="44.14647" lon="3.59143">
        <ele>1300.4915303696</ele>
        <time>2017-05-24T14:27:47Z</time>
      </trkpt>
      <trkpt lat="44.14655" lon="3.59127">
        <ele>1300.5239314066</ele>
        <time>2017-05-24T14:27:51Z</time>
      </trkpt>
      <trkpt lat="44.14657" lon="3.59113">
        <ele>1300.3776692791</ele>
        <time>2017-05-24T14:28:06Z</time>
      </trkpt>
      <trkpt lat="44.1468" lon="3.59061">
        <ele>1299.2661853344</ele>
        <time>2017-05-24T14:29:00Z</time>
      </trkpt>
      <trkpt lat="44.14685" lon="3.5905">
        <ele>1297.7747541082</ele>
        <time>2017-05-24T14:29:02Z</time>
      </trkpt>
      <trkpt lat="44.14703" lon="3.59027">
        <ele>1295.7693095654</ele>
        <time>2017-05-24T14:29:41Z</time>
      </trkpt>
      <trkpt lat="44.14726" lon="3.59015">
        <ele>1293.458415874</ele>
        <time>2017-05-24T14:30:00Z</time>
      </trkpt>
      <trkpt lat="44.14753" lon="3.59012">
        <ele>1290.9207408594</ele>
        <time>2017-05-24T14:30:29Z</time>
      </trkpt>
      <trkpt lat="44.14761" lon="3.59012">
        <ele>1290.9207408594</ele>
        <time>2017-05-24T14:30:30Z</time>
      </trkpt>
      <trkpt lat="44.14776" lon="3.59009">
        <ele>1287.9558270212</ele>
        <time>2017-05-24T14:30:48Z</time>
      </trkpt>
      <trkpt lat="44.14786" lon="3.59002">
        <ele>1284.4798185954</ele>
        <time>2017-05-24T14:31:03Z</time>
      </trkpt>
      <trkpt lat="44.14818" lon="3.58993">
        <ele>1280.6468023958</ele>
        <time>2017-05-24T14:31:42Z</time>
      </trkpt>
      <trkpt lat="44.14821" lon="3.58994">
        <ele>1280.6468023958</ele>
        <time>2017-05-24T14:31:42Z</time>
      </trkpt>
      <trkpt lat="44.14835" lon="3.58986">
        <ele>1277.1623239788</ele>
        <time>2017-05-24T14:31:56Z</time>
      </trkpt>
      <trkpt lat="44.14867" lon="3.58958">
        <ele>1273.8141711546</ele>
        <time>2017-05-24T14:32:18Z</time>
      </trkpt>
      <trkpt lat="44.14914" lon="3.58916">
        <ele>1270.4482631258</ele>
        <time>2017-05-24T14:33:04Z</time>
      </trkpt>
      <trkpt lat="44.14926" lon="3.58923">
        <ele>1267.2241915715</ele>
        <time>2017-05-24T14:33:22Z</time>
      </trkpt>
      <trkpt lat="44.14933" lon="3.58904">
        <ele>1264.0008575024</ele>
        <time>2017-05-24T14:34:08Z</time>
      </trkpt>
      <trkpt lat="44.14937" lon="3.58897">
        <ele>1264.0008575024</ele>
        <time>2017-05-24T14:34:08Z</time>
      </trkpt>
      <trkpt lat="44.14956" lon="3.58875">
        <ele>1260.5606962616</ele>
        <time>2017-05-24T14:34:43Z</time>
      </trkpt>
      <trkpt lat="44.1497" lon="3.58864">
        <ele>1257.307626097</ele>
        <time>2017-05-24T14:34:43Z</time>
      </trkpt>
      <trkpt lat="44.14988" lon="3.58844">
        <ele>1254.1394172832</ele>
        <time>2017-05-24T14:35:08Z</time>
      </trkpt>
      <trkpt lat="44.14994" lon="3.58835">
        <ele>1251.1912971003</ele>
        <time>2017-05-24T14:35:08Z</time>
      </trkpt>
      <trkpt lat="44.15004" lon="3.58825">
        <ele>1248.4146105412</ele>
        <time>2017-05-24T14:35:25Z</time>
      </trkpt>
      <trkpt lat="44.15012" lon="3.58815">
        <ele>1245.792218076</ele>
        <time>2017-05-24T14:35:25Z</time>
      </trkpt>
      <trkpt lat="44.15038" lon="3.58785">
        <ele>1243.1344731804</ele>
        <time>2017-05-24T14:35:56Z</time>
      </trkpt>
      <trkpt lat="44.15063" lon="3.58768">
        <ele>1240.5535847738</ele>
        <time>2017-05-24T14:36:18Z</time>
      </trkpt>
      <trkpt lat="44.15074" lon="3.58755">
        <ele>1238.1961437388</ele>
        <time>2017-05-24T14:36:26Z</time>
      </trkpt>
      <trkpt lat="44.15075" lon="3.58754">
        <ele>1238.1961437388</ele>
        <time>2017-05-24T14:36:28Z</time>
      </trkpt>
      <trkpt lat="44.15076" lon="3.58752">
        <ele>1238.1961437388</ele>
        <time>2017-05-24T14:36:29Z</time>
      </trkpt>
      <trkpt lat="44.15113" lon="3.58709">
        <ele>1235.7502137474</ele>
        <time>2017-05-24T14:37:17Z</time>
      </trkpt>
      <trkpt lat="44.15122" lon="3.58699">
        <ele>1233.474263703</ele>
        <time>2017-05-24T14:37:27Z</time>
      </trkpt>
      <trkpt lat="44.15164" lon="3.5866">
        <ele>1231.0304820146</ele>
        <time>2017-05-24T14:38:01Z</time>
      </trkpt>
      <trkpt lat="44.15167" lon="3.58651">
        <ele>1231.0304820146</ele>
        <time>2017-05-24T14:38:07Z</time>
      </trkpt>
      <trkpt lat="44.15195" lon="3.58608">
        <ele>1227.6880562409</ele>
        <time>2017-05-24T14:38:44Z</time>
      </trkpt>
      <trkpt lat="44.15202" lon="3.58595">
        <ele>1224.4725337164</ele>
        <time>2017-05-24T14:38:45Z</time>
      </trkpt>
      <trkpt lat="44.15208" lon="3.58586">
        <ele>1221.5408062552</ele>
        <time>2017-05-24T14:39:00Z</time>
      </trkpt>
      <trkpt lat="44.15216" lon="3.58575">
        <ele>1218.8353423576</ele>
        <time>2017-05-24T14:39:00Z</time>
      </trkpt>
      <trkpt lat="44.15233" lon="3.5855">
        <ele>1216.1865729778</ele>
        <time>2017-05-24T14:39:19Z</time>
      </trkpt>
      <trkpt lat="44.15234" lon="3.58549">
        <ele>1216.1865729778</ele>
        <time>2017-05-24T14:39:20Z</time>
      </trkpt>
      <trkpt lat="44.15235" lon="3.58548">
        <ele>1216.1865729778</ele>
        <time>2017-05-24T14:39:21Z</time>
      </trkpt>
      <trkpt lat="44.15249" lon="3.58523">
        <ele>1213.7539393986</ele>
        <time>2017-05-24T14:39:46Z</time>
      </trkpt>
      <trkpt lat="44.15257" lon="3.58511">
        <ele>1211.6410097585</ele>
        <time>2017-05-24T14:39:46Z</time>
      </trkpt>
      <trkpt lat="44.15266" lon="3.58498">
        <ele>1209.7263719489</ele>
        <time>2017-05-24T14:40:00Z</time>
      </trkpt>
      <trkpt lat="44.153" lon="3.58455">
        <ele>1207.5652256115</ele>
        <time>2017-05-24T14:40:43Z</time>
      </trkpt>
      <trkpt lat="44.15303" lon="3.58452">
        <ele>1207.5652256115</ele>
        <time>2017-05-24T14:40:43Z</time>
      </trkpt>
      <trkpt lat="44.15321" lon="3.58437">
        <ele>1205.6681677483</ele>
        <time>2017-05-24T14:41:05Z</time>
      </trkpt>
      <trkpt lat="44.15326" lon="3.58433">
        <ele>1205.6681677483</ele>
        <time>2017-05-24T14:41:09Z</time>
      </trkpt>
      <trkpt lat="44.15361" lon="3.58416">
        <ele>1204.1037704194</ele>
        <time>2017-05-24T14:41:31Z</time>
      </trkpt>
      <trkpt lat="44.15395" lon="3.58394">
        <ele>1202.4588196485</ele>
        <time>2017-05-24T14:42:02Z</time>
      </trkpt>
      <trkpt lat="44.15421" lon="3.58359">
        <ele>1200.7683717485</ele>
        <time>2017-05-24T14:42:30Z</time>
      </trkpt>
      <trkpt lat="44.15424" lon="3.58356">
        <ele>1200.7683717485</ele>
        <time>2017-05-24T14:42:30Z</time>
      </trkpt>
      <trkpt lat="44.15456" lon="3.583">
        <ele>1199.3530421846</ele>
        <time>2017-05-24T14:43:09Z</time>
      </trkpt>
      <trkpt lat="44.15492" lon="3.58248">
        <ele>1197.8027787198</ele>
        <time>2017-05-24T14:43:51Z</time>
      </trkpt>
      <trkpt lat="44.15501" lon="3.58241">
        <ele>1196.4007586345</ele>
        <time>2017-05-24T14:43:59Z</time>
      </trkpt>
      <trkpt lat="44.15504" lon="3.58235">
        <ele>1196.4007586345</ele>
        <time>2017-05-24T14:44:05Z</time>
      </trkpt>
      <trkpt lat="44.15519" lon="3.58206">
        <ele>1194.8899744525</ele>
        <time>2017-05-24T14:44:32Z</time>
      </trkpt>
      <trkpt lat="44.15524" lon="3.58195">
        <ele>1193.5656638925</ele>
        <time>2017-05-24T14:44:32Z</time>
      </trkpt>
      <trkpt lat="44.15527" lon="3.58182">
        <ele>1192.3692624443</ele>
        <time>2017-05-24T14:44:48Z</time>
      </trkpt>
      <trkpt lat="44.15532" lon="3.58175">
        <ele>1192.3692624443</ele>
        <time>2017-05-24T14:44:48Z</time>
      </trkpt>
      <trkpt lat="44.15548" lon="3.58156">
        <ele>1190.9722170673</ele>
        <time>2017-05-24T14:45:08Z</time>
      </trkpt>
      <trkpt lat="44.15551" lon="3.58153">
        <ele>1190.9722170673</ele>
        <time>2017-05-24T14:45:08Z</time>
      </trkpt>
      <trkpt lat="44.15565" lon="3.58135">
        <ele>1189.4740776734</ele>
        <time>2017-05-24T14:45:27Z</time>
      </trkpt>
      <trkpt lat="44.15599" lon="3.5811">
        <ele>1187.6214043053</ele>
        <time>2017-05-24T14:46:01Z</time>
      </trkpt>
      <trkpt lat="44.15613" lon="3.58107">
        <ele>1186.1170096347</ele>
        <time>2017-05-24T14:46:27Z</time>
      </trkpt>
      <trkpt lat="44.15617" lon="3.58107">
        <ele>1186.1170096347</ele>
        <time>2017-05-24T14:46:27Z</time>
      </trkpt>
      <trkpt lat="44.15627" lon="3.58107">
        <ele>1184.7751848759</ele>
        <time>2017-05-24T14:46:43Z</time>
      </trkpt>
      <trkpt lat="44.15633" lon="3.58108">
        <ele>1184.7751848759</ele>
        <time>2017-05-24T14:46:43Z</time>
      </trkpt>
      <trkpt lat="44.1564" lon="3.58107">
        <ele>1183.3080567456</ele>
        <time>2017-05-24T14:47:00Z</time>
      </trkpt>
      <trkpt lat="44.15674" lon="3.58089">
        <ele>1181.1609750995</ele>
        <time>2017-05-24T14:47:30Z</time>
      </trkpt>
      <trkpt lat="44.15683" lon="3.58082">
        <ele>1179.0036077025</ele>
        <time>2017-05-24T14:47:48Z</time>
      </trkpt>
      <trkpt lat="44.15692" lon="3.58071">
        <ele>1176.7935066723</ele>
        <time>2017-05-24T14:47:48Z</time>
      </trkpt>
      <trkpt lat="44.15695" lon="3.58068">
        <ele>1176.7935066723</ele>
        <time>2017-05-24T14:47:51Z</time>
      </trkpt>
      <trkpt lat="44.1572" lon="3.58059">
        <ele>1173.9870641366</ele>
        <time>2017-05-24T14:48:26Z</time>
      </trkpt>
      <trkpt lat="44.15729" lon="3.58056">
        <ele>1171.2063091102</ele>
        <time>2017-05-24T14:48:49Z</time>
      </trkpt>
      <trkpt lat="44.15731" lon="3.58012">
        <ele>1167.860166523</ele>
        <time>2017-05-24T14:49:25Z</time>
      </trkpt>
      <trkpt lat="44.15761" lon="3.57959">
        <ele>1164.0077925504</ele>
        <time>2017-05-24T14:50:25Z</time>
      </trkpt>
      <trkpt lat="44.15776" lon="3.57959">
        <ele>1160.0656476834</ele>
        <time>2017-05-24T14:50:45Z</time>
      </trkpt>
      <trkpt lat="44.15784" lon="3.57958">
        <ele>1160.0656476834</ele>
        <time>2017-05-24T14:50:45Z</time>
      </trkpt>
      <trkpt lat="44.15797" lon="3.5796">
        <ele>1155.656005146</ele>
        <time>2017-05-24T14:51:00Z</time>
      </trkpt>
      <trkpt lat="44.158" lon="3.5796">
        <ele>1155.656005146</ele>
        <time>2017-05-24T14:51:00Z</time>
      </trkpt>
      <trkpt lat="44.15812" lon="3.5796">
        <ele>1151.0065739222</ele>
        <time>2017-05-24T14:51:18Z</time>
      </trkpt>
      <trkpt lat="44.15849" lon="3.57949">
        <ele>1144.9742808831</ele>
        <time>2017-05-24T14:51:51Z</time>
      </trkpt>
      <trkpt lat="44.15871" lon="3.5795">
        <ele>1138.953692564</ele>
        <time>2017-05-24T14:52:16Z</time>
      </trkpt>
      <trkpt lat="44.15879" lon="3.57953">
        <ele>1138.953692564</ele>
        <time>2017-05-24T14:52:16Z</time>
      </trkpt>
      <trkpt lat="44.15893" lon="3.57959">
        <ele>1133.1415362363</ele>
        <time>2017-05-24T14:52:29Z</time>
      </trkpt>
      <trkpt lat="44.15947" lon="3.57986">
        <ele>1126.5088306841</ele>
        <time>2017-05-24T14:53:24Z</time>
      </trkpt>
      <trkpt lat="44.15956" lon="3.57989">
        <ele>1120.3524599626</ele>
        <time>2017-05-24T14:53:24Z</time>
      </trkpt>
      <trkpt lat="44.15964" lon="3.57959">
        <ele>1114.2584801849</ele>
        <time>2017-05-24T14:54:27Z</time>
      </trkpt>
      <trkpt lat="44.15967" lon="3.57949">
        <ele>1114.2584801849</ele>
        <time>2017-05-24T14:54:53Z</time>
      </trkpt>
      <trkpt lat="44.1597" lon="3.57939">
        <ele>1108.9814644693</ele>
        <time>2017-05-24T14:54:53Z</time>
      </trkpt>
      <trkpt lat="44.15972" lon="3.57929">
        <ele>1108.9814644693</ele>
        <time>2017-05-24T14:55:10Z</time>
      </trkpt>
      <trkpt lat="44.15976" lon="3.57916">
        <ele>1104.3822126465</ele>
        <time>2017-05-24T14:55:10Z</time>
      </trkpt>
      <trkpt lat="44.15987" lon="3.57869">
        <ele>1100.5025701905</ele>
        <time>2017-05-24T14:55:42Z</time>
      </trkpt>
      <trkpt lat="44.15988" lon="3.57868">
        <ele>1100.5025701905</ele>
        <time>2017-05-24T14:55:43Z</time>
      </trkpt>
      <trkpt lat="44.15996" lon="3.57843">
        <ele>1097.2061449026</ele>
        <time>2017-05-24T14:55:56Z</time>
      </trkpt>
      <trkpt lat="44.15996" lon="3.57843">
        <ele>1097.2061449026</ele>
        <time>2017-05-24T14:56:01Z</time>
      </trkpt>
      <trkpt lat="44.15998" lon="3.57837">
        <ele>1097.2061449026</ele>
        <time>2017-05-24T14:56:16Z</time>
      </trkpt>
      <trkpt lat="44.16003" lon="3.57824">
        <ele>1094.5953009374</ele>
        <time>2017-05-24T14:56:31Z</time>
      </trkpt>
      <trkpt lat="44.16006" lon="3.57814">
        <ele>1094.5953009374</ele>
        <time>2017-05-24T14:56:36Z</time>
      </trkpt>
      <trkpt lat="44.16009" lon="3.57806">
        <ele>1092.5033671494</ele>
        <time>2017-05-24T14:56:41Z</time>
      </trkpt>
      <trkpt lat="44.16011" lon="3.578">
        <ele>1092.5033671494</ele>
        <time>2017-05-24T14:56:49Z</time>
      </trkpt>
      <trkpt lat="44.16013" lon="3.5779">
        <ele>1090.8175182456</ele>
        <time>2017-05-24T14:56:51Z</time>
      </trkpt>
      <trkpt lat="44.16022" lon="3.57772">
        <ele>1089.2589892558</ele>
        <time>2017-05-24T14:57:07Z</time>
      </trkpt>
      <trkpt lat="44.16032" lon="3.57752">
        <ele>1087.6698806415</ele>
        <time>2017-05-24T14:57:22Z</time>
      </trkpt>
      <trkpt lat="44.16036" lon="3.57748">
        <ele>1087.6698806415</ele>
        <time>2017-05-24T14:57:26Z</time>
      </trkpt>
      <trkpt lat="44.16043" lon="3.57731">
        <ele>1086.1920897593</ele>
        <time>2017-05-24T14:57:41Z</time>
      </trkpt>
      <trkpt lat="44.16056" lon="3.57714">
        <ele>1084.567589346</ele>
        <time>2017-05-24T14:58:03Z</time>
      </trkpt>
      <trkpt lat="44.16071" lon="3.57698">
        <ele>1083.0476285602</ele>
        <time>2017-05-24T14:58:42Z</time>
      </trkpt>
      <trkpt lat="44.16117" lon="3.57641">
        <ele>1081.7637811259</ele>
        <time>2017-05-24T14:59:04Z</time>
      </trkpt>
      <trkpt lat="44.16123" lon="3.57638">
        <ele>1081.7637811259</ele>
        <time>2017-05-24T14:59:04Z</time>
      </trkpt>
      <trkpt lat="44.1613" lon="3.57631">
        <ele>1080.6931534546</ele>
        <time>2017-05-24T14:59:11Z</time>
      </trkpt>
      <trkpt lat="44.16135" lon="3.57629">
        <ele>1080.6931534546</ele>
        <time>2017-05-24T14:59:16Z</time>
      </trkpt>
      <trkpt lat="44.16149" lon="3.57621">
        <ele>1079.9003929806</ele>
        <time>2017-05-24T14:59:31Z</time>
      </trkpt>
      <trkpt lat="44.16154" lon="3.57617">
        <ele>1079.9003929806</ele>
        <time>2017-05-24T14:59:36Z</time>
      </trkpt>
      <trkpt lat="44.16168" lon="3.57614">
        <ele>1079.3293400045</ele>
        <time>2017-05-24T14:59:46Z</time>
      </trkpt>
      <trkpt lat="44.16172" lon="3.57609">
        <ele>1079.3293400045</ele>
        <time>2017-05-24T14:59:51Z</time>
      </trkpt>
      <trkpt lat="44.1619" lon="3.57599">
        <ele>1079.1435356492</ele>
        <time>2017-05-24T15:00:01Z</time>
      </trkpt>
      <trkpt lat="44.16195" lon="3.57596">
        <ele>1079.1435356492</ele>
        <time>2017-05-24T15:00:06Z</time>
      </trkpt>
      <trkpt lat="44.16201" lon="3.57593">
        <ele>1079.1476112486</ele>
        <time>2017-05-24T15:00:16Z</time>
      </trkpt>
      <trkpt lat="44.16199" lon="3.57584">
        <ele>1079.1476112486</ele>
        <time>2017-05-24T15:00:21Z</time>
      </trkpt>
      <trkpt lat="44.16197" lon="3.57586">
        <ele>1079.1476112486</ele>
        <time>2017-05-24T15:00:26Z</time>
      </trkpt>
      <trkpt lat="44.16197" lon="3.57579">
        <ele>1080.0103468283</ele>
        <time>2017-05-24T15:00:31Z</time>
      </trkpt>
      <trkpt lat="44.16197" lon="3.57571">
        <ele>1080.0103468283</ele>
        <time>2017-05-24T15:00:36Z</time>
      </trkpt>
      <trkpt lat="44.16197" lon="3.57559">
        <ele>1080.7350370464</ele>
        <time>2017-05-24T15:01:00Z</time>
      </trkpt>
      <trkpt lat="44.16197" lon="3.57557">
        <ele>1080.7350370464</ele>
        <time>2017-05-24T15:01:01Z</time>
      </trkpt>
      <trkpt lat="44.16201" lon="3.57552">
        <ele>1080.7350370464</ele>
        <time>2017-05-24T15:01:06Z</time>
      </trkpt>
      <trkpt lat="44.16155" lon="3.57519">
        <ele>1080.4419327815</ele>
        <time>2017-05-24T15:01:53Z</time>
      </trkpt>
      <trkpt lat="44.16149" lon="3.57468">
        <ele>1080.4229275758</ele>
        <time>2017-05-24T15:02:43Z</time>
      </trkpt>
      <trkpt lat="44.16153" lon="3.5746">
        <ele>1080.4229275758</ele>
        <time>2017-05-24T15:03:03Z</time>
      </trkpt>
      <trkpt lat="44.16176" lon="3.57401">
        <ele>1080.2171216639</ele>
        <time>2017-05-24T15:03:42Z</time>
      </trkpt>
      <trkpt lat="44.16179" lon="3.57397">
        <ele>1080.2171216639</ele>
        <time>2017-05-24T15:03:46Z</time>
      </trkpt>
      <trkpt lat="44.16183" lon="3.57229">
        <ele>1081.3580802438</ele>
        <time>2017-05-24T15:05:40Z</time>
      </trkpt>
      <trkpt lat="44.16183" lon="3.57227">
        <ele>1081.3580802438</ele>
        <time>2017-05-24T15:05:40Z</time>
      </trkpt>
      <trkpt lat="44.16185" lon="3.57205">
        <ele>1083.0293998496</ele>
        <time>2017-05-24T15:05:55Z</time>
      </trkpt>
      <trkpt lat="44.16185" lon="3.57204">
        <ele>1083.0293998496</ele>
        <time>2017-05-24T15:05:56Z</time>
      </trkpt>
      <trkpt lat="44.16185" lon="3.57197">
        <ele>1083.0293998496</ele>
        <time>2017-05-24T15:06:01Z</time>
      </trkpt>
      <trkpt lat="44.16185" lon="3.57184">
        <ele>1085.0065782172</ele>
        <time>2017-05-24T15:06:11Z</time>
      </trkpt>
      <trkpt lat="44.16187" lon="3.57173">
        <ele>1085.0065782172</ele>
        <time>2017-05-24T15:06:16Z</time>
      </trkpt>
      <trkpt lat="44.16193" lon="3.57151">
        <ele>1087.2683169052</ele>
        <time>2017-05-24T15:06:31Z</time>
      </trkpt>
      <trkpt lat="44.16194" lon="3.57145">
        <ele>1087.2683169052</ele>
        <time>2017-05-24T15:06:36Z</time>
      </trkpt>
      <trkpt lat="44.16197" lon="3.57131">
        <ele>1089.7222760492</ele>
        <time>2017-05-24T15:06:46Z</time>
      </trkpt>
      <trkpt lat="44.16198" lon="3.57125">
        <ele>1089.7222760492</ele>
        <time>2017-05-24T15:06:51Z</time>
      </trkpt>
      <trkpt lat="44.16201" lon="3.5712">
        <ele>1092.167340757</ele>
        <time>2017-05-24T15:07:01Z</time>
      </trkpt>
      <trkpt lat="44.16201" lon="3.5712">
        <ele>1092.167340757</ele>
        <time>2017-05-24T15:07:06Z</time>
      </trkpt>
      <trkpt lat="44.16199" lon="3.57114">
        <ele>1092.167340757</ele>
        <time>2017-05-24T15:07:47Z</time>
      </trkpt>
      <trkpt lat="44.16199" lon="3.57117">
        <ele>1092.167340757</ele>
        <time>2017-05-24T15:10:06Z</time>
      </trkpt>
      <trkpt lat="44.16206" lon="3.57103">
        <ele>1094.7489416098</ele>
        <time>2017-05-24T15:10:34Z</time>
      </trkpt>
      <trkpt lat="44.16207" lon="3.57101">
        <ele>1094.7489416098</ele>
        <time>2017-05-24T15:10:36Z</time>
      </trkpt>
      <trkpt lat="44.16214" lon="3.57081">
        <ele>1097.1694197874</ele>
        <time>2017-05-24T15:10:51Z</time>
      </trkpt>
      <trkpt lat="44.16219" lon="3.57075">
        <ele>1097.1694197874</ele>
        <time>2017-05-24T15:10:56Z</time>
      </trkpt>
      <trkpt lat="44.16225" lon="3.57061">
        <ele>1099.5716842333</ele>
        <time>2017-05-24T15:11:15Z</time>
      </trkpt>
      <trkpt lat="44.16225" lon="3.57052">
        <ele>1099.5716842333</ele>
        <time>2017-05-24T15:11:15Z</time>
      </trkpt>
      <trkpt lat="44.16224" lon="3.5705">
        <ele>1099.5716842333</ele>
        <time>2017-05-24T15:11:16Z</time>
      </trkpt>
      <trkpt lat="44.16234" lon="3.56996">
        <ele>1102.8235077256</ele>
        <time>2017-05-24T15:12:01Z</time>
      </trkpt>
      <trkpt lat="44.16235" lon="3.56989">
        <ele>1102.8235077256</ele>
        <time>2017-05-24T15:12:06Z</time>
      </trkpt>
      <trkpt lat="44.16242" lon="3.56978">
        <ele>1106.1704920073</ele>
        <time>2017-05-24T15:12:16Z</time>
      </trkpt>
      <trkpt lat="44.16242" lon="3.56973">
        <ele>1106.1704920073</ele>
        <time>2017-05-24T15:12:21Z</time>
      </trkpt>
      <trkpt lat="44.16243" lon="3.56945">
        <ele>1109.4613852492</ele>
        <time>2017-05-24T15:12:41Z</time>
      </trkpt>
      <trkpt lat="44.16245" lon="3.56941">
        <ele>1109.4613852492</ele>
        <time>2017-05-24T15:12:41Z</time>
      </trkpt>
      <trkpt lat="44.16248" lon="3.56917">
        <ele>1112.5998241807</ele>
        <time>2017-05-24T15:13:08Z</time>
      </trkpt>
      <trkpt lat="44.16249" lon="3.56902">
        <ele>1115.5549956319</ele>
        <time>2017-05-24T15:13:08Z</time>
      </trkpt>
      <trkpt lat="44.16257" lon="3.56877">
        <ele>1118.6595509116</ele>
        <time>2017-05-24T15:13:32Z</time>
      </trkpt>
      <trkpt lat="44.16259" lon="3.56832">
        <ele>1121.6452571684</ele>
        <time>2017-05-24T15:14:06Z</time>
      </trkpt>
      <trkpt lat="44.16259" lon="3.56823">
        <ele>1121.6452571684</ele>
        <time>2017-05-24T15:14:07Z</time>
      </trkpt>
      <trkpt lat="44.16267" lon="3.568">
        <ele>1124.5813844033</ele>
        <time>2017-05-24T15:14:23Z</time>
      </trkpt>
      <trkpt lat="44.16269" lon="3.56781">
        <ele>1127.6047323709</ele>
        <time>2017-05-24T15:14:39Z</time>
      </trkpt>
      <trkpt lat="44.16277" lon="3.56738">
        <ele>1130.3954869569</ele>
        <time>2017-05-24T15:15:04Z</time>
      </trkpt>
      <trkpt lat="44.16277" lon="3.56737">
        <ele>1130.3954869569</ele>
        <time>2017-05-24T15:15:08Z</time>
      </trkpt>
      <trkpt lat="44.163" lon="3.56643">
        <ele>1133.8977611018</ele>
        <time>2017-05-24T15:16:05Z</time>
      </trkpt>
      <trkpt lat="44.16301" lon="3.56636">
        <ele>1133.8977611018</ele>
        <time>2017-05-24T15:16:05Z</time>
      </trkpt>
      <trkpt lat="44.16308" lon="3.56614">
        <ele>1137.3418752893</ele>
        <time>2017-05-24T15:16:19Z</time>
      </trkpt>
      <trkpt lat="44.16309" lon="3.5661">
        <ele>1137.3418752893</ele>
        <time>2017-05-24T15:16:21Z</time>
      </trkpt>
      <trkpt lat="44.16287" lon="3.56496">
        <ele>1141.6581464756</ele>
        <time>2017-05-24T15:17:53Z</time>
      </trkpt>
      <trkpt lat="44.16273" lon="3.56476">
        <ele>1145.7754420172</ele>
        <time>2017-05-24T15:18:02Z</time>
      </trkpt>
      <trkpt lat="44.16282" lon="3.56429">
        <ele>1149.9704802476</ele>
        <time>2017-05-24T15:18:38Z</time>
      </trkpt>
      <trkpt lat="44.16278" lon="3.56423">
        <ele>1149.9704802476</ele>
        <time>2017-05-24T15:18:42Z</time>
      </trkpt>
      <trkpt lat="44.16277" lon="3.56416">
        <ele>1153.9666543189</ele>
        <time>2017-05-24T15:18:46Z</time>
      </trkpt>
      <trkpt lat="44.16274" lon="3.56409">
        <ele>1153.9666543189</ele>
        <time>2017-05-24T15:18:51Z</time>
      </trkpt>
      <trkpt lat="44.16274" lon="3.56399">
        <ele>1157.7392451627</ele>
        <time>2017-05-24T15:18:56Z</time>
      </trkpt>
      <trkpt lat="44.16273" lon="3.56391">
        <ele>1157.7392451627</ele>
        <time>2017-05-24T15:19:01Z</time>
      </trkpt>
      <trkpt lat="44.16271" lon="3.56385">
        <ele>1161.1222962662</ele>
        <time>2017-05-24T15:19:06Z</time>
      </trkpt>
      <trkpt lat="44.1627" lon="3.56375">
        <ele>1161.1222962662</ele>
        <time>2017-05-24T15:19:11Z</time>
      </trkpt>
      <trkpt lat="44.16268" lon="3.56367">
        <ele>1164.1364939442</ele>
        <time>2017-05-24T15:19:16Z</time>
      </trkpt>
      <trkpt lat="44.16267" lon="3.5636">
        <ele>1164.1364939442</ele>
        <time>2017-05-24T15:19:21Z</time>
      </trkpt>
      <trkpt lat="44.16268" lon="3.56346">
        <ele>1166.8168677873</ele>
        <time>2017-05-24T15:19:31Z</time>
      </trkpt>
      <trkpt lat="44.16267" lon="3.56339">
        <ele>1166.8168677873</ele>
        <time>2017-05-24T15:19:36Z</time>
      </trkpt>
      <trkpt lat="44.16263" lon="3.56324">
        <ele>1169.1107487955</ele>
        <time>2017-05-24T15:19:46Z</time>
      </trkpt>
      <trkpt lat="44.1626" lon="3.56315">
        <ele>1169.1107487955</ele>
        <time>2017-05-24T15:19:51Z</time>
      </trkpt>
      <trkpt lat="44.16258" lon="3.56308">
        <ele>1171.0284550274</ele>
        <time>2017-05-24T15:19:56Z</time>
      </trkpt>
      <trkpt lat="44.16258" lon="3.563">
        <ele>1171.0284550274</ele>
        <time>2017-05-24T15:20:01Z</time>
      </trkpt>
      <trkpt lat="44.16258" lon="3.56292">
        <ele>1172.6242059712</ele>
        <time>2017-05-24T15:20:06Z</time>
      </trkpt>
      <trkpt lat="44.16258" lon="3.56283">
        <ele>1172.6242059712</ele>
        <time>2017-05-24T15:20:11Z</time>
      </trkpt>
      <trkpt lat="44.16257" lon="3.56274">
        <ele>1173.9062575147</ele>
        <time>2017-05-24T15:20:16Z</time>
      </trkpt>
      <trkpt lat="44.16253" lon="3.5626">
        <ele>1174.8546427304</ele>
        <time>2017-05-24T15:20:26Z</time>
      </trkpt>
      <trkpt lat="44.16249" lon="3.56255">
        <ele>1174.8546427304</ele>
        <time>2017-05-24T15:20:31Z</time>
      </trkpt>
      <trkpt lat="44.16245" lon="3.56241">
        <ele>1175.4665088244</ele>
        <time>2017-05-24T15:20:41Z</time>
      </trkpt>
      <trkpt lat="44.16238" lon="3.56199">
        <ele>1175.6683737331</ele>
        <time>2017-05-24T15:21:12Z</time>
      </trkpt>
      <trkpt lat="44.16235" lon="3.56198">
        <ele>1175.6683737331</ele>
        <time>2017-05-24T15:21:16Z</time>
      </trkpt>
      <trkpt lat="44.16228" lon="3.56188">
        <ele>1175.4079579703</ele>
        <time>2017-05-24T15:22:01Z</time>
      </trkpt>
      <trkpt lat="44.16225" lon="3.56171">
        <ele>1174.5662755857</ele>
        <time>2017-05-24T15:23:00Z</time>
      </trkpt>
      <trkpt lat="44.16225" lon="3.56159">
        <ele>1174.5662755857</ele>
        <time>2017-05-24T15:23:00Z</time>
      </trkpt>
      <trkpt lat="44.16241" lon="3.56061">
        <ele>1173.5104575164</ele>
        <time>2017-05-24T15:24:07Z</time>
      </trkpt>
      <trkpt lat="44.16242" lon="3.5605">
        <ele>1173.5104575164</ele>
        <time>2017-05-24T15:24:07Z</time>
      </trkpt>
      <trkpt lat="44.16243" lon="3.56045">
        <ele>1172.3508328489</ele>
        <time>2017-05-24T15:24:21Z</time>
      </trkpt>
      <trkpt lat="44.16249" lon="3.5604">
        <ele>1172.3508328489</ele>
        <time>2017-05-24T15:24:33Z</time>
      </trkpt>
      <trkpt lat="44.16245" lon="3.56019">
        <ele>1171.7664729169</ele>
        <time>2017-05-24T15:25:56Z</time>
      </trkpt>
      <trkpt lat="44.16249" lon="3.55976">
        <ele>1170.9871516287</ele>
        <time>2017-05-24T15:26:30Z</time>
      </trkpt>
      <trkpt lat="44.16244" lon="3.55954">
        <ele>1169.7753855452</ele>
        <time>2017-05-24T15:26:43Z</time>
      </trkpt>
      <trkpt lat="44.16243" lon="3.55949">
        <ele>1169.7753855452</ele>
        <time>2017-05-24T15:26:46Z</time>
      </trkpt>
      <trkpt lat="44.1624" lon="3.55922">
        <ele>1168.0853027038</ele>
        <time>2017-05-24T15:27:13Z</time>
      </trkpt>
      <trkpt lat="44.16223" lon="3.55881">
        <ele>1166.1207227795</ele>
        <time>2017-05-24T15:28:08Z</time>
      </trkpt>
      <trkpt lat="44.1623" lon="3.55867">
        <ele>1164.2153366707</ele>
        <time>2017-05-24T15:28:16Z</time>
      </trkpt>
      <trkpt lat="44.16239" lon="3.55835">
        <ele>1162.5339798396</ele>
        <time>2017-05-24T15:28:51Z</time>
      </trkpt>
      <trkpt lat="44.16266" lon="3.55784">
        <ele>1161.3007150433</ele>
        <time>2017-05-24T15:29:27Z</time>
      </trkpt>
      <trkpt lat="44.16269" lon="3.55774">
        <ele>1161.3007150433</ele>
        <time>2017-05-24T15:29:31Z</time>
      </trkpt>
      <trkpt lat="44.16272" lon="3.5576">
        <ele>1160.5488422333</ele>
        <time>2017-05-24T15:29:41Z</time>
      </trkpt>
      <trkpt lat="44.16269" lon="3.55758">
        <ele>1160.5488422333</ele>
        <time>2017-05-24T15:29:46Z</time>
      </trkpt>
      <trkpt lat="44.16262" lon="3.55713">
        <ele>1160.2500905257</ele>
        <time>2017-05-24T15:30:45Z</time>
      </trkpt>
      <trkpt lat="44.16281" lon="3.55643">
        <ele>1160.14627501</ele>
        <time>2017-05-24T15:31:37Z</time>
      </trkpt>
      <trkpt lat="44.16278" lon="3.55636">
        <ele>1160.14627501</ele>
        <time>2017-05-24T15:31:41Z</time>
      </trkpt>
      <trkpt lat="44.16277" lon="3.55617">
        <ele>1160.2568807761</ele>
        <time>2017-05-24T15:31:56Z</time>
      </trkpt>
      <trkpt lat="44.1628" lon="3.55607">
        <ele>1160.2568807761</ele>
        <time>2017-05-24T15:31:56Z</time>
      </trkpt>
      <trkpt lat="44.16287" lon="3.55537">
        <ele>1160.8441961917</ele>
        <time>2017-05-24T15:32:43Z</time>
      </trkpt>
      <trkpt lat="44.1629" lon="3.55523">
        <ele>1161.5444845771</ele>
        <time>2017-05-24T15:32:46Z</time>
      </trkpt>
      <trkpt lat="44.16301" lon="3.55509">
        <ele>1162.3517166562</ele>
        <time>2017-05-24T15:33:00Z</time>
      </trkpt>
      <trkpt lat="44.16315" lon="3.55481">
        <ele>1163.3463258048</ele>
        <time>2017-05-24T15:33:14Z</time>
      </trkpt>
      <trkpt lat="44.16316" lon="3.55479">
        <ele>1163.3463258048</ele>
        <time>2017-05-24T15:33:19Z</time>
      </trkpt>
      <trkpt lat="44.16322" lon="3.55465">
        <ele>1164.3427698745</ele>
        <time>2017-05-24T15:33:22Z</time>
      </trkpt>
      <trkpt lat="44.16331" lon="3.55454">
        <ele>1165.3707523866</ele>
        <time>2017-05-24T15:33:35Z</time>
      </trkpt>
      <trkpt lat="44.16335" lon="3.55443">
        <ele>1166.3567008897</ele>
        <time>2017-05-24T15:33:36Z</time>
      </trkpt>
      <trkpt lat="44.16339" lon="3.55428">
        <ele>1167.3189114973</ele>
        <time>2017-05-24T15:33:46Z</time>
      </trkpt>
      <trkpt lat="44.1634" lon="3.55422">
        <ele>1167.3189114973</ele>
        <time>2017-05-24T15:33:49Z</time>
      </trkpt>
      <trkpt lat="44.16346" lon="3.55397">
        <ele>1168.1013553507</ele>
        <time>2017-05-24T15:34:01Z</time>
      </trkpt>
      <trkpt lat="44.16349" lon="3.55383">
        <ele>1168.862494966</ele>
        <time>2017-05-24T15:34:08Z</time>
      </trkpt>
      <trkpt lat="44.16352" lon="3.55371">
        <ele>1169.6482314752</ele>
        <time>2017-05-24T15:34:15Z</time>
      </trkpt>
      <trkpt lat="44.16357" lon="3.55325">
        <ele>1170.8179724939</ele>
        <time>2017-05-24T15:34:40Z</time>
      </trkpt>
      <trkpt lat="44.16357" lon="3.55323">
        <ele>1170.8179724939</ele>
        <time>2017-05-24T15:34:41Z</time>
      </trkpt>
      <trkpt lat="44.16359" lon="3.55321">
        <ele>1170.8179724939</ele>
        <time>2017-05-24T15:34:46Z</time>
      </trkpt>
      <trkpt lat="44.16374" lon="3.55303">
        <ele>1172.2712220096</ele>
        <time>2017-05-24T15:35:00Z</time>
      </trkpt>
      <trkpt lat="44.16383" lon="3.55283">
        <ele>1173.7554650175</ele>
        <time>2017-05-24T15:35:11Z</time>
      </trkpt>
      <trkpt lat="44.16385" lon="3.55275">
        <ele>1173.7554650175</ele>
        <time>2017-05-24T15:35:16Z</time>
      </trkpt>
      <trkpt lat="44.16386" lon="3.55265">
        <ele>1175.4256742531</ele>
        <time>2017-05-24T15:35:21Z</time>
      </trkpt>
      <trkpt lat="44.16386" lon="3.55231">
        <ele>1177.4248517204</ele>
        <time>2017-05-24T15:35:37Z</time>
      </trkpt>
      <trkpt lat="44.16377" lon="3.55199">
        <ele>1179.4954177847</ele>
        <time>2017-05-24T15:35:59Z</time>
      </trkpt>
      <trkpt lat="44.16378" lon="3.5519">
        <ele>1179.4954177847</ele>
        <time>2017-05-24T15:36:01Z</time>
      </trkpt>
      <trkpt lat="44.16375" lon="3.55182">
        <ele>1181.4849385089</ele>
        <time>2017-05-24T15:36:19Z</time>
      </trkpt>
      <trkpt lat="44.16375" lon="3.55161">
        <ele>1183.4253075611</ele>
        <time>2017-05-24T15:36:19Z</time>
      </trkpt>
      <trkpt lat="44.16394" lon="3.55114">
        <ele>1185.0723821184</ele>
        <time>2017-05-24T15:36:50Z</time>
      </trkpt>
      <trkpt lat="44.16395" lon="3.55114">
        <ele>1185.0723821184</ele>
        <time>2017-05-24T15:36:51Z</time>
      </trkpt>
      <trkpt lat="44.16404" lon="3.551">
        <ele>1186.5610433775</ele>
        <time>2017-05-24T15:37:01Z</time>
      </trkpt>
      <trkpt lat="44.16407" lon="3.55095">
        <ele>1186.5610433775</ele>
        <time>2017-05-24T15:37:08Z</time>
      </trkpt>
      <trkpt lat="44.16413" lon="3.55079">
        <ele>1187.814948665</ele>
        <time>2017-05-24T15:37:16Z</time>
      </trkpt>
      <trkpt lat="44.16417" lon="3.55065">
        <ele>1188.9225447598</ele>
        <time>2017-05-24T15:37:21Z</time>
      </trkpt>
      <trkpt lat="44.16425" lon="3.55043">
        <ele>1189.9085505719</ele>
        <time>2017-05-24T15:37:33Z</time>
      </trkpt>
      <trkpt lat="44.16427" lon="3.55041">
        <ele>1189.9085505719</ele>
        <time>2017-05-24T15:37:36Z</time>
      </trkpt>
      <trkpt lat="44.16431" lon="3.55028">
        <ele>1190.7385704455</ele>
        <time>2017-05-24T15:37:46Z</time>
      </trkpt>
      <trkpt lat="44.16451" lon="3.54955">
        <ele>1191.4676442185</ele>
        <time>2017-05-24T15:38:28Z</time>
      </trkpt>
      <trkpt lat="44.16452" lon="3.54953">
        <ele>1191.4676442185</ele>
        <time>2017-05-24T15:38:33Z</time>
      </trkpt>
      <trkpt lat="44.16461" lon="3.54947">
        <ele>1192.3343999762</ele>
        <time>2017-05-24T15:38:41Z</time>
      </trkpt>
      <trkpt lat="44.16465" lon="3.54947">
        <ele>1192.3343999762</ele>
        <time>2017-05-24T15:38:46Z</time>
      </trkpt>
      <trkpt lat="44.16467" lon="3.54946">
        <ele>1192.3343999762</ele>
        <time>2017-05-24T15:39:03Z</time>
      </trkpt>
      <trkpt lat="44.16451" lon="3.54947">
        <ele>1193.7757203447</ele>
        <time>2017-05-24T15:39:46Z</time>
      </trkpt>
      <trkpt lat="44.16446" lon="3.54942">
        <ele>1193.7757203447</ele>
        <time>2017-05-24T15:39:51Z</time>
      </trkpt>
      <trkpt lat="44.1643" lon="3.54943">
        <ele>1195.2292421154</ele>
        <time>2017-05-24T15:40:01Z</time>
      </trkpt>
      <trkpt lat="44.16424" lon="3.54947">
        <ele>1195.2292421154</ele>
        <time>2017-05-24T15:40:06Z</time>
      </trkpt>
      <trkpt lat="44.16422" lon="3.54949">
        <ele>1196.6494511853</ele>
        <time>2017-05-24T15:40:16Z</time>
      </trkpt>
      <trkpt lat="44.16416" lon="3.54948">
        <ele>1196.6494511853</ele>
        <time>2017-05-24T15:40:36Z</time>
      </trkpt>
      <trkpt lat="44.16413" lon="3.54948">
        <ele>1196.6494511853</ele>
        <time>2017-05-24T15:40:41Z</time>
      </trkpt>
      <trkpt lat="44.16405" lon="3.54954">
        <ele>1198.3401460638</ele>
        <time>2017-05-24T15:40:51Z</time>
      </trkpt>
      <trkpt lat="44.16403" lon="3.54953">
        <ele>1198.3401460638</ele>
        <time>2017-05-24T15:40:57Z</time>
      </trkpt>
      <trkpt lat="44.16399" lon="3.54952">
        <ele>1198.3401460638</ele>
        <time>2017-05-24T15:41:06Z</time>
      </trkpt>
      <trkpt lat="44.16396" lon="3.54949">
        <ele>1200.0776736562</ele>
        <time>2017-05-24T15:41:11Z</time>
      </trkpt>
      <trkpt lat="44.16396" lon="3.54946">
        <ele>1200.0776736562</ele>
        <time>2017-05-24T15:41:21Z</time>
      </trkpt>
      <trkpt lat="44.16386" lon="3.54954">
        <ele>1201.697929608</ele>
        <time>2017-05-24T15:42:06Z</time>
      </trkpt>
      <trkpt lat="44.16382" lon="3.54952">
        <ele>1201.697929608</ele>
        <time>2017-05-24T15:42:11Z</time>
      </trkpt>
      <trkpt lat="44.16378" lon="3.54951">
        <ele>1201.697929608</ele>
        <time>2017-05-24T15:42:21Z</time>
      </trkpt>
      <trkpt lat="44.16378" lon="3.54952">
        <ele>1201.697929608</ele>
        <time>2017-05-24T15:42:26Z</time>
      </trkpt>
      <trkpt lat="44.16371" lon="3.54954">
        <ele>1203.6112492325</ele>
        <time>2017-05-24T15:42:56Z</time>
      </trkpt>
      <trkpt lat="44.16367" lon="3.54954">
        <ele>1203.6112492325</ele>
        <time>2017-05-24T15:43:01Z</time>
      </trkpt>
      <trkpt lat="44.16351" lon="3.54953">
        <ele>1206.0240972822</ele>
        <time>2017-05-24T15:44:16Z</time>
      </trkpt>
      <trkpt lat="44.1635" lon="3.54954">
        <ele>1206.0240972822</ele>
        <time>2017-05-24T15:44:21Z</time>
      </trkpt>
      <trkpt lat="44.1635" lon="3.54953">
        <ele>1206.0240972822</ele>
        <time>2017-05-24T15:44:26Z</time>
      </trkpt>
      <trkpt lat="44.16352" lon="3.5495">
        <ele>1206.0240972822</ele>
        <time>2017-05-24T15:44:36Z</time>
      </trkpt>
      <trkpt lat="44.16353" lon="3.54951">
        <ele>1206.0240972822</ele>
        <time>2017-05-24T15:44:46Z</time>
      </trkpt>
      <trkpt lat="44.16355" lon="3.54948">
        <ele>1207.6708806576</ele>
        <time>2017-05-24T15:51:07Z</time>
      </trkpt>
      <trkpt lat="44.16337" lon="3.54951">
        <ele>1209.8022315073</ele>
        <time>2017-05-24T15:53:26Z</time>
      </trkpt>
      <trkpt lat="44.16331" lon="3.54952">
        <ele>1209.8022315073</ele>
        <time>2017-05-24T15:53:31Z</time>
      </trkpt>
      <trkpt lat="44.16323" lon="3.54953">
        <ele>1211.9471404107</ele>
        <time>2017-05-24T15:53:38Z</time>
      </trkpt>
      <trkpt lat="44.16321" lon="3.54953">
        <ele>1211.9471404107</ele>
        <time>2017-05-24T15:53:41Z</time>
      </trkpt>
      <trkpt lat="44.1631" lon="3.5496">
        <ele>1214.3897663807</ele>
        <time>2017-05-24T15:54:09Z</time>
      </trkpt>
      <trkpt lat="44.16301" lon="3.54973">
        <ele>1217.0323377231</ele>
        <time>2017-05-24T15:54:17Z</time>
      </trkpt>
      <trkpt lat="44.1629" lon="3.54987">
        <ele>1219.9567014532</ele>
        <time>2017-05-24T15:54:36Z</time>
      </trkpt>
      <trkpt lat="44.16286" lon="3.5499">
        <ele>1219.9567014532</ele>
        <time>2017-05-24T15:54:41Z</time>
      </trkpt>
      <trkpt lat="44.16271" lon="3.55001">
        <ele>1223.0938628676</ele>
        <time>2017-05-24T15:54:54Z</time>
      </trkpt>
      <trkpt lat="44.16267" lon="3.55005">
        <ele>1223.0938628676</ele>
        <time>2017-05-24T15:54:56Z</time>
      </trkpt>
      <trkpt lat="44.16259" lon="3.55016">
        <ele>1226.2929136482</ele>
        <time>2017-05-24T15:55:11Z</time>
      </trkpt>
      <trkpt lat="44.16253" lon="3.5502">
        <ele>1226.2929136482</ele>
        <time>2017-05-24T15:55:14Z</time>
      </trkpt>
      <trkpt lat="44.16248" lon="3.5502">
        <ele>1229.7454050905</ele>
        <time>2017-05-24T15:55:23Z</time>
      </trkpt>
      <trkpt lat="44.16247" lon="3.55021">
        <ele>1229.7454050905</ele>
        <time>2017-05-24T15:55:26Z</time>
      </trkpt>
      <trkpt lat="44.16237" lon="3.55022">
        <ele>1233.3399864928</ele>
        <time>2017-05-24T15:55:39Z</time>
      </trkpt>
      <trkpt lat="44.16236" lon="3.55023">
        <ele>1233.3399864928</ele>
        <time>2017-05-24T15:55:47Z</time>
      </trkpt>
      <trkpt lat="44.16228" lon="3.55026">
        <ele>1236.8723235856</ele>
        <time>2017-05-24T15:55:47Z</time>
      </trkpt>
      <trkpt lat="44.16217" lon="3.55028">
        <ele>1240.4848460975</ele>
        <time>2017-05-24T15:55:59Z</time>
      </trkpt>
      <trkpt lat="44.16216" lon="3.55029">
        <ele>1240.4848460975</ele>
        <time>2017-05-24T15:56:01Z</time>
      </trkpt>
      <trkpt lat="44.16202" lon="3.55035">
        <ele>1244.4103075727</ele>
        <time>2017-05-24T15:56:16Z</time>
      </trkpt>
      <trkpt lat="44.16199" lon="3.5504">
        <ele>1244.4103075727</ele>
        <time>2017-05-24T15:56:21Z</time>
      </trkpt>
      <trkpt lat="44.16188" lon="3.55042">
        <ele>1248.5321739184</ele>
        <time>2017-05-24T15:56:33Z</time>
      </trkpt>
      <trkpt lat="44.16184" lon="3.55043">
        <ele>1248.5321739184</ele>
        <time>2017-05-24T15:56:38Z</time>
      </trkpt>
      <trkpt lat="44.1618" lon="3.55046">
        <ele>1248.5321739184</ele>
        <time>2017-05-24T15:56:41Z</time>
      </trkpt>
      <trkpt lat="44.16173" lon="3.55047">
        <ele>1252.6123742414</ele>
        <time>2017-05-24T15:56:51Z</time>
      </trkpt>
      <trkpt lat="44.1617" lon="3.55049">
        <ele>1252.6123742414</ele>
        <time>2017-05-24T15:56:56Z</time>
      </trkpt>
      <trkpt lat="44.16155" lon="3.5505">
        <ele>1256.5458951506</ele>
        <time>2017-05-24T15:57:06Z</time>
      </trkpt>
      <trkpt lat="44.1615" lon="3.55052">
        <ele>1256.5458951506</ele>
        <time>2017-05-24T15:57:14Z</time>
      </trkpt>
      <trkpt lat="44.1614" lon="3.55062">
        <ele>1260.6971769613</ele>
        <time>2017-05-24T15:57:37Z</time>
      </trkpt>
      <trkpt lat="44.16127" lon="3.55071">
        <ele>1264.7405463469</ele>
        <time>2017-05-24T15:58:00Z</time>
      </trkpt>
      <trkpt lat="44.16106" lon="3.55088">
        <ele>1268.8070769081</ele>
        <time>2017-05-24T15:58:16Z</time>
      </trkpt>
      <trkpt lat="44.16095" lon="3.55102">
        <ele>1272.7445298881</ele>
        <time>2017-05-24T15:58:32Z</time>
      </trkpt>
      <trkpt lat="44.16083" lon="3.55117">
        <ele>1276.8591537916</ele>
        <time>2017-05-24T15:59:06Z</time>
      </trkpt>
      <trkpt lat="44.16042" lon="3.55157">
        <ele>1281.9676171568</ele>
        <time>2017-05-24T16:00:23Z</time>
      </trkpt>
      <trkpt lat="44.16022" lon="3.55169">
        <ele>1287.1523275305</ele>
        <time>2017-05-24T16:00:52Z</time>
      </trkpt>
      <trkpt lat="44.16012" lon="3.55182">
        <ele>1291.8224993266</ele>
        <time>2017-05-24T16:01:19Z</time>
      </trkpt>
      <trkpt lat="44.16002" lon="3.55186">
        <ele>1296.0664992803</ele>
        <time>2017-05-24T16:01:36Z</time>
      </trkpt>
      <trkpt lat="44.15979" lon="3.5519">
        <ele>1299.9820347038</ele>
        <time>2017-05-24T16:02:08Z</time>
      </trkpt>
      <trkpt lat="44.15974" lon="3.55194">
        <ele>1299.9820347038</ele>
        <time>2017-05-24T16:02:08Z</time>
      </trkpt>
      <trkpt lat="44.1595" lon="3.55206">
        <ele>1304.3813398404</ele>
        <time>2017-05-24T16:03:00Z</time>
      </trkpt>
      <trkpt lat="44.15946" lon="3.55208">
        <ele>1304.3813398404</ele>
        <time>2017-05-24T16:03:01Z</time>
      </trkpt>
      <trkpt lat="44.15937" lon="3.5521">
        <ele>1308.7188516239</ele>
        <time>2017-05-24T16:03:25Z</time>
      </trkpt>
      <trkpt lat="44.15931" lon="3.55211">
        <ele>1308.7188516239</ele>
        <time>2017-05-24T16:03:25Z</time>
      </trkpt>
      <trkpt lat="44.15924" lon="3.55213">
        <ele>1312.8497596071</ele>
        <time>2017-05-24T16:03:43Z</time>
      </trkpt>
      <trkpt lat="44.15921" lon="3.55213">
        <ele>1312.8497596071</ele>
        <time>2017-05-24T16:03:46Z</time>
      </trkpt>
      <trkpt lat="44.15915" lon="3.55213">
        <ele>1312.8497596071</ele>
        <time>2017-05-24T16:04:51Z</time>
      </trkpt>
      <trkpt lat="44.15913" lon="3.55215">
        <ele>1317.3756605052</ele>
        <time>2017-05-24T16:04:56Z</time>
      </trkpt>
      <trkpt lat="44.15911" lon="3.55216">
        <ele>1317.3756605052</ele>
        <time>2017-05-24T16:05:01Z</time>
      </trkpt>
      <trkpt lat="44.15911" lon="3.55216">
        <ele>1317.3756605052</ele>
        <time>2017-05-24T16:05:06Z</time>
      </trkpt>
      <trkpt lat="44.15908" lon="3.55221">
        <ele>1317.3756605052</ele>
        <time>2017-05-24T16:05:36Z</time>
      </trkpt>
      <trkpt lat="44.15904" lon="3.55222">
        <ele>1321.4119588599</ele>
        <time>2017-05-24T16:05:41Z</time>
      </trkpt>
      <trkpt lat="44.15902" lon="3.55223">
        <ele>1321.4119588599</ele>
        <time>2017-05-24T16:05:46Z</time>
      </trkpt>
      <trkpt lat="44.159" lon="3.55222">
        <ele>1321.4119588599</ele>
        <time>2017-05-24T16:05:51Z</time>
      </trkpt>
      <trkpt lat="44.15897" lon="3.55223">
        <ele>1321.4119588599</ele>
        <time>2017-05-24T16:06:00Z</time>
      </trkpt>
      <trkpt lat="44.1589" lon="3.55224">
        <ele>1325.2646985833</ele>
        <time>2017-05-24T16:06:11Z</time>
      </trkpt>
      <trkpt lat="44.15888" lon="3.55224">
        <ele>1325.2646985833</ele>
        <time>2017-05-24T16:06:16Z</time>
      </trkpt>
      <trkpt lat="44.15881" lon="3.55228">
        <ele>1328.713779158</ele>
        <time>2017-05-24T16:06:26Z</time>
      </trkpt>
      <trkpt lat="44.15879" lon="3.55228">
        <ele>1328.713779158</ele>
        <time>2017-05-24T16:06:31Z</time>
      </trkpt>
      <trkpt lat="44.15872" lon="3.55228">
        <ele>1331.8160049299</ele>
        <time>2017-05-24T16:06:41Z</time>
      </trkpt>
      <trkpt lat="44.15869" lon="3.55225">
        <ele>1331.8160049299</ele>
        <time>2017-05-24T16:06:46Z</time>
      </trkpt>
      <trkpt lat="44.15868" lon="3.55226">
        <ele>1331.8160049299</ele>
        <time>2017-05-24T16:06:56Z</time>
      </trkpt>
      <trkpt lat="44.15851" lon="3.55229">
        <ele>1334.8701633261</ele>
        <time>2017-05-24T16:07:31Z</time>
      </trkpt>
      <trkpt lat="44.15837" lon="3.55235">
        <ele>1337.7931319072</ele>
        <time>2017-05-24T16:08:00Z</time>
      </trkpt>
      <trkpt lat="44.15831" lon="3.55244">
        <ele>1341.1569322762</ele>
        <time>2017-05-24T16:08:27Z</time>
      </trkpt>
      <trkpt lat="44.15831" lon="3.55245">
        <ele>1341.1569322762</ele>
        <time>2017-05-24T16:08:28Z</time>
      </trkpt>
      <trkpt lat="44.15819" lon="3.55253">
        <ele>1344.6690531168</ele>
        <time>2017-05-24T16:09:21Z</time>
      </trkpt>
      <trkpt lat="44.15809" lon="3.55263">
        <ele>1348.2311353202</ele>
        <time>2017-05-24T16:09:36Z</time>
      </trkpt>
      <trkpt lat="44.15801" lon="3.55259">
        <ele>1348.2311353202</ele>
        <time>2017-05-24T16:09:54Z</time>
      </trkpt>
      <trkpt lat="44.15803" lon="3.55261">
        <ele>1351.6799872765</ele>
        <time>2017-05-24T16:09:56Z</time>
      </trkpt>
      <trkpt lat="44.15799" lon="3.55267">
        <ele>1351.6799872765</ele>
        <time>2017-05-24T16:10:14Z</time>
      </trkpt>
      <trkpt lat="44.15793" lon="3.55261">
        <ele>1354.8792632939</ele>
        <time>2017-05-24T16:10:14Z</time>
      </trkpt>
      <trkpt lat="44.15769" lon="3.5523">
        <ele>1358.9139895002</ele>
        <time>2017-05-24T16:11:17Z</time>
      </trkpt>
      <trkpt lat="44.15766" lon="3.55226">
        <ele>1358.9139895002</ele>
        <time>2017-05-24T16:11:25Z</time>
      </trkpt>
      <trkpt lat="44.1576" lon="3.55223">
        <ele>1362.452656654</ele>
        <time>2017-05-24T16:11:42Z</time>
      </trkpt>
      <trkpt lat="44.15745" lon="3.55207">
        <ele>1366.3382681881</ele>
        <time>2017-05-24T16:12:05Z</time>
      </trkpt>
      <trkpt lat="44.15745" lon="3.55203">
        <ele>1366.3382681881</ele>
        <time>2017-05-24T16:12:06Z</time>
      </trkpt>
      <trkpt lat="44.15743" lon="3.55199">
        <ele>1366.3382681881</ele>
        <time>2017-05-24T16:12:24Z</time>
      </trkpt>
      <trkpt lat="44.15739" lon="3.55194">
        <ele>1370.1981414599</ele>
        <time>2017-05-24T16:12:24Z</time>
      </trkpt>
      <trkpt lat="44.15723" lon="3.55157">
        <ele>1374.7103321642</ele>
        <time>2017-05-24T16:13:09Z</time>
      </trkpt>
      <trkpt lat="44.15722" lon="3.5515">
        <ele>1374.7103321642</ele>
        <time>2017-05-24T16:13:16Z</time>
      </trkpt>
      <trkpt lat="44.15692" lon="3.55129">
        <ele>1379.6655098054</ele>
        <time>2017-05-24T16:14:01Z</time>
      </trkpt>
      <trkpt lat="44.1567" lon="3.55144">
        <ele>1384.8973997563</ele>
        <time>2017-05-24T16:14:43Z</time>
      </trkpt>
      <trkpt lat="44.15664" lon="3.55151">
        <ele>1384.8973997563</ele>
        <time>2017-05-24T16:14:43Z</time>
      </trkpt>
      <trkpt lat="44.15629" lon="3.55221">
        <ele>1391.6059152812</ele>
        <time>2017-05-24T16:16:31Z</time>
      </trkpt>
      <trkpt lat="44.15622" lon="3.55236">
        <ele>1397.9589279542</ele>
        <time>2017-05-24T16:16:46Z</time>
      </trkpt>
      <trkpt lat="44.15614" lon="3.55259">
        <ele>1404.1190521914</ele>
        <time>2017-05-24T16:17:01Z</time>
      </trkpt>
      <trkpt lat="44.15613" lon="3.5526">
        <ele>1404.1190521914</ele>
        <time>2017-05-24T16:17:02Z</time>
      </trkpt>
      <trkpt lat="44.15578" lon="3.55311">
        <ele>1411.3761146457</ele>
        <time>2017-05-24T16:18:02Z</time>
      </trkpt>
      <trkpt lat="44.15561" lon="3.55334">
        <ele>1418.3570889822</ele>
        <time>2017-05-24T16:18:31Z</time>
      </trkpt>
      <trkpt lat="44.15559" lon="3.55339">
        <ele>1418.3570889822</ele>
        <time>2017-05-24T16:18:36Z</time>
      </trkpt>
      <trkpt lat="44.15554" lon="3.55345">
        <ele>1424.9004071247</ele>
        <time>2017-05-24T16:18:46Z</time>
      </trkpt>
      <trkpt lat="44.15554" lon="3.55349">
        <ele>1424.9004071247</ele>
        <time>2017-05-24T16:18:51Z</time>
      </trkpt>
      <trkpt lat="44.15547" lon="3.55356">
        <ele>1431.0595308786</ele>
        <time>2017-05-24T16:19:01Z</time>
      </trkpt>
      <trkpt lat="44.15544" lon="3.55359">
        <ele>1431.0595308786</ele>
        <time>2017-05-24T16:19:06Z</time>
      </trkpt>
      <trkpt lat="44.15534" lon="3.55364">
        <ele>1436.8564373185</ele>
        <time>2017-05-24T16:19:16Z</time>
      </trkpt>
      <trkpt lat="44.15531" lon="3.55367">
        <ele>1436.8564373185</ele>
        <time>2017-05-24T16:19:21Z</time>
      </trkpt>
      <trkpt lat="44.15526" lon="3.55384">
        <ele>1442.3559304603</ele>
        <time>2017-05-24T16:19:36Z</time>
      </trkpt>
      <trkpt lat="44.15523" lon="3.55389">
        <ele>1442.3559304603</ele>
        <time>2017-05-24T16:19:41Z</time>
      </trkpt>
      <trkpt lat="44.15516" lon="3.55401">
        <ele>1447.4317362531</ele>
        <time>2017-05-24T16:19:51Z</time>
      </trkpt>
      <trkpt lat="44.15513" lon="3.55404">
        <ele>1447.4317362531</ele>
        <time>2017-05-24T16:19:56Z</time>
      </trkpt>
      <trkpt lat="44.15505" lon="3.55411">
        <ele>1452.040290222</ele>
        <time>2017-05-24T16:20:06Z</time>
      </trkpt>
      <trkpt lat="44.15501" lon="3.55414">
        <ele>1452.040290222</ele>
        <time>2017-05-24T16:20:11Z</time>
      </trkpt>
      <trkpt lat="44.15486" lon="3.55422">
        <ele>1456.3588884527</ele>
        <time>2017-05-24T16:20:26Z</time>
      </trkpt>
      <trkpt lat="44.15453" lon="3.55439">
        <ele>1460.826601419</ele>
        <time>2017-05-24T16:20:57Z</time>
      </trkpt>
      <trkpt lat="44.15449" lon="3.55443">
        <ele>1460.826601419</ele>
        <time>2017-05-24T16:21:01Z</time>
      </trkpt>
      <trkpt lat="44.15446" lon="3.55449">
        <ele>1464.7259224345</ele>
        <time>2017-05-24T16:21:06Z</time>
      </trkpt>
      <trkpt lat="44.15442" lon="3.55466">
        <ele>1468.0711175844</ele>
        <time>2017-05-24T16:21:16Z</time>
      </trkpt>
      <trkpt lat="44.15441" lon="3.55479">
        <ele>1470.8770913456</ele>
        <time>2017-05-24T16:21:21Z</time>
      </trkpt>
      <trkpt lat="44.15438" lon="3.55486">
        <ele>1470.8770913456</ele>
        <time>2017-05-24T16:21:31Z</time>
      </trkpt>
      <trkpt lat="44.15436" lon="3.55489">
        <ele>1470.8770913456</ele>
        <time>2017-05-24T16:21:36Z</time>
      </trkpt>
      <trkpt lat="44.15434" lon="3.55502">
        <ele>1473.6924909817</ele>
        <time>2017-05-24T16:21:46Z</time>
      </trkpt>
      <trkpt lat="44.15435" lon="3.55514">
        <ele>1473.6924909817</ele>
        <time>2017-05-24T16:21:51Z</time>
      </trkpt>
      <trkpt lat="44.15436" lon="3.55539">
        <ele>1476.3628159184</ele>
        <time>2017-05-24T16:22:02Z</time>
      </trkpt>
      <trkpt lat="44.15434" lon="3.55544">
        <ele>1476.3628159184</ele>
        <time>2017-05-24T16:22:06Z</time>
      </trkpt>
      <trkpt lat="44.15423" lon="3.55575">
        <ele>1478.9759719978</ele>
        <time>2017-05-24T16:22:40Z</time>
      </trkpt>
      <trkpt lat="44.15418" lon="3.55589">
        <ele>1481.1668737151</ele>
        <time>2017-05-24T16:22:41Z</time>
      </trkpt>
      <trkpt lat="44.15404" lon="3.55624">
        <ele>1483.246968433</ele>
        <time>2017-05-24T16:23:14Z</time>
      </trkpt>
      <trkpt lat="44.15397" lon="3.55639">
        <ele>1484.9863428387</ele>
        <time>2017-05-24T16:23:14Z</time>
      </trkpt>
      <trkpt lat="44.15396" lon="3.55642">
        <ele>1484.9863428387</ele>
        <time>2017-05-24T16:23:22Z</time>
      </trkpt>
      <trkpt lat="44.15392" lon="3.55651">
        <ele>1486.4179029428</ele>
        <time>2017-05-24T16:23:22Z</time>
      </trkpt>
      <trkpt lat="44.15379" lon="3.55671">
        <ele>1487.702663662</ele>
        <time>2017-05-24T16:23:46Z</time>
      </trkpt>
      <trkpt lat="44.15363" lon="3.55697">
        <ele>1488.8748746974</ele>
        <time>2017-05-24T16:24:08Z</time>
      </trkpt>
      <trkpt lat="44.15356" lon="3.55701">
        <ele>1488.8748746974</ele>
        <time>2017-05-24T16:24:08Z</time>
      </trkpt>
      <trkpt lat="44.15282" lon="3.55739">
        <ele>1491.249094698</ele>
        <time>2017-05-24T16:25:13Z</time>
      </trkpt>
      <trkpt lat="44.15278" lon="3.55742">
        <ele>1491.249094698</ele>
        <time>2017-05-24T16:25:21Z</time>
      </trkpt>
      <trkpt lat="44.15242" lon="3.55759">
        <ele>1494.4258020222</ele>
        <time>2017-05-24T16:25:58Z</time>
      </trkpt>
      <trkpt lat="44.15226" lon="3.55763">
        <ele>1497.5857196028</ele>
        <time>2017-05-24T16:26:14Z</time>
      </trkpt>
      <trkpt lat="44.15182" lon="3.55784">
        <ele>1501.5549105031</ele>
        <time>2017-05-24T16:26:49Z</time>
      </trkpt>
      <trkpt lat="44.15178" lon="3.55787">
        <ele>1501.5549105031</ele>
        <time>2017-05-24T16:26:51Z</time>
      </trkpt>
      <trkpt lat="44.15167" lon="3.55791">
        <ele>1505.4246821413</ele>
        <time>2017-05-24T16:27:03Z</time>
      </trkpt>
      <trkpt lat="44.15163" lon="3.55792">
        <ele>1505.4246821413</ele>
        <time>2017-05-24T16:27:03Z</time>
      </trkpt>
      <trkpt lat="44.15147" lon="3.55808">
        <ele>1509.3188065765</ele>
        <time>2017-05-24T16:27:22Z</time>
      </trkpt>
      <trkpt lat="44.15141" lon="3.55813">
        <ele>1509.3188065765</ele>
        <time>2017-05-24T16:27:28Z</time>
      </trkpt>
      <trkpt lat="44.15129" lon="3.55822">
        <ele>1513.3661998238</ele>
        <time>2017-05-24T16:27:38Z</time>
      </trkpt>
      <trkpt lat="44.15128" lon="3.55823">
        <ele>1513.3661998238</ele>
        <time>2017-05-24T16:27:38Z</time>
      </trkpt>
      <trkpt lat="44.15108" lon="3.55836">
        <ele>1517.5128436053</ele>
        <time>2017-05-24T16:28:02Z</time>
      </trkpt>
      <trkpt lat="44.1505" lon="3.55862">
        <ele>1521.8236037651</ele>
        <time>2017-05-24T16:29:07Z</time>
      </trkpt>
      <trkpt lat="44.15024" lon="3.55867">
        <ele>1525.7959989393</ele>
        <time>2017-05-24T16:29:08Z</time>
      </trkpt>
      <trkpt lat="44.14985" lon="3.55878">
        <ele>1529.3832487771</ele>
        <time>2017-05-24T16:29:50Z</time>
      </trkpt>
      <trkpt lat="44.14979" lon="3.55881">
        <ele>1529.3832487771</ele>
        <time>2017-05-24T16:29:50Z</time>
      </trkpt>
      <trkpt lat="44.14971" lon="3.55884">
        <ele>1532.4997778461</ele>
        <time>2017-05-24T16:29:59Z</time>
      </trkpt>
      <trkpt lat="44.1497" lon="3.55886">
        <ele>1532.4997778461</ele>
        <time>2017-05-24T16:30:01Z</time>
      </trkpt>
      <trkpt lat="44.14951" lon="3.55893">
        <ele>1535.0819510944</ele>
        <time>2017-05-24T16:30:18Z</time>
      </trkpt>
      <trkpt lat="44.14942" lon="3.55897">
        <ele>1537.0722268015</ele>
        <time>2017-05-24T16:30:23Z</time>
      </trkpt>
      <trkpt lat="44.14919" lon="3.55901">
        <ele>1536.2860146696</ele>
        <time>2017-05-24T16:30:49Z</time>
      </trkpt>
      <trkpt lat="44.14889" lon="3.55924">
        <ele>1533.3585269588</ele>
        <time>2017-05-24T16:31:24Z</time>
      </trkpt>
      <trkpt lat="44.14848" lon="3.55953">
        <ele>1528.2068552764</ele>
        <time>2017-05-24T16:31:54Z</time>
      </trkpt>
      <trkpt lat="44.14844" lon="3.55957">
        <ele>1528.2068552764</ele>
        <time>2017-05-24T16:31:56Z</time>
      </trkpt>
      <trkpt lat="44.14814" lon="3.55976">
        <ele>1520.3278970178</ele>
        <time>2017-05-24T16:32:33Z</time>
      </trkpt>
      <trkpt lat="44.14807" lon="3.55985">
        <ele>1520.3278970178</ele>
        <time>2017-05-24T16:32:33Z</time>
      </trkpt>
      <trkpt lat="44.1476" lon="3.56052">
        <ele>1509.479069128</ele>
        <time>2017-05-24T16:33:25Z</time>
      </trkpt>
      <trkpt lat="44.14728" lon="3.56087">
        <ele>1497.8358519773</ele>
        <time>2017-05-24T16:34:01Z</time>
      </trkpt>
      <trkpt lat="44.14707" lon="3.56097">
        <ele>1486.1619580665</ele>
        <time>2017-05-24T16:34:19Z</time>
      </trkpt>
      <trkpt lat="44.14704" lon="3.56099">
        <ele>1486.1619580665</ele>
        <time>2017-05-24T16:34:21Z</time>
      </trkpt>
      <trkpt lat="44.14583" lon="3.56185">
        <ele>1474.1702069306</ele>
        <time>2017-05-24T16:36:04Z</time>
      </trkpt>
      <trkpt lat="44.14581" lon="3.56187">
        <ele>1474.1702069306</ele>
        <time>2017-05-24T16:36:07Z</time>
      </trkpt>
      <trkpt lat="44.14574" lon="3.56199">
        <ele>1462.8629871834</ele>
        <time>2017-05-24T16:36:27Z</time>
      </trkpt>
      <trkpt lat="44.14555" lon="3.56216">
        <ele>1452.1144454056</ele>
        <time>2017-05-24T16:36:35Z</time>
      </trkpt>
      <trkpt lat="44.14541" lon="3.56226">
        <ele>1442.1515300307</ele>
        <time>2017-05-24T16:36:47Z</time>
      </trkpt>
      <trkpt lat="44.14537" lon="3.56229">
        <ele>1442.1515300307</ele>
        <time>2017-05-24T16:36:52Z</time>
      </trkpt>
      <trkpt lat="44.14523" lon="3.56237">
        <ele>1432.4897812433</ele>
        <time>2017-05-24T16:37:20Z</time>
      </trkpt>
      <trkpt lat="44.14491" lon="3.56275">
        <ele>1423.2839053112</ele>
        <time>2017-05-24T16:37:40Z</time>
      </trkpt>
      <trkpt lat="44.1448" lon="3.56277">
        <ele>1414.8912537684</ele>
        <time>2017-05-24T16:37:42Z</time>
      </trkpt>
      <trkpt lat="44.14468" lon="3.56291">
        <ele>1407.3659333111</ele>
        <time>2017-05-24T16:37:55Z</time>
      </trkpt>
      <trkpt lat="44.14467" lon="3.56292">
        <ele>1407.3659333111</ele>
        <time>2017-05-24T16:37:56Z</time>
      </trkpt>
      <trkpt lat="44.14463" lon="3.56295">
        <ele>1407.3659333111</ele>
        <time>2017-05-24T16:38:02Z</time>
      </trkpt>
      <trkpt lat="44.14446" lon="3.56312">
        <ele>1400.6826725088</ele>
        <time>2017-05-24T16:38:29Z</time>
      </trkpt>
      <trkpt lat="44.14443" lon="3.56317">
        <ele>1400.6826725088</ele>
        <time>2017-05-24T16:38:29Z</time>
      </trkpt>
      <trkpt lat="44.14425" lon="3.56316">
        <ele>1395.2471106358</ele>
        <time>2017-05-24T16:38:44Z</time>
      </trkpt>
      <trkpt lat="44.14423" lon="3.5632">
        <ele>1395.2471106358</ele>
        <time>2017-05-24T16:38:46Z</time>
      </trkpt>
      <trkpt lat="44.14418" lon="3.56324">
        <ele>1390.6524799173</ele>
        <time>2017-05-24T16:38:51Z</time>
      </trkpt>
      <trkpt lat="44.14406" lon="3.56329">
        <ele>1386.9365668756</ele>
        <time>2017-05-24T16:39:01Z</time>
      </trkpt>
      <trkpt lat="44.14399" lon="3.56327">
        <ele>1386.9365668756</ele>
        <time>2017-05-24T16:39:06Z</time>
      </trkpt>
      <trkpt lat="44.1439" lon="3.56332">
        <ele>1384.3039889612</ele>
        <time>2017-05-24T16:39:16Z</time>
      </trkpt>
      <trkpt lat="44.14382" lon="3.56334">
        <ele>1384.3039889612</ele>
        <time>2017-05-24T16:39:21Z</time>
      </trkpt>
      <trkpt lat="44.14374" lon="3.56347">
        <ele>1382.5801908958</ele>
        <time>2017-05-24T16:39:31Z</time>
      </trkpt>
      <trkpt lat="44.14373" lon="3.56359">
        <ele>1382.5801908958</ele>
        <time>2017-05-24T16:39:36Z</time>
      </trkpt>
      <trkpt lat="44.14363" lon="3.56368">
        <ele>1381.8595109103</ele>
        <time>2017-05-24T16:39:46Z</time>
      </trkpt>
      <trkpt lat="44.1436" lon="3.56375">
        <ele>1381.8595109103</ele>
        <time>2017-05-24T16:39:51Z</time>
      </trkpt>
      <trkpt lat="44.14355" lon="3.5639">
        <ele>1381.5196694388</ele>
        <time>2017-05-24T16:40:01Z</time>
      </trkpt>
      <trkpt lat="44.14356" lon="3.56397">
        <ele>1381.5196694388</ele>
        <time>2017-05-24T16:40:06Z</time>
      </trkpt>
      <trkpt lat="44.14358" lon="3.56399">
        <ele>1381.5196694388</ele>
        <time>2017-05-24T16:40:46Z</time>
      </trkpt>
      <trkpt lat="44.14357" lon="3.564">
        <ele>1382.1064256417</ele>
        <time>2017-05-24T16:40:51Z</time>
      </trkpt>
      <trkpt lat="44.14352" lon="3.56406">
        <ele>1382.1064256417</ele>
        <time>2017-05-24T16:41:01Z</time>
      </trkpt>
      <trkpt lat="44.14346" lon="3.56415">
        <ele>1382.7387684136</ele>
        <time>2017-05-24T16:41:11Z</time>
      </trkpt>
      <trkpt lat="44.14343" lon="3.56417">
        <ele>1382.7387684136</ele>
        <time>2017-05-24T16:41:17Z</time>
      </trkpt>
      <trkpt lat="44.14333" lon="3.56421">
        <ele>1383.4788042299</ele>
        <time>2017-05-24T16:41:26Z</time>
      </trkpt>
      <trkpt lat="44.1431" lon="3.56429">
        <ele>1384.4121074367</ele>
        <time>2017-05-24T16:41:46Z</time>
      </trkpt>
      <trkpt lat="44.14295" lon="3.56434">
        <ele>1385.5593498287</ele>
        <time>2017-05-24T16:42:01Z</time>
      </trkpt>
      <trkpt lat="44.14286" lon="3.56443">
        <ele>1386.9531243146</ele>
        <time>2017-05-24T16:42:14Z</time>
      </trkpt>
      <trkpt lat="44.14254" lon="3.56472">
        <ele>1389.0117243002</ele>
        <time>2017-05-24T16:43:06Z</time>
      </trkpt>
      <trkpt lat="44.14229" lon="3.56486">
        <ele>1391.7314939234</ele>
        <time>2017-05-24T16:43:42Z</time>
      </trkpt>
      <trkpt lat="44.14221" lon="3.56501">
        <ele>1394.5737802491</ele>
        <time>2017-05-24T16:43:55Z</time>
      </trkpt>
      <trkpt lat="44.14209" lon="3.56514">
        <ele>1397.8748582037</ele>
        <time>2017-05-24T16:44:16Z</time>
      </trkpt>
      <trkpt lat="44.14199" lon="3.56529">
        <ele>1401.5702387853</ele>
        <time>2017-05-24T16:44:41Z</time>
      </trkpt>
      <trkpt lat="44.14196" lon="3.56536">
        <ele>1401.5702387853</ele>
        <time>2017-05-24T16:44:41Z</time>
      </trkpt>
      <trkpt lat="44.14193" lon="3.5655">
        <ele>1405.5558016139</ele>
        <time>2017-05-24T16:44:58Z</time>
      </trkpt>
      <trkpt lat="44.14192" lon="3.56551">
        <ele>1405.5558016139</ele>
        <time>2017-05-24T16:44:59Z</time>
      </trkpt>
      <trkpt lat="44.14185" lon="3.56564">
        <ele>1409.7198750277</ele>
        <time>2017-05-24T16:45:22Z</time>
      </trkpt>
      <trkpt lat="44.14183" lon="3.56569">
        <ele>1409.7198750277</ele>
        <time>2017-05-24T16:45:22Z</time>
      </trkpt>
      <trkpt lat="44.14153" lon="3.5658">
        <ele>1414.304435209</ele>
        <time>2017-05-24T16:45:49Z</time>
      </trkpt>
      <trkpt lat="44.14147" lon="3.56585">
        <ele>1414.304435209</ele>
        <time>2017-05-24T16:45:56Z</time>
      </trkpt>
      <trkpt lat="44.14123" lon="3.56586">
        <ele>1419.2299999237</ele>
        <time>2017-05-24T16:46:29Z</time>
      </trkpt>
      <trkpt lat="44.14118" lon="3.56586">
        <ele>1419.2299999237</ele>
        <time>2017-05-24T16:46:29Z</time>
      </trkpt>
      <trkpt lat="44.14105" lon="3.56587">
        <ele>1424.2492151644</ele>
        <time>2017-05-24T16:46:55Z</time>
      </trkpt>
      <trkpt lat="44.14098" lon="3.56589">
        <ele>1424.2492151644</ele>
        <time>2017-05-24T16:46:56Z</time>
      </trkpt>
      <trkpt lat="44.14084" lon="3.56592">
        <ele>1429.795773564</ele>
        <time>2017-05-24T16:47:08Z</time>
      </trkpt>
      <trkpt lat="44.14081" lon="3.56593">
        <ele>1429.795773564</ele>
        <time>2017-05-24T16:47:11Z</time>
      </trkpt>
      <trkpt lat="44.14066" lon="3.56599">
        <ele>1435.578569708</ele>
        <time>2017-05-24T16:47:25Z</time>
      </trkpt>
      <trkpt lat="44.1406" lon="3.56604">
        <ele>1435.578569708</ele>
        <time>2017-05-24T16:47:32Z</time>
      </trkpt>
      <trkpt lat="44.14052" lon="3.5661">
        <ele>1441.3419485913</ele>
        <time>2017-05-24T16:47:41Z</time>
      </trkpt>
      <trkpt lat="44.14049" lon="3.56613">
        <ele>1441.3419485913</ele>
        <time>2017-05-24T16:47:48Z</time>
      </trkpt>
      <trkpt lat="44.13986" lon="3.56646">
        <ele>1448.6220187066</ele>
        <time>2017-05-24T16:48:59Z</time>
      </trkpt>
      <trkpt lat="44.13982" lon="3.56646">
        <ele>1448.6220187066</ele>
        <time>2017-05-24T16:49:04Z</time>
      </trkpt>
      <trkpt lat="44.13973" lon="3.56647">
        <ele>1455.3939383835</ele>
        <time>2017-05-24T16:49:06Z</time>
      </trkpt>
      <trkpt lat="44.13961" lon="3.56644">
        <ele>1462.0892568021</ele>
        <time>2017-05-24T16:49:24Z</time>
      </trkpt>
      <trkpt lat="44.13953" lon="3.56644">
        <ele>1462.0892568021</ele>
        <time>2017-05-24T16:49:24Z</time>
      </trkpt>
      <trkpt lat="44.13917" lon="3.56641">
        <ele>1469.1373398771</ele>
        <time>2017-05-24T16:49:56Z</time>
      </trkpt>
      <trkpt lat="44.13872" lon="3.56621">
        <ele>1476.5320282226</ele>
        <time>2017-05-24T16:50:55Z</time>
      </trkpt>
      <trkpt lat="44.13851" lon="3.56612">
        <ele>1483.7195679892</ele>
        <time>2017-05-24T16:51:06Z</time>
      </trkpt>
      <trkpt lat="44.13829" lon="3.56599">
        <ele>1490.5483182823</ele>
        <time>2017-05-24T16:51:32Z</time>
      </trkpt>
      <trkpt lat="44.13822" lon="3.56596">
        <ele>1490.5483182823</ele>
        <time>2017-05-24T16:51:32Z</time>
      </trkpt>
      <trkpt lat="44.13811" lon="3.56591">
        <ele>1496.9082051506</ele>
        <time>2017-05-24T16:51:48Z</time>
      </trkpt>
      <trkpt lat="44.13802" lon="3.56589">
        <ele>1496.9082051506</ele>
        <time>2017-05-24T16:51:48Z</time>
      </trkpt>
      <trkpt lat="44.13789" lon="3.56583">
        <ele>1502.7856388813</ele>
        <time>2017-05-24T16:52:05Z</time>
      </trkpt>
      <trkpt lat="44.1376" lon="3.56575">
        <ele>1508.2420643121</ele>
        <time>2017-05-24T16:52:26Z</time>
      </trkpt>
      <trkpt lat="44.13719" lon="3.56566">
        <ele>1513.379458944</ele>
        <time>2017-05-24T16:53:01Z</time>
      </trkpt>
      <trkpt lat="44.1369" lon="3.56555">
        <ele>1518.0056123333</ele>
        <time>2017-05-24T16:53:26Z</time>
      </trkpt>
      <trkpt lat="44.13676" lon="3.56544">
        <ele>1522.0886027425</ele>
        <time>2017-05-24T16:53:41Z</time>
      </trkpt>
      <trkpt lat="44.1367" lon="3.56542">
        <ele>1522.0886027425</ele>
        <time>2017-05-24T16:53:46Z</time>
      </trkpt>
      <trkpt lat="44.13667" lon="3.5654">
        <ele>1525.4712882648</ele>
        <time>2017-05-24T16:53:51Z</time>
      </trkpt>
      <trkpt lat="44.13662" lon="3.56537">
        <ele>1525.4712882648</ele>
        <time>2017-05-24T16:53:56Z</time>
      </trkpt>
      <trkpt lat="44.13656" lon="3.56533">
        <ele>1528.2988507712</ele>
        <time>2017-05-24T16:54:01Z</time>
      </trkpt>
      <trkpt lat="44.13652" lon="3.56532">
        <ele>1528.2988507712</ele>
        <time>2017-05-24T16:54:06Z</time>
      </trkpt>
      <trkpt lat="44.13652" lon="3.56532">
        <ele>1528.2988507712</ele>
        <time>2017-05-24T16:54:11Z</time>
      </trkpt>
      <trkpt lat="44.13649" lon="3.5653">
        <ele>1528.2988507712</ele>
        <time>2017-05-24T16:54:16Z</time>
      </trkpt>
      <trkpt lat="44.13642" lon="3.56527">
        <ele>1530.5350010818</ele>
        <time>2017-05-24T16:54:21Z</time>
      </trkpt>
      <trkpt lat="44.13637" lon="3.56525">
        <ele>1530.5350010818</ele>
        <time>2017-05-24T16:54:26Z</time>
      </trkpt>
      <trkpt lat="44.1363" lon="3.56524">
        <ele>1532.133905392</ele>
        <time>2017-05-24T16:54:31Z</time>
      </trkpt>
      <trkpt lat="44.13625" lon="3.56522">
        <ele>1532.133905392</ele>
        <time>2017-05-24T16:54:36Z</time>
      </trkpt>
      <trkpt lat="44.13618" lon="3.56519">
        <ele>1533.3147934633</ele>
        <time>2017-05-24T16:54:41Z</time>
      </trkpt>
      <trkpt lat="44.13612" lon="3.56516">
        <ele>1533.3147934633</ele>
        <time>2017-05-24T16:54:46Z</time>
      </trkpt>
      <trkpt lat="44.13607" lon="3.56516">
        <ele>1534.167147009</ele>
        <time>2017-05-24T16:54:51Z</time>
      </trkpt>
      <trkpt lat="44.13601" lon="3.56516">
        <ele>1534.167147009</ele>
        <time>2017-05-24T16:54:56Z</time>
      </trkpt>
      <trkpt lat="44.13592" lon="3.56517">
        <ele>1534.6022964832</ele>
        <time>2017-05-24T16:55:19Z</time>
      </trkpt>
      <trkpt lat="44.13574" lon="3.56505">
        <ele>1534.885516433</ele>
        <time>2017-05-24T16:55:57Z</time>
      </trkpt>
      <trkpt lat="44.13539" lon="3.56484">
        <ele>1534.4851716451</ele>
        <time>2017-05-24T16:56:26Z</time>
      </trkpt>
      <trkpt lat="44.13534" lon="3.56481">
        <ele>1534.4851716451</ele>
        <time>2017-05-24T16:56:31Z</time>
      </trkpt>
      <trkpt lat="44.13502" lon="3.56464">
        <ele>1533.6746954114</ele>
        <time>2017-05-24T16:56:56Z</time>
      </trkpt>
      <trkpt lat="44.13498" lon="3.56461">
        <ele>1533.6746954114</ele>
        <time>2017-05-24T16:57:03Z</time>
      </trkpt>
      <trkpt lat="44.13484" lon="3.56452">
        <ele>1532.6223827038</ele>
        <time>2017-05-24T16:57:11Z</time>
      </trkpt>
      <trkpt lat="44.13476" lon="3.56448">
        <ele>1532.6223827038</ele>
        <time>2017-05-24T16:57:18Z</time>
      </trkpt>
      <trkpt lat="44.13472" lon="3.56444">
        <ele>1531.5715306571</ele>
        <time>2017-05-24T16:57:21Z</time>
      </trkpt>
      <trkpt lat="44.13442" lon="3.56444">
        <ele>1530.373046708</ele>
        <time>2017-05-24T16:57:46Z</time>
      </trkpt>
      <trkpt lat="44.13435" lon="3.56447">
        <ele>1530.373046708</ele>
        <time>2017-05-24T16:57:53Z</time>
      </trkpt>
      <trkpt lat="44.13427" lon="3.56451">
        <ele>1529.0190379681</ele>
        <time>2017-05-24T16:58:01Z</time>
      </trkpt>
      <trkpt lat="44.13417" lon="3.56458">
        <ele>1527.6180090602</ele>
        <time>2017-05-24T16:58:09Z</time>
      </trkpt>
      <trkpt lat="44.13399" lon="3.56472">
        <ele>1526.3139132311</ele>
        <time>2017-05-24T16:58:29Z</time>
      </trkpt>
      <trkpt lat="44.13388" lon="3.56473">
        <ele>1524.922830283</ele>
        <time>2017-05-24T16:58:33Z</time>
      </trkpt>
      <trkpt lat="44.13373" lon="3.56474">
        <ele>1523.3178116642</ele>
        <time>2017-05-24T16:58:50Z</time>
      </trkpt>
      <trkpt lat="44.13366" lon="3.56476">
        <ele>1523.3178116642</ele>
        <time>2017-05-24T16:58:50Z</time>
      </trkpt>
      <trkpt lat="44.13353" lon="3.56475">
        <ele>1521.583541703</ele>
        <time>2017-05-24T16:59:01Z</time>
      </trkpt>
      <trkpt lat="44.1335" lon="3.56475">
        <ele>1521.583541703</ele>
        <time>2017-05-24T16:59:08Z</time>
      </trkpt>
      <trkpt lat="44.13329" lon="3.56476">
        <ele>1519.7123009093</ele>
        <time>2017-05-24T16:59:17Z</time>
      </trkpt>
      <trkpt lat="44.13327" lon="3.56476">
        <ele>1519.7123009093</ele>
        <time>2017-05-24T16:59:24Z</time>
      </trkpt>
      <trkpt lat="44.13303" lon="3.56475">
        <ele>1517.9133803217</ele>
        <time>2017-05-24T16:59:41Z</time>
      </trkpt>
      <trkpt lat="44.13267" lon="3.56482">
        <ele>1516.1930148808</ele>
        <time>2017-05-24T17:00:06Z</time>
      </trkpt>
      <trkpt lat="44.13259" lon="3.56483">
        <ele>1516.1930148808</ele>
        <time>2017-05-24T17:00:15Z</time>
      </trkpt>
      <trkpt lat="44.13244" lon="3.56481">
        <ele>1514.6863027399</ele>
        <time>2017-05-24T17:00:26Z</time>
      </trkpt>
      <trkpt lat="44.13238" lon="3.56482">
        <ele>1514.6863027399</ele>
        <time>2017-05-24T17:00:31Z</time>
      </trkpt>
      <trkpt lat="44.13224" lon="3.56493">
        <ele>1513.560872602</ele>
        <time>2017-05-24T17:00:48Z</time>
      </trkpt>
      <trkpt lat="44.13216" lon="3.565">
        <ele>1512.6681399767</ele>
        <time>2017-05-24T17:00:48Z</time>
      </trkpt>
      <trkpt lat="44.13212" lon="3.56503">
        <ele>1512.6681399767</ele>
        <time>2017-05-24T17:00:51Z</time>
      </trkpt>
      <trkpt lat="44.13203" lon="3.56514">
        <ele>1512.2442626363</ele>
        <time>2017-05-24T17:01:08Z</time>
      </trkpt>
      <trkpt lat="44.13163" lon="3.56563">
        <ele>1512.4776961323</ele>
        <time>2017-05-24T17:01:43Z</time>
      </trkpt>
      <trkpt lat="44.13146" lon="3.56587">
        <ele>1512.5177982076</ele>
        <time>2017-05-24T17:01:58Z</time>
      </trkpt>
      <trkpt lat="44.13138" lon="3.56599">
        <ele>1512.4990465347</ele>
        <time>2017-05-24T17:02:06Z</time>
      </trkpt>
      <trkpt lat="44.13135" lon="3.56604">
        <ele>1512.4990465347</ele>
        <time>2017-05-24T17:02:14Z</time>
      </trkpt>
      <trkpt lat="44.13117" lon="3.56626">
        <ele>1512.3298180374</ele>
        <time>2017-05-24T17:02:37Z</time>
      </trkpt>
      <trkpt lat="44.13088" lon="3.56687">
        <ele>1512.1271793561</ele>
        <time>2017-05-24T17:03:18Z</time>
      </trkpt>
      <trkpt lat="44.13083" lon="3.56702">
        <ele>1511.7400737776</ele>
        <time>2017-05-24T17:03:18Z</time>
      </trkpt>
      <trkpt lat="44.13079" lon="3.56717">
        <ele>1511.1441310026</ele>
        <time>2017-05-24T17:03:29Z</time>
      </trkpt>
      <trkpt lat="44.13079" lon="3.5672">
        <ele>1511.1441310026</ele>
        <time>2017-05-24T17:03:29Z</time>
      </trkpt>
      <trkpt lat="44.13071" lon="3.56761">
        <ele>1509.8271615063</ele>
        <time>2017-05-24T17:04:00Z</time>
      </trkpt>
      <trkpt lat="44.1305" lon="3.56872">
        <ele>1507.6910919805</ele>
        <time>2017-05-24T17:05:07Z</time>
      </trkpt>
      <trkpt lat="44.13047" lon="3.56878">
        <ele>1507.6910919805</ele>
        <time>2017-05-24T17:05:08Z</time>
      </trkpt>
      <trkpt lat="44.13042" lon="3.56882">
        <ele>1505.6991368162</ele>
        <time>2017-05-24T17:05:21Z</time>
      </trkpt>
      <trkpt lat="44.12996" lon="3.56927">
        <ele>1504.4116609502</ele>
        <time>2017-05-24T17:06:06Z</time>
      </trkpt>
      <trkpt lat="44.12974" lon="3.56939">
        <ele>1503.4089280842</ele>
        <time>2017-05-24T17:06:33Z</time>
      </trkpt>
      <trkpt lat="44.12964" lon="3.56947">
        <ele>1502.6036284102</ele>
        <time>2017-05-24T17:06:33Z</time>
      </trkpt>
      <trkpt lat="44.12912" lon="3.56973">
        <ele>1502.5337495256</ele>
        <time>2017-05-24T17:07:15Z</time>
      </trkpt>
      <trkpt lat="44.12912" lon="3.56974">
        <ele>1502.5337495256</ele>
        <time>2017-05-24T17:07:16Z</time>
      </trkpt>
      <trkpt lat="44.12899" lon="3.5698">
        <ele>1502.960493959</ele>
        <time>2017-05-24T17:07:34Z</time>
      </trkpt>
      <trkpt lat="44.12891" lon="3.56986">
        <ele>1503.6177541631</ele>
        <time>2017-05-24T17:07:34Z</time>
      </trkpt>
      <trkpt lat="44.12889" lon="3.56987">
        <ele>1503.6177541631</ele>
        <time>2017-05-24T17:07:36Z</time>
      </trkpt>
      <trkpt lat="44.12882" lon="3.5699">
        <ele>1504.647211713</ele>
        <time>2017-05-24T17:07:52Z</time>
      </trkpt>
      <trkpt lat="44.12862" lon="3.56996">
        <ele>1506.3374228</ele>
        <time>2017-05-24T17:08:08Z</time>
      </trkpt>
      <trkpt lat="44.1285" lon="3.57007">
        <ele>1508.3340385255</ele>
        <time>2017-05-24T17:08:08Z</time>
      </trkpt>
      <trkpt lat="44.12823" lon="3.57014">
        <ele>1510.4662481997</ele>
        <time>2017-05-24T17:08:36Z</time>
      </trkpt>
      <trkpt lat="44.12815" lon="3.5702">
        <ele>1510.4662481997</ele>
        <time>2017-05-24T17:08:36Z</time>
      </trkpt>
      <trkpt lat="44.12798" lon="3.57032">
        <ele>1511.9267751859</ele>
        <time>2017-05-24T17:09:00Z</time>
      </trkpt>
      <trkpt lat="44.12758" lon="3.57041">
        <ele>1512.9205505372</ele>
        <time>2017-05-24T17:09:34Z</time>
      </trkpt>
      <trkpt lat="44.12747" lon="3.57044">
        <ele>1513.8980663658</ele>
        <time>2017-05-24T17:09:37Z</time>
      </trkpt>
      <trkpt lat="44.12728" lon="3.57045">
        <ele>1514.6714207704</ele>
        <time>2017-05-24T17:09:55Z</time>
      </trkpt>
      <trkpt lat="44.12719" lon="3.57047">
        <ele>1515.3408303888</ele>
        <time>2017-05-24T17:09:59Z</time>
      </trkpt>
      <trkpt lat="44.12712" lon="3.57054">
        <ele>1516.0137935401</ele>
        <time>2017-05-24T17:10:06Z</time>
      </trkpt>
      <trkpt lat="44.12687" lon="3.57086">
        <ele>1517.0348404446</ele>
        <time>2017-05-24T17:10:40Z</time>
      </trkpt>
      <trkpt lat="44.12682" lon="3.57088">
        <ele>1517.0348404446</ele>
        <time>2017-05-24T17:10:44Z</time>
      </trkpt>
      <trkpt lat="44.12657" lon="3.5709">
        <ele>1518.2754295692</ele>
        <time>2017-05-24T17:11:06Z</time>
      </trkpt>
      <trkpt lat="44.12651" lon="3.57089">
        <ele>1518.2754295692</ele>
        <time>2017-05-24T17:11:06Z</time>
      </trkpt>
      <trkpt lat="44.1264" lon="3.57087">
        <ele>1519.4717021879</ele>
        <time>2017-05-24T17:11:23Z</time>
      </trkpt>
      <trkpt lat="44.12629" lon="3.57086">
        <ele>1520.5810390027</ele>
        <time>2017-05-24T17:11:23Z</time>
      </trkpt>
      <trkpt lat="44.126" lon="3.57085">
        <ele>1521.7082925124</ele>
        <time>2017-05-24T17:11:52Z</time>
      </trkpt>
      <trkpt lat="44.12592" lon="3.57083">
        <ele>1521.7082925124</ele>
        <time>2017-05-24T17:11:52Z</time>
      </trkpt>
      <trkpt lat="44.12562" lon="3.57081">
        <ele>1522.9649686292</ele>
        <time>2017-05-24T17:12:16Z</time>
      </trkpt>
      <trkpt lat="44.12482" lon="3.57069">
        <ele>1524.4540227093</ele>
        <time>2017-05-24T17:13:24Z</time>
      </trkpt>
      <trkpt lat="44.1248" lon="3.57069">
        <ele>1524.4540227093</ele>
        <time>2017-05-24T17:13:26Z</time>
      </trkpt>
      <trkpt lat="44.12432" lon="3.57082">
        <ele>1526.313441376</ele>
        <time>2017-05-24T17:14:03Z</time>
      </trkpt>
      <trkpt lat="44.12429" lon="3.57083">
        <ele>1526.313441376</ele>
        <time>2017-05-24T17:14:06Z</time>
      </trkpt>
      <trkpt lat="44.12414" lon="3.57086">
        <ele>1528.0215578814</ele>
        <time>2017-05-24T17:14:18Z</time>
      </trkpt>
      <trkpt lat="44.12408" lon="3.57089">
        <ele>1528.0215578814</ele>
        <time>2017-05-24T17:14:23Z</time>
      </trkpt>
      <trkpt lat="44.12404" lon="3.5709">
        <ele>1529.8016282161</ele>
        <time>2017-05-24T17:14:26Z</time>
      </trkpt>
      <trkpt lat="44.12392" lon="3.57091">
        <ele>1531.6874152403</ele>
        <time>2017-05-24T17:14:37Z</time>
      </trkpt>
      <trkpt lat="44.12389" lon="3.57091">
        <ele>1531.6874152403</ele>
        <time>2017-05-24T17:14:41Z</time>
      </trkpt>
      <trkpt lat="44.12385" lon="3.57092">
        <ele>1531.6874152403</ele>
        <time>2017-05-24T17:14:46Z</time>
      </trkpt>
      <trkpt lat="44.12384" lon="3.57091">
        <ele>1531.6874152403</ele>
        <time>2017-05-24T17:14:51Z</time>
      </trkpt>
      <trkpt lat="44.1237" lon="3.57094">
        <ele>1533.8396576591</ele>
        <time>2017-05-24T17:15:01Z</time>
      </trkpt>
      <trkpt lat="44.12365" lon="3.57096">
        <ele>1533.8396576591</ele>
        <time>2017-05-24T17:15:06Z</time>
      </trkpt>
      <trkpt lat="44.12353" lon="3.57099">
        <ele>1535.858978581</ele>
        <time>2017-05-24T17:15:16Z</time>
      </trkpt>
      <trkpt lat="44.12347" lon="3.571">
        <ele>1535.858978581</ele>
        <time>2017-05-24T17:15:21Z</time>
      </trkpt>
      <trkpt lat="44.12336" lon="3.57099">
        <ele>1537.6351830558</ele>
        <time>2017-05-24T17:15:32Z</time>
      </trkpt>
      <trkpt lat="44.1233" lon="3.57098">
        <ele>1537.6351830558</ele>
        <time>2017-05-24T17:15:36Z</time>
      </trkpt>
      <trkpt lat="44.12317" lon="3.57093">
        <ele>1539.2975096941</ele>
        <time>2017-05-24T17:15:48Z</time>
      </trkpt>
      <trkpt lat="44.12311" lon="3.5709">
        <ele>1539.2975096941</ele>
        <time>2017-05-24T17:15:52Z</time>
      </trkpt>
      <trkpt lat="44.12306" lon="3.57087">
        <ele>1540.778763233</ele>
        <time>2017-05-24T17:15:56Z</time>
      </trkpt>
      <trkpt lat="44.12301" lon="3.57084">
        <ele>1540.778763233</ele>
        <time>2017-05-24T17:16:01Z</time>
      </trkpt>
      <trkpt lat="44.12296" lon="3.57081">
        <ele>1542.1037481821</ele>
        <time>2017-05-24T17:16:08Z</time>
      </trkpt>
      <trkpt lat="44.12294" lon="3.5708">
        <ele>1542.1037481821</ele>
        <time>2017-05-24T17:16:11Z</time>
      </trkpt>
      <trkpt lat="44.12279" lon="3.57073">
        <ele>1543.2527429299</ele>
        <time>2017-05-24T17:16:22Z</time>
      </trkpt>
      <trkpt lat="44.12267" lon="3.57071">
        <ele>1544.1504148666</ele>
        <time>2017-05-24T17:16:36Z</time>
      </trkpt>
      <trkpt lat="44.12262" lon="3.5707">
        <ele>1544.1504148666</ele>
        <time>2017-05-24T17:16:41Z</time>
      </trkpt>
      <trkpt lat="44.12242" lon="3.57072">
        <ele>1544.7421704332</ele>
        <time>2017-05-24T17:16:57Z</time>
      </trkpt>
      <trkpt lat="44.12237" lon="3.57071">
        <ele>1544.7421704332</ele>
        <time>2017-05-24T17:17:01Z</time>
      </trkpt>
      <trkpt lat="44.12228" lon="3.57066">
        <ele>1545.3962925469</ele>
        <time>2017-05-24T17:17:11Z</time>
      </trkpt>
      <trkpt lat="44.12219" lon="3.57061">
        <ele>1545.9495267696</ele>
        <time>2017-05-24T17:17:16Z</time>
      </trkpt>
      <trkpt lat="44.12216" lon="3.5707">
        <ele>1545.9495267696</ele>
        <time>2017-05-24T17:17:26Z</time>
      </trkpt>
      <trkpt lat="44.12215" lon="3.57077">
        <ele>1546.8994699403</ele>
        <time>2017-05-24T17:17:31Z</time>
      </trkpt>
      <trkpt lat="44.12211" lon="3.57096">
        <ele>1547.8558674965</ele>
        <time>2017-05-24T17:17:41Z</time>
      </trkpt>
      <trkpt lat="44.12209" lon="3.57104">
        <ele>1547.8558674965</ele>
        <time>2017-05-24T17:17:46Z</time>
      </trkpt>
      <trkpt lat="44.12203" lon="3.57126">
        <ele>1549.0336262033</ele>
        <time>2017-05-24T17:18:01Z</time>
      </trkpt>
      <trkpt lat="44.122" lon="3.57135">
        <ele>1549.0336262033</ele>
        <time>2017-05-24T17:18:06Z</time>
      </trkpt>
      <trkpt lat="44.12197" lon="3.57149">
        <ele>1550.3574982512</ele>
        <time>2017-05-24T17:18:16Z</time>
      </trkpt>
      <trkpt lat="44.12195" lon="3.57158">
        <ele>1550.3574982512</ele>
        <time>2017-05-24T17:18:21Z</time>
      </trkpt>
      <trkpt lat="44.1219" lon="3.57176">
        <ele>1551.9015285375</ele>
        <time>2017-05-24T17:18:31Z</time>
      </trkpt>
      <trkpt lat="44.12188" lon="3.57186">
        <ele>1551.9015285375</ele>
        <time>2017-05-24T17:18:37Z</time>
      </trkpt>
      <trkpt lat="44.12178" lon="3.57225">
        <ele>1554.3966819815</ele>
        <time>2017-05-24T17:19:03Z</time>
      </trkpt>
      <trkpt lat="44.12168" lon="3.57271">
        <ele>1557.2782730421</ele>
        <time>2017-05-24T17:19:35Z</time>
      </trkpt>
      <trkpt lat="44.12167" lon="3.573">
        <ele>1560.2094351904</ele>
        <time>2017-05-24T17:19:52Z</time>
      </trkpt>
      <trkpt lat="44.12168" lon="3.57316">
        <ele>1562.7915280223</ele>
        <time>2017-05-24T17:19:54Z</time>
      </trkpt>
      <trkpt lat="44.12167" lon="3.57333">
        <ele>1564.9877246834</ele>
        <time>2017-05-24T17:20:01Z</time>
      </trkpt>
      <trkpt lat="44.12168" lon="3.57341">
        <ele>1564.9877246834</ele>
        <time>2017-05-24T17:20:09Z</time>
      </trkpt>
      <trkpt lat="44.12168" lon="3.57396">
        <ele>1566.1309972129</ele>
        <time>2017-05-24T17:20:43Z</time>
      </trkpt>
      <trkpt lat="44.12168" lon="3.5741">
        <ele>1567.004250841</ele>
        <time>2017-05-24T17:20:43Z</time>
      </trkpt>
      <trkpt lat="44.12167" lon="3.57451">
        <ele>1567.5987679669</ele>
        <time>2017-05-24T17:21:06Z</time>
      </trkpt>
      <trkpt lat="44.12169" lon="3.5755">
        <ele>1568.5270234668</ele>
        <time>2017-05-24T17:22:01Z</time>
      </trkpt>
      <trkpt lat="44.12168" lon="3.57557">
        <ele>1568.5270234668</ele>
        <time>2017-05-24T17:22:06Z</time>
      </trkpt>
      <trkpt lat="44.12164" lon="3.5761">
        <ele>1569.3036361356</ele>
        <time>2017-05-24T17:22:39Z</time>
      </trkpt>
      <trkpt lat="44.12162" lon="3.57655">
        <ele>1569.8252475882</ele>
        <time>2017-05-24T17:23:08Z</time>
      </trkpt>
      <trkpt lat="44.12155" lon="3.57722">
        <ele>1569.9536393772</ele>
        <time>2017-05-24T17:23:41Z</time>
      </trkpt>
      <trkpt lat="44.12151" lon="3.5773">
        <ele>1569.9536393772</ele>
        <time>2017-05-24T17:23:46Z</time>
      </trkpt>
      <trkpt lat="44.12144" lon="3.57744">
        <ele>1570.0951163403</ele>
        <time>2017-05-24T17:23:56Z</time>
      </trkpt>
      <trkpt lat="44.1214" lon="3.57752">
        <ele>1570.0951163403</ele>
        <time>2017-05-24T17:24:01Z</time>
      </trkpt>
      <trkpt lat="44.12137" lon="3.57766">
        <ele>1570.0785216271</ele>
        <time>2017-05-24T17:24:11Z</time>
      </trkpt>
      <trkpt lat="44.12135" lon="3.57775">
        <ele>1570.0785216271</ele>
        <time>2017-05-24T17:24:16Z</time>
      </trkpt>
      <trkpt lat="44.12132" lon="3.578">
        <ele>1569.9042696184</ele>
        <time>2017-05-24T17:24:31Z</time>
      </trkpt>
      <trkpt lat="44.12131" lon="3.57809">
        <ele>1569.9042696184</ele>
        <time>2017-05-24T17:24:36Z</time>
      </trkpt>
      <trkpt lat="44.1213" lon="3.57823">
        <ele>1569.4723285222</ele>
        <time>2017-05-24T17:24:46Z</time>
      </trkpt>
      <trkpt lat="44.12129" lon="3.57831">
        <ele>1569.4723285222</ele>
        <time>2017-05-24T17:24:51Z</time>
      </trkpt>
      <trkpt lat="44.12128" lon="3.57849">
        <ele>1568.9501447841</ele>
        <time>2017-05-24T17:25:01Z</time>
      </trkpt>
      <trkpt lat="44.12127" lon="3.57857">
        <ele>1568.9501447841</ele>
        <time>2017-05-24T17:25:06Z</time>
      </trkpt>
      <trkpt lat="44.12127" lon="3.57871">
        <ele>1568.3201778065</ele>
        <time>2017-05-24T17:25:16Z</time>
      </trkpt>
      <trkpt lat="44.1213" lon="3.57879">
        <ele>1568.3201778065</ele>
        <time>2017-05-24T17:25:21Z</time>
      </trkpt>
      <trkpt lat="44.12137" lon="3.57893">
        <ele>1567.6385138077</ele>
        <time>2017-05-24T17:25:31Z</time>
      </trkpt>
      <trkpt lat="44.1214" lon="3.579">
        <ele>1567.6385138077</ele>
        <time>2017-05-24T17:25:36Z</time>
      </trkpt>
      <trkpt lat="44.12142" lon="3.57916">
        <ele>1566.89958664</ele>
        <time>2017-05-24T17:25:46Z</time>
      </trkpt>
      <trkpt lat="44.12143" lon="3.57923">
        <ele>1566.89958664</ele>
        <time>2017-05-24T17:25:51Z</time>
      </trkpt>
      <trkpt lat="44.12146" lon="3.57945">
        <ele>1566.1271763682</ele>
        <time>2017-05-24T17:26:01Z</time>
      </trkpt>
      <trkpt lat="44.12148" lon="3.57953">
        <ele>1566.1271763682</ele>
        <time>2017-05-24T17:26:06Z</time>
      </trkpt>
      <trkpt lat="44.12156" lon="3.57968">
        <ele>1565.0407185842</ele>
        <time>2017-05-24T17:26:21Z</time>
      </trkpt>
      <trkpt lat="44.12158" lon="3.57969">
        <ele>1565.0407185842</ele>
        <time>2017-05-24T17:26:26Z</time>
      </trkpt>
    </trkseg>
  </trk>
</gpx>